<?xml version="1.0" encoding="UTF-8" standalone="no" ?>
<gpx xmlns="http://www.topografix.com/GPX/1/1" xmlns:xsi="http://www.w3.org/2001/XMLSchema-instance" xsi:schemaLocation="http://www.topografix.com/GPX/1/1 http://www.topografix.com/GPX/1/1/gpx.xsd" version="1.1" creator="VisuGPX - https://www.visugpx.com">
  <metadata>
    <name>2022 12 18 col de Sarvatan</name>
    <desc><![CDATA[2022 12 18 col de Sarvatan
sortie initiation GEMSA]]></desc>
  </metadata>
  <trk>
    <name><![CDATA[2022 12 18 col de sarvatan]]></name>
    <extensions>
      <line xmlns="http://www.topografix.com/GPX/gpx_style/0/2">
        <color>0000FF</color>
        <width>4</width>
      </line>
    </extensions>
    <trkseg>
      <trkpt lat="45.43454" lon="6.35508">
        <ele>1974.5078125</ele>
      </trkpt>
      <trkpt lat="45.43448" lon="6.35503">
        <ele>1971.13671875</ele>
      </trkpt>
      <trkpt lat="45.43442" lon="6.35485">
        <ele>1966.3046875</ele>
      </trkpt>
      <trkpt lat="45.43432" lon="6.35475">
        <ele>1961.609375</ele>
      </trkpt>
      <trkpt lat="45.43419" lon="6.35463">
        <ele>1955.84375</ele>
      </trkpt>
      <trkpt lat="45.43407" lon="6.35452">
        <ele>1951.0703125</ele>
      </trkpt>
      <trkpt lat="45.43384" lon="6.35462">
        <ele>1946.0703125</ele>
      </trkpt>
      <trkpt lat="45.43359" lon="6.35476">
        <ele>1941.1328125</ele>
      </trkpt>
      <trkpt lat="45.43349" lon="6.35522">
        <ele>1940.87890625</ele>
      </trkpt>
      <trkpt lat="45.43308" lon="6.3554">
        <ele>1930.05859375</ele>
      </trkpt>
      <trkpt lat="45.43276" lon="6.35597">
        <ele>1921.58984375</ele>
      </trkpt>
      <trkpt lat="45.43267" lon="6.35666">
        <ele>1924.53515625</ele>
      </trkpt>
      <trkpt lat="45.43212" lon="6.35733">
        <ele>1910.125</ele>
      </trkpt>
      <trkpt lat="45.43163" lon="6.35823">
        <ele>1904.62109375</ele>
      </trkpt>
      <trkpt lat="45.43106" lon="6.35921">
        <ele>1898.90234375</ele>
      </trkpt>
      <trkpt lat="45.43085" lon="6.35977">
        <ele>1895.875</ele>
      </trkpt>
      <trkpt lat="45.43055" lon="6.36016">
        <ele>1886.19140625</ele>
      </trkpt>
      <trkpt lat="45.42988" lon="6.36015">
        <ele>1864.17578125</ele>
      </trkpt>
      <trkpt lat="45.42946" lon="6.35968">
        <ele>1847.36328125</ele>
      </trkpt>
      <trkpt lat="45.42883" lon="6.359">
        <ele>1821.44140625</ele>
      </trkpt>
      <trkpt lat="45.42806" lon="6.35892">
        <ele>1800.80078125</ele>
      </trkpt>
      <trkpt lat="45.42704" lon="6.35946">
        <ele>1774.41796875</ele>
      </trkpt>
      <trkpt lat="45.42631" lon="6.36007">
        <ele>1751.3671875</ele>
      </trkpt>
      <trkpt lat="45.42574" lon="6.36096">
        <ele>1726.2890625</ele>
      </trkpt>
      <trkpt lat="45.42533" lon="6.36113">
        <ele>1712.6015625</ele>
      </trkpt>
      <trkpt lat="45.42466" lon="6.36128">
        <ele>1694.20703125</ele>
      </trkpt>
      <trkpt lat="45.42421" lon="6.3613">
        <ele>1682.57421875</ele>
      </trkpt>
      <trkpt lat="45.42392" lon="6.36167">
        <ele>1671.44140625</ele>
      </trkpt>
      <trkpt lat="45.4237" lon="6.3616">
        <ele>1667.1328125</ele>
      </trkpt>
      <trkpt lat="45.42335" lon="6.36163">
        <ele>1658.9765625</ele>
      </trkpt>
      <trkpt lat="45.42311" lon="6.36168">
        <ele>1654.05078125</ele>
      </trkpt>
      <trkpt lat="45.42301" lon="6.36165">
        <ele>1661</ele>
        <time>2022-12-18T08:45:05Z</time>
      </trkpt>
      <trkpt lat="45.42301" lon="6.36165">
        <ele>1661</ele>
        <time>2022-12-18T08:45:06Z</time>
      </trkpt>
      <trkpt lat="45.42301" lon="6.36165">
        <ele>1672</ele>
        <time>2022-12-18T08:47:06Z</time>
      </trkpt>
      <trkpt lat="45.423" lon="6.36167">
        <ele>1672</ele>
        <time>2022-12-18T08:47:34Z</time>
      </trkpt>
      <trkpt lat="45.42303" lon="6.36167">
        <ele>1673</ele>
        <time>2022-12-18T08:47:50Z</time>
      </trkpt>
      <trkpt lat="45.42305" lon="6.36167">
        <ele>1673</ele>
        <time>2022-12-18T08:47:57Z</time>
      </trkpt>
      <trkpt lat="45.42307" lon="6.36167">
        <ele>1673</ele>
        <time>2022-12-18T08:47:59Z</time>
      </trkpt>
      <trkpt lat="45.4231" lon="6.36167">
        <ele>1673</ele>
        <time>2022-12-18T08:48:01Z</time>
      </trkpt>
      <trkpt lat="45.42312" lon="6.36165">
        <ele>1673</ele>
        <time>2022-12-18T08:48:03Z</time>
      </trkpt>
      <trkpt lat="45.42314" lon="6.36165">
        <ele>1673</ele>
        <time>2022-12-18T08:48:05Z</time>
      </trkpt>
      <trkpt lat="45.42316" lon="6.36162">
        <ele>1674</ele>
        <time>2022-12-18T08:48:07Z</time>
      </trkpt>
      <trkpt lat="45.42316" lon="6.3616">
        <ele>1675</ele>
        <time>2022-12-18T08:48:09Z</time>
      </trkpt>
      <trkpt lat="45.42318" lon="6.36161">
        <ele>1675</ele>
        <time>2022-12-18T08:48:23Z</time>
      </trkpt>
      <trkpt lat="45.42319" lon="6.36164">
        <ele>1675</ele>
        <time>2022-12-18T08:48:26Z</time>
      </trkpt>
      <trkpt lat="45.42321" lon="6.36164">
        <ele>1674</ele>
        <time>2022-12-18T08:48:32Z</time>
      </trkpt>
      <trkpt lat="45.42321" lon="6.36165">
        <ele>1675</ele>
        <time>2022-12-18T08:49:56Z</time>
      </trkpt>
      <trkpt lat="45.42321" lon="6.36168">
        <ele>1675</ele>
        <time>2022-12-18T08:49:58Z</time>
      </trkpt>
      <trkpt lat="45.42325" lon="6.36173">
        <ele>1675</ele>
        <time>2022-12-18T08:50:04Z</time>
      </trkpt>
      <trkpt lat="45.42328" lon="6.36173">
        <ele>1677</ele>
        <time>2022-12-18T08:50:08Z</time>
      </trkpt>
      <trkpt lat="45.42328" lon="6.36169">
        <ele>1677</ele>
        <time>2022-12-18T08:50:11Z</time>
      </trkpt>
      <trkpt lat="45.42327" lon="6.36167">
        <ele>1677</ele>
        <time>2022-12-18T08:50:13Z</time>
      </trkpt>
      <trkpt lat="45.42325" lon="6.36165">
        <ele>1677</ele>
        <time>2022-12-18T08:50:15Z</time>
      </trkpt>
      <trkpt lat="45.42322" lon="6.36165">
        <ele>1677</ele>
        <time>2022-12-18T08:50:17Z</time>
      </trkpt>
      <trkpt lat="45.42321" lon="6.36169">
        <ele>1677</ele>
        <time>2022-12-18T08:50:19Z</time>
      </trkpt>
      <trkpt lat="45.42322" lon="6.36173">
        <ele>1677</ele>
        <time>2022-12-18T08:50:23Z</time>
      </trkpt>
      <trkpt lat="45.42324" lon="6.36173">
        <ele>1677</ele>
        <time>2022-12-18T08:50:25Z</time>
      </trkpt>
      <trkpt lat="45.42326" lon="6.36171">
        <ele>1678</ele>
        <time>2022-12-18T08:50:27Z</time>
      </trkpt>
      <trkpt lat="45.42327" lon="6.36169">
        <ele>1679</ele>
        <time>2022-12-18T08:50:30Z</time>
      </trkpt>
      <trkpt lat="45.42325" lon="6.36164">
        <ele>1680</ele>
        <time>2022-12-18T08:50:35Z</time>
      </trkpt>
      <trkpt lat="45.42323" lon="6.36164">
        <ele>1680</ele>
        <time>2022-12-18T08:50:36Z</time>
      </trkpt>
      <trkpt lat="45.42322" lon="6.36168">
        <ele>1680</ele>
        <time>2022-12-18T08:50:38Z</time>
      </trkpt>
      <trkpt lat="45.42323" lon="6.36173">
        <ele>1680</ele>
        <time>2022-12-18T08:50:40Z</time>
      </trkpt>
      <trkpt lat="45.42325" lon="6.36175">
        <ele>1680</ele>
        <time>2022-12-18T08:50:43Z</time>
      </trkpt>
      <trkpt lat="45.42327" lon="6.36173">
        <ele>1680</ele>
        <time>2022-12-18T08:50:46Z</time>
      </trkpt>
      <trkpt lat="45.42328" lon="6.36171">
        <ele>1681</ele>
        <time>2022-12-18T08:50:48Z</time>
      </trkpt>
      <trkpt lat="45.42327" lon="6.36168">
        <ele>1681</ele>
        <time>2022-12-18T08:50:50Z</time>
      </trkpt>
      <trkpt lat="45.42326" lon="6.36166">
        <ele>1680</ele>
        <time>2022-12-18T08:50:52Z</time>
      </trkpt>
      <trkpt lat="45.42324" lon="6.36166">
        <ele>1680</ele>
        <time>2022-12-18T08:50:53Z</time>
      </trkpt>
      <trkpt lat="45.42321" lon="6.36167">
        <ele>1680</ele>
        <time>2022-12-18T08:50:55Z</time>
      </trkpt>
      <trkpt lat="45.42322" lon="6.36171">
        <ele>1679</ele>
        <time>2022-12-18T08:50:57Z</time>
      </trkpt>
      <trkpt lat="45.42324" lon="6.36174">
        <ele>1679</ele>
        <time>2022-12-18T08:50:59Z</time>
      </trkpt>
      <trkpt lat="45.42325" lon="6.36174">
        <ele>1679</ele>
        <time>2022-12-18T08:51:01Z</time>
      </trkpt>
      <trkpt lat="45.42326" lon="6.3617">
        <ele>1679</ele>
        <time>2022-12-18T08:51:03Z</time>
      </trkpt>
      <trkpt lat="45.42325" lon="6.36167">
        <ele>1679</ele>
        <time>2022-12-18T08:51:07Z</time>
      </trkpt>
      <trkpt lat="45.42323" lon="6.36166">
        <ele>1679</ele>
        <time>2022-12-18T08:51:09Z</time>
      </trkpt>
      <trkpt lat="45.42321" lon="6.36169">
        <ele>1678</ele>
        <time>2022-12-18T08:51:11Z</time>
      </trkpt>
      <trkpt lat="45.42321" lon="6.36173">
        <ele>1678</ele>
        <time>2022-12-18T08:51:13Z</time>
      </trkpt>
      <trkpt lat="45.42323" lon="6.36175">
        <ele>1678</ele>
        <time>2022-12-18T08:51:15Z</time>
      </trkpt>
      <trkpt lat="45.42325" lon="6.36174">
        <ele>1678</ele>
        <time>2022-12-18T08:51:17Z</time>
      </trkpt>
      <trkpt lat="45.42327" lon="6.3617">
        <ele>1679</ele>
        <time>2022-12-18T08:51:20Z</time>
      </trkpt>
      <trkpt lat="45.42327" lon="6.36167">
        <ele>1679</ele>
        <time>2022-12-18T08:51:22Z</time>
      </trkpt>
      <trkpt lat="45.42324" lon="6.36164">
        <ele>1679</ele>
        <time>2022-12-18T08:51:24Z</time>
      </trkpt>
      <trkpt lat="45.42322" lon="6.36164">
        <ele>1679</ele>
        <time>2022-12-18T08:51:26Z</time>
      </trkpt>
      <trkpt lat="45.42321" lon="6.36167">
        <ele>1679</ele>
        <time>2022-12-18T08:51:28Z</time>
      </trkpt>
      <trkpt lat="45.42321" lon="6.36172">
        <ele>1678</ele>
        <time>2022-12-18T08:51:30Z</time>
      </trkpt>
      <trkpt lat="45.42323" lon="6.36174">
        <ele>1679</ele>
        <time>2022-12-18T08:51:32Z</time>
      </trkpt>
      <trkpt lat="45.42326" lon="6.36173">
        <ele>1679</ele>
        <time>2022-12-18T08:51:34Z</time>
      </trkpt>
      <trkpt lat="45.42327" lon="6.36171">
        <ele>1678</ele>
        <time>2022-12-18T08:51:36Z</time>
      </trkpt>
      <trkpt lat="45.42327" lon="6.36167">
        <ele>1678</ele>
        <time>2022-12-18T08:51:39Z</time>
      </trkpt>
      <trkpt lat="45.42326" lon="6.36166">
        <ele>1678</ele>
        <time>2022-12-18T08:51:41Z</time>
      </trkpt>
      <trkpt lat="45.42323" lon="6.36167">
        <ele>1677</ele>
        <time>2022-12-18T08:51:43Z</time>
      </trkpt>
      <trkpt lat="45.42322" lon="6.3617">
        <ele>1677</ele>
        <time>2022-12-18T08:51:45Z</time>
      </trkpt>
      <trkpt lat="45.42325" lon="6.36173">
        <ele>1678</ele>
        <time>2022-12-18T08:51:48Z</time>
      </trkpt>
      <trkpt lat="45.42327" lon="6.36172">
        <ele>1679</ele>
        <time>2022-12-18T08:51:51Z</time>
      </trkpt>
      <trkpt lat="45.42327" lon="6.36168">
        <ele>1679</ele>
        <time>2022-12-18T08:51:54Z</time>
      </trkpt>
      <trkpt lat="45.42325" lon="6.36165">
        <ele>1679</ele>
        <time>2022-12-18T08:51:57Z</time>
      </trkpt>
      <trkpt lat="45.42323" lon="6.36166">
        <ele>1678</ele>
        <time>2022-12-18T08:52:00Z</time>
      </trkpt>
      <trkpt lat="45.42323" lon="6.36169">
        <ele>1678</ele>
        <time>2022-12-18T08:52:02Z</time>
      </trkpt>
      <trkpt lat="45.42325" lon="6.36171">
        <ele>1678</ele>
        <time>2022-12-18T08:52:04Z</time>
      </trkpt>
      <trkpt lat="45.42327" lon="6.36172">
        <ele>1679</ele>
        <time>2022-12-18T08:52:06Z</time>
      </trkpt>
      <trkpt lat="45.42329" lon="6.36169">
        <ele>1679</ele>
        <time>2022-12-18T08:52:09Z</time>
      </trkpt>
      <trkpt lat="45.42326" lon="6.36166">
        <ele>1679</ele>
        <time>2022-12-18T08:52:12Z</time>
      </trkpt>
      <trkpt lat="45.42324" lon="6.36165">
        <ele>1679</ele>
        <time>2022-12-18T08:52:14Z</time>
      </trkpt>
      <trkpt lat="45.42322" lon="6.36167">
        <ele>1679</ele>
        <time>2022-12-18T08:52:16Z</time>
      </trkpt>
      <trkpt lat="45.42323" lon="6.36171">
        <ele>1679</ele>
        <time>2022-12-18T08:52:18Z</time>
      </trkpt>
      <trkpt lat="45.42325" lon="6.36172">
        <ele>1679</ele>
        <time>2022-12-18T08:52:20Z</time>
      </trkpt>
      <trkpt lat="45.42327" lon="6.36173">
        <ele>1679</ele>
        <time>2022-12-18T08:52:23Z</time>
      </trkpt>
      <trkpt lat="45.42328" lon="6.36171">
        <ele>1678</ele>
        <time>2022-12-18T08:52:25Z</time>
      </trkpt>
      <trkpt lat="45.42327" lon="6.36167">
        <ele>1678</ele>
        <time>2022-12-18T08:52:28Z</time>
      </trkpt>
      <trkpt lat="45.42325" lon="6.36166">
        <ele>1677</ele>
        <time>2022-12-18T08:52:30Z</time>
      </trkpt>
      <trkpt lat="45.42323" lon="6.36168">
        <ele>1677</ele>
        <time>2022-12-18T08:52:32Z</time>
      </trkpt>
      <trkpt lat="45.42323" lon="6.36171">
        <ele>1678</ele>
        <time>2022-12-18T08:52:35Z</time>
      </trkpt>
      <trkpt lat="45.42326" lon="6.36172">
        <ele>1677</ele>
        <time>2022-12-18T08:52:38Z</time>
      </trkpt>
      <trkpt lat="45.42328" lon="6.3617">
        <ele>1678</ele>
        <time>2022-12-18T08:52:40Z</time>
      </trkpt>
      <trkpt lat="45.42328" lon="6.36168">
        <ele>1678</ele>
        <time>2022-12-18T08:52:44Z</time>
      </trkpt>
      <trkpt lat="45.42326" lon="6.36165">
        <ele>1678</ele>
        <time>2022-12-18T08:52:46Z</time>
      </trkpt>
      <trkpt lat="45.42322" lon="6.36165">
        <ele>1678</ele>
        <time>2022-12-18T08:52:48Z</time>
      </trkpt>
      <trkpt lat="45.42321" lon="6.36169">
        <ele>1678</ele>
        <time>2022-12-18T08:52:50Z</time>
      </trkpt>
      <trkpt lat="45.42323" lon="6.36176">
        <ele>1679</ele>
        <time>2022-12-18T08:52:55Z</time>
      </trkpt>
      <trkpt lat="45.42325" lon="6.36179">
        <ele>1679</ele>
        <time>2022-12-18T08:52:58Z</time>
      </trkpt>
      <trkpt lat="45.42326" lon="6.36181">
        <ele>1679</ele>
        <time>2022-12-18T08:53:00Z</time>
      </trkpt>
      <trkpt lat="45.42328" lon="6.3618">
        <ele>1679</ele>
        <time>2022-12-18T08:53:03Z</time>
      </trkpt>
      <trkpt lat="45.42329" lon="6.36176">
        <ele>1678</ele>
        <time>2022-12-18T08:53:06Z</time>
      </trkpt>
      <trkpt lat="45.42328" lon="6.36173">
        <ele>1678</ele>
        <time>2022-12-18T08:53:08Z</time>
      </trkpt>
      <trkpt lat="45.42326" lon="6.36167">
        <ele>1677</ele>
        <time>2022-12-18T08:53:14Z</time>
      </trkpt>
      <trkpt lat="45.42325" lon="6.36165">
        <ele>1677</ele>
        <time>2022-12-18T08:53:16Z</time>
      </trkpt>
      <trkpt lat="45.42323" lon="6.36165">
        <ele>1677</ele>
        <time>2022-12-18T08:53:18Z</time>
      </trkpt>
      <trkpt lat="45.42322" lon="6.36168">
        <ele>1677</ele>
        <time>2022-12-18T08:53:20Z</time>
      </trkpt>
      <trkpt lat="45.42323" lon="6.36171">
        <ele>1677</ele>
        <time>2022-12-18T08:53:22Z</time>
      </trkpt>
      <trkpt lat="45.42325" lon="6.36173">
        <ele>1678</ele>
        <time>2022-12-18T08:53:25Z</time>
      </trkpt>
      <trkpt lat="45.42327" lon="6.36173">
        <ele>1678</ele>
        <time>2022-12-18T08:53:28Z</time>
      </trkpt>
      <trkpt lat="45.42327" lon="6.3617">
        <ele>1679</ele>
        <time>2022-12-18T08:53:32Z</time>
      </trkpt>
      <trkpt lat="45.42326" lon="6.36168">
        <ele>1679</ele>
        <time>2022-12-18T08:53:34Z</time>
      </trkpt>
      <trkpt lat="45.42323" lon="6.36166">
        <ele>1678</ele>
        <time>2022-12-18T08:53:36Z</time>
      </trkpt>
      <trkpt lat="45.42322" lon="6.36167">
        <ele>1677</ele>
        <time>2022-12-18T08:53:38Z</time>
      </trkpt>
      <trkpt lat="45.42321" lon="6.3617">
        <ele>1677</ele>
        <time>2022-12-18T08:53:41Z</time>
      </trkpt>
      <trkpt lat="45.42323" lon="6.36172">
        <ele>1678</ele>
        <time>2022-12-18T08:53:43Z</time>
      </trkpt>
      <trkpt lat="45.42325" lon="6.36174">
        <ele>1678</ele>
        <time>2022-12-18T08:53:45Z</time>
      </trkpt>
      <trkpt lat="45.42327" lon="6.36173">
        <ele>1679</ele>
        <time>2022-12-18T08:53:47Z</time>
      </trkpt>
      <trkpt lat="45.42327" lon="6.3617">
        <ele>1678</ele>
        <time>2022-12-18T08:53:50Z</time>
      </trkpt>
      <trkpt lat="45.42326" lon="6.36166">
        <ele>1678</ele>
        <time>2022-12-18T08:53:53Z</time>
      </trkpt>
      <trkpt lat="45.42324" lon="6.36166">
        <ele>1678</ele>
        <time>2022-12-18T08:53:55Z</time>
      </trkpt>
      <trkpt lat="45.42321" lon="6.36167">
        <ele>1678</ele>
        <time>2022-12-18T08:53:57Z</time>
      </trkpt>
      <trkpt lat="45.42322" lon="6.3617">
        <ele>1678</ele>
        <time>2022-12-18T08:54:02Z</time>
      </trkpt>
      <trkpt lat="45.42324" lon="6.36172">
        <ele>1679</ele>
        <time>2022-12-18T08:54:04Z</time>
      </trkpt>
      <trkpt lat="45.42327" lon="6.36173">
        <ele>1679</ele>
        <time>2022-12-18T08:54:07Z</time>
      </trkpt>
      <trkpt lat="45.42329" lon="6.36171">
        <ele>1679</ele>
        <time>2022-12-18T08:54:10Z</time>
      </trkpt>
      <trkpt lat="45.42327" lon="6.36167">
        <ele>1679</ele>
        <time>2022-12-18T08:54:13Z</time>
      </trkpt>
      <trkpt lat="45.42325" lon="6.36166">
        <ele>1679</ele>
        <time>2022-12-18T08:54:15Z</time>
      </trkpt>
      <trkpt lat="45.42323" lon="6.36167">
        <ele>1678</ele>
        <time>2022-12-18T08:54:19Z</time>
      </trkpt>
      <trkpt lat="45.42324" lon="6.36171">
        <ele>1678</ele>
        <time>2022-12-18T08:54:22Z</time>
      </trkpt>
      <trkpt lat="45.42325" lon="6.36173">
        <ele>1678</ele>
        <time>2022-12-18T08:54:24Z</time>
      </trkpt>
      <trkpt lat="45.42327" lon="6.36174">
        <ele>1678</ele>
        <time>2022-12-18T08:54:27Z</time>
      </trkpt>
      <trkpt lat="45.42329" lon="6.36171">
        <ele>1678</ele>
        <time>2022-12-18T08:54:30Z</time>
      </trkpt>
      <trkpt lat="45.42328" lon="6.36168">
        <ele>1677</ele>
        <time>2022-12-18T08:54:33Z</time>
      </trkpt>
      <trkpt lat="45.42327" lon="6.36165">
        <ele>1676</ele>
        <time>2022-12-18T08:54:36Z</time>
      </trkpt>
      <trkpt lat="45.42327" lon="6.36167">
        <ele>1676</ele>
        <time>2022-12-18T08:54:46Z</time>
      </trkpt>
      <trkpt lat="45.42329" lon="6.3617">
        <ele>1676</ele>
        <time>2022-12-18T08:54:49Z</time>
      </trkpt>
      <trkpt lat="45.4233" lon="6.36168">
        <ele>1679</ele>
        <time>2022-12-18T08:55:00Z</time>
      </trkpt>
      <trkpt lat="45.42328" lon="6.36167">
        <ele>1679</ele>
        <time>2022-12-18T08:55:14Z</time>
      </trkpt>
      <trkpt lat="45.42332" lon="6.36162">
        <ele>1679</ele>
        <time>2022-12-18T08:55:32Z</time>
      </trkpt>
      <trkpt lat="45.42333" lon="6.36166">
        <ele>1678</ele>
        <time>2022-12-18T08:56:38Z</time>
      </trkpt>
      <trkpt lat="45.42335" lon="6.36165">
        <ele>1679</ele>
        <time>2022-12-18T08:57:20Z</time>
      </trkpt>
      <trkpt lat="45.42338" lon="6.36166">
        <ele>1680</ele>
        <time>2022-12-18T08:58:17Z</time>
      </trkpt>
      <trkpt lat="45.42341" lon="6.36164">
        <ele>1680</ele>
        <time>2022-12-18T08:58:21Z</time>
      </trkpt>
      <trkpt lat="45.42347" lon="6.36163">
        <ele>1680</ele>
        <time>2022-12-18T08:58:27Z</time>
      </trkpt>
      <trkpt lat="45.4235" lon="6.36164">
        <ele>1681</ele>
        <time>2022-12-18T08:58:30Z</time>
      </trkpt>
      <trkpt lat="45.42353" lon="6.36164">
        <ele>1682</ele>
        <time>2022-12-18T08:58:34Z</time>
      </trkpt>
      <trkpt lat="45.42353" lon="6.36159">
        <ele>1681</ele>
        <time>2022-12-18T08:58:51Z</time>
      </trkpt>
      <trkpt lat="45.42361" lon="6.36161">
        <ele>1683</ele>
        <time>2022-12-18T08:59:02Z</time>
      </trkpt>
      <trkpt lat="45.42364" lon="6.36161">
        <ele>1683</ele>
        <time>2022-12-18T08:59:06Z</time>
      </trkpt>
      <trkpt lat="45.42365" lon="6.36158">
        <ele>1683</ele>
        <time>2022-12-18T08:59:33Z</time>
      </trkpt>
      <trkpt lat="45.42373" lon="6.36154">
        <ele>1686</ele>
        <time>2022-12-18T08:59:47Z</time>
      </trkpt>
      <trkpt lat="45.42377" lon="6.36154">
        <ele>1686</ele>
        <time>2022-12-18T08:59:51Z</time>
      </trkpt>
      <trkpt lat="45.4238" lon="6.36155">
        <ele>1687</ele>
        <time>2022-12-18T08:59:56Z</time>
      </trkpt>
      <trkpt lat="45.42382" lon="6.36155">
        <ele>1688</ele>
        <time>2022-12-18T08:59:59Z</time>
      </trkpt>
      <trkpt lat="45.42384" lon="6.36155">
        <ele>1687</ele>
        <time>2022-12-18T09:00:18Z</time>
      </trkpt>
      <trkpt lat="45.42387" lon="6.36154">
        <ele>1688</ele>
        <time>2022-12-18T09:00:21Z</time>
      </trkpt>
      <trkpt lat="45.42388" lon="6.36151">
        <ele>1689</ele>
        <time>2022-12-18T09:00:25Z</time>
      </trkpt>
      <trkpt lat="45.42395" lon="6.36149">
        <ele>1690</ele>
        <time>2022-12-18T09:00:34Z</time>
      </trkpt>
      <trkpt lat="45.424" lon="6.36146">
        <ele>1691</ele>
        <time>2022-12-18T09:00:40Z</time>
      </trkpt>
      <trkpt lat="45.42402" lon="6.36143">
        <ele>1692</ele>
        <time>2022-12-18T09:00:45Z</time>
      </trkpt>
      <trkpt lat="45.42403" lon="6.36139">
        <ele>1692</ele>
        <time>2022-12-18T09:00:49Z</time>
      </trkpt>
      <trkpt lat="45.42408" lon="6.36136">
        <ele>1693</ele>
        <time>2022-12-18T09:00:55Z</time>
      </trkpt>
      <trkpt lat="45.42411" lon="6.36135">
        <ele>1694</ele>
        <time>2022-12-18T09:00:58Z</time>
      </trkpt>
      <trkpt lat="45.42415" lon="6.36133">
        <ele>1695</ele>
        <time>2022-12-18T09:01:04Z</time>
      </trkpt>
      <trkpt lat="45.42417" lon="6.36134">
        <ele>1697</ele>
        <time>2022-12-18T09:01:07Z</time>
      </trkpt>
      <trkpt lat="45.42429" lon="6.36141">
        <ele>1698</ele>
        <time>2022-12-18T09:01:22Z</time>
      </trkpt>
      <trkpt lat="45.42431" lon="6.36142">
        <ele>1698</ele>
        <time>2022-12-18T09:01:25Z</time>
      </trkpt>
      <trkpt lat="45.42436" lon="6.36132">
        <ele>1699</ele>
        <time>2022-12-18T09:01:37Z</time>
      </trkpt>
      <trkpt lat="45.42437" lon="6.36129">
        <ele>1700</ele>
        <time>2022-12-18T09:01:40Z</time>
      </trkpt>
      <trkpt lat="45.42442" lon="6.3613">
        <ele>1700</ele>
        <time>2022-12-18T09:01:48Z</time>
      </trkpt>
      <trkpt lat="45.42443" lon="6.36133">
        <ele>1701</ele>
        <time>2022-12-18T09:02:27Z</time>
      </trkpt>
      <trkpt lat="45.42444" lon="6.36135">
        <ele>1701</ele>
        <time>2022-12-18T09:02:31Z</time>
      </trkpt>
      <trkpt lat="45.42449" lon="6.36137">
        <ele>1701</ele>
        <time>2022-12-18T09:02:37Z</time>
      </trkpt>
      <trkpt lat="45.42454" lon="6.36137">
        <ele>1702</ele>
        <time>2022-12-18T09:02:42Z</time>
      </trkpt>
      <trkpt lat="45.4247" lon="6.36143">
        <ele>1703</ele>
        <time>2022-12-18T09:03:01Z</time>
      </trkpt>
      <trkpt lat="45.42474" lon="6.36147">
        <ele>1703</ele>
        <time>2022-12-18T09:03:07Z</time>
      </trkpt>
      <trkpt lat="45.42477" lon="6.36148">
        <ele>1703</ele>
        <time>2022-12-18T09:03:10Z</time>
      </trkpt>
      <trkpt lat="45.42479" lon="6.36148">
        <ele>1704</ele>
        <time>2022-12-18T09:03:13Z</time>
      </trkpt>
      <trkpt lat="45.42482" lon="6.36146">
        <ele>1704</ele>
        <time>2022-12-18T09:03:17Z</time>
      </trkpt>
      <trkpt lat="45.42483" lon="6.36139">
        <ele>1705</ele>
        <time>2022-12-18T09:03:22Z</time>
      </trkpt>
      <trkpt lat="45.42482" lon="6.36136">
        <ele>1706</ele>
        <time>2022-12-18T09:03:24Z</time>
      </trkpt>
      <trkpt lat="45.42484" lon="6.36126">
        <ele>1709</ele>
        <time>2022-12-18T09:03:34Z</time>
      </trkpt>
      <trkpt lat="45.42485" lon="6.36123">
        <ele>1710</ele>
        <time>2022-12-18T09:03:38Z</time>
      </trkpt>
      <trkpt lat="45.42487" lon="6.36125">
        <ele>1711</ele>
        <time>2022-12-18T09:03:42Z</time>
      </trkpt>
      <trkpt lat="45.42489" lon="6.36125">
        <ele>1711</ele>
        <time>2022-12-18T09:03:45Z</time>
      </trkpt>
      <trkpt lat="45.4249" lon="6.36122">
        <ele>1711</ele>
        <time>2022-12-18T09:03:49Z</time>
      </trkpt>
      <trkpt lat="45.4249" lon="6.36119">
        <ele>1711</ele>
        <time>2022-12-18T09:03:53Z</time>
      </trkpt>
      <trkpt lat="45.4249" lon="6.36108">
        <ele>1712</ele>
        <time>2022-12-18T09:04:05Z</time>
      </trkpt>
      <trkpt lat="45.42489" lon="6.36104">
        <ele>1713</ele>
        <time>2022-12-18T09:04:09Z</time>
      </trkpt>
      <trkpt lat="45.4249" lon="6.36101">
        <ele>1714</ele>
        <time>2022-12-18T09:04:12Z</time>
      </trkpt>
      <trkpt lat="45.42492" lon="6.361">
        <ele>1714</ele>
        <time>2022-12-18T09:04:15Z</time>
      </trkpt>
      <trkpt lat="45.42495" lon="6.36102">
        <ele>1714</ele>
        <time>2022-12-18T09:04:19Z</time>
      </trkpt>
      <trkpt lat="45.42501" lon="6.36104">
        <ele>1715</ele>
        <time>2022-12-18T09:04:29Z</time>
      </trkpt>
      <trkpt lat="45.42509" lon="6.36106">
        <ele>1716</ele>
        <time>2022-12-18T09:04:41Z</time>
      </trkpt>
      <trkpt lat="45.42512" lon="6.36106">
        <ele>1717</ele>
        <time>2022-12-18T09:04:46Z</time>
      </trkpt>
      <trkpt lat="45.42514" lon="6.36105">
        <ele>1717</ele>
        <time>2022-12-18T09:04:49Z</time>
      </trkpt>
      <trkpt lat="45.42515" lon="6.36102">
        <ele>1718</ele>
        <time>2022-12-18T09:04:52Z</time>
      </trkpt>
      <trkpt lat="45.42514" lon="6.36097">
        <ele>1719</ele>
        <time>2022-12-18T09:04:57Z</time>
      </trkpt>
      <trkpt lat="45.42513" lon="6.36094">
        <ele>1720</ele>
        <time>2022-12-18T09:05:00Z</time>
      </trkpt>
      <trkpt lat="45.42513" lon="6.36091">
        <ele>1721</ele>
        <time>2022-12-18T09:05:03Z</time>
      </trkpt>
      <trkpt lat="45.42511" lon="6.36086">
        <ele>1721</ele>
        <time>2022-12-18T09:05:10Z</time>
      </trkpt>
      <trkpt lat="45.42511" lon="6.36082">
        <ele>1722</ele>
        <time>2022-12-18T09:05:14Z</time>
      </trkpt>
      <trkpt lat="45.4251" lon="6.36079">
        <ele>1722</ele>
        <time>2022-12-18T09:05:17Z</time>
      </trkpt>
      <trkpt lat="45.4251" lon="6.36068">
        <ele>1725</ele>
        <time>2022-12-18T09:05:29Z</time>
      </trkpt>
      <trkpt lat="45.42511" lon="6.36065">
        <ele>1725</ele>
        <time>2022-12-18T09:05:31Z</time>
      </trkpt>
      <trkpt lat="45.4251" lon="6.36062">
        <ele>1725</ele>
        <time>2022-12-18T09:05:34Z</time>
      </trkpt>
      <trkpt lat="45.42511" lon="6.3606">
        <ele>1725</ele>
        <time>2022-12-18T09:05:37Z</time>
      </trkpt>
      <trkpt lat="45.42512" lon="6.36057">
        <ele>1726</ele>
        <time>2022-12-18T09:05:40Z</time>
      </trkpt>
      <trkpt lat="45.42512" lon="6.36054">
        <ele>1727</ele>
        <time>2022-12-18T09:05:43Z</time>
      </trkpt>
      <trkpt lat="45.42513" lon="6.36051">
        <ele>1727</ele>
        <time>2022-12-18T09:05:46Z</time>
      </trkpt>
      <trkpt lat="45.42515" lon="6.3605">
        <ele>1727</ele>
        <time>2022-12-18T09:05:49Z</time>
      </trkpt>
      <trkpt lat="45.42522" lon="6.36053">
        <ele>1726</ele>
        <time>2022-12-18T09:06:00Z</time>
      </trkpt>
      <trkpt lat="45.42537" lon="6.36054">
        <ele>1728</ele>
        <time>2022-12-18T09:06:23Z</time>
      </trkpt>
      <trkpt lat="45.4254" lon="6.36055">
        <ele>1729</ele>
        <time>2022-12-18T09:06:26Z</time>
      </trkpt>
      <trkpt lat="45.42542" lon="6.36054">
        <ele>1729</ele>
        <time>2022-12-18T09:06:30Z</time>
      </trkpt>
      <trkpt lat="45.42548" lon="6.36053">
        <ele>1731</ele>
        <time>2022-12-18T09:06:38Z</time>
      </trkpt>
      <trkpt lat="45.42553" lon="6.36054">
        <ele>1733</ele>
        <time>2022-12-18T09:06:47Z</time>
      </trkpt>
      <trkpt lat="45.42561" lon="6.36052">
        <ele>1734</ele>
        <time>2022-12-18T09:07:00Z</time>
      </trkpt>
      <trkpt lat="45.42563" lon="6.3605">
        <ele>1735</ele>
        <time>2022-12-18T09:07:03Z</time>
      </trkpt>
      <trkpt lat="45.4258" lon="6.36048">
        <ele>1740</ele>
        <time>2022-12-18T09:07:33Z</time>
      </trkpt>
      <trkpt lat="45.42586" lon="6.36051">
        <ele>1740</ele>
        <time>2022-12-18T09:07:42Z</time>
      </trkpt>
      <trkpt lat="45.42588" lon="6.36049">
        <ele>1741</ele>
        <time>2022-12-18T09:07:46Z</time>
      </trkpt>
      <trkpt lat="45.42586" lon="6.36046">
        <ele>1741</ele>
        <time>2022-12-18T09:07:48Z</time>
      </trkpt>
      <trkpt lat="45.42585" lon="6.36044">
        <ele>1742</ele>
        <time>2022-12-18T09:07:51Z</time>
      </trkpt>
      <trkpt lat="45.42584" lon="6.36042">
        <ele>1743</ele>
        <time>2022-12-18T09:07:53Z</time>
      </trkpt>
      <trkpt lat="45.42583" lon="6.36039">
        <ele>1744</ele>
        <time>2022-12-18T09:07:57Z</time>
      </trkpt>
      <trkpt lat="45.42582" lon="6.36036">
        <ele>1743</ele>
        <time>2022-12-18T09:08:00Z</time>
      </trkpt>
      <trkpt lat="45.42581" lon="6.36034">
        <ele>1744</ele>
        <time>2022-12-18T09:08:03Z</time>
      </trkpt>
      <trkpt lat="45.4258" lon="6.36031">
        <ele>1744</ele>
        <time>2022-12-18T09:08:07Z</time>
      </trkpt>
      <trkpt lat="45.42578" lon="6.36029">
        <ele>1745</ele>
        <time>2022-12-18T09:08:10Z</time>
      </trkpt>
      <trkpt lat="45.42577" lon="6.36027">
        <ele>1745</ele>
        <time>2022-12-18T09:08:12Z</time>
      </trkpt>
      <trkpt lat="45.42576" lon="6.36025">
        <ele>1745</ele>
        <time>2022-12-18T09:08:15Z</time>
      </trkpt>
      <trkpt lat="45.42575" lon="6.36023">
        <ele>1745</ele>
        <time>2022-12-18T09:08:18Z</time>
      </trkpt>
      <trkpt lat="45.42575" lon="6.36019">
        <ele>1746</ele>
        <time>2022-12-18T09:08:22Z</time>
      </trkpt>
      <trkpt lat="45.42576" lon="6.36016">
        <ele>1747</ele>
        <time>2022-12-18T09:08:24Z</time>
      </trkpt>
      <trkpt lat="45.42579" lon="6.36014">
        <ele>1749</ele>
        <time>2022-12-18T09:08:28Z</time>
      </trkpt>
      <trkpt lat="45.42594" lon="6.36019">
        <ele>1749</ele>
        <time>2022-12-18T09:08:47Z</time>
      </trkpt>
      <trkpt lat="45.42599" lon="6.36019">
        <ele>1750</ele>
        <time>2022-12-18T09:08:57Z</time>
      </trkpt>
      <trkpt lat="45.4261" lon="6.3602">
        <ele>1750</ele>
        <time>2022-12-18T09:09:14Z</time>
      </trkpt>
      <trkpt lat="45.42613" lon="6.3602">
        <ele>1751</ele>
        <time>2022-12-18T09:09:18Z</time>
      </trkpt>
      <trkpt lat="45.4262" lon="6.3602">
        <ele>1752</ele>
        <time>2022-12-18T09:09:29Z</time>
      </trkpt>
      <trkpt lat="45.42638" lon="6.36031">
        <ele>1756</ele>
        <time>2022-12-18T09:10:00Z</time>
      </trkpt>
      <trkpt lat="45.42641" lon="6.36032">
        <ele>1757</ele>
        <time>2022-12-18T09:10:05Z</time>
      </trkpt>
      <trkpt lat="45.42643" lon="6.36032">
        <ele>1757</ele>
        <time>2022-12-18T09:10:09Z</time>
      </trkpt>
      <trkpt lat="45.42646" lon="6.36031">
        <ele>1758</ele>
        <time>2022-12-18T09:10:13Z</time>
      </trkpt>
      <trkpt lat="45.42648" lon="6.36029">
        <ele>1759</ele>
        <time>2022-12-18T09:10:17Z</time>
      </trkpt>
      <trkpt lat="45.42647" lon="6.36026">
        <ele>1760</ele>
        <time>2022-12-18T09:10:20Z</time>
      </trkpt>
      <trkpt lat="45.42645" lon="6.3602">
        <ele>1760</ele>
        <time>2022-12-18T09:10:26Z</time>
      </trkpt>
      <trkpt lat="45.42643" lon="6.36017">
        <ele>1761</ele>
        <time>2022-12-18T09:10:30Z</time>
      </trkpt>
      <trkpt lat="45.42638" lon="6.35998">
        <ele>1765</ele>
        <time>2022-12-18T09:10:52Z</time>
      </trkpt>
      <trkpt lat="45.42636" lon="6.35992">
        <ele>1767</ele>
        <time>2022-12-18T09:10:58Z</time>
      </trkpt>
      <trkpt lat="45.42633" lon="6.35982">
        <ele>1770</ele>
        <time>2022-12-18T09:11:11Z</time>
      </trkpt>
      <trkpt lat="45.4263" lon="6.35977">
        <ele>1770</ele>
        <time>2022-12-18T09:11:18Z</time>
      </trkpt>
      <trkpt lat="45.42628" lon="6.35974">
        <ele>1771</ele>
        <time>2022-12-18T09:11:21Z</time>
      </trkpt>
      <trkpt lat="45.42628" lon="6.35971">
        <ele>1771</ele>
        <time>2022-12-18T09:11:24Z</time>
      </trkpt>
      <trkpt lat="45.42627" lon="6.35967">
        <ele>1771</ele>
        <time>2022-12-18T09:11:28Z</time>
      </trkpt>
      <trkpt lat="45.42626" lon="6.35961">
        <ele>1772</ele>
        <time>2022-12-18T09:11:37Z</time>
      </trkpt>
      <trkpt lat="45.42626" lon="6.35957">
        <ele>1772</ele>
        <time>2022-12-18T09:11:41Z</time>
      </trkpt>
      <trkpt lat="45.42634" lon="6.35957">
        <ele>1774</ele>
        <time>2022-12-18T09:11:54Z</time>
      </trkpt>
      <trkpt lat="45.42637" lon="6.35957">
        <ele>1776</ele>
        <time>2022-12-18T09:11:59Z</time>
      </trkpt>
      <trkpt lat="45.4264" lon="6.35958">
        <ele>1776</ele>
        <time>2022-12-18T09:12:03Z</time>
      </trkpt>
      <trkpt lat="45.42642" lon="6.35956">
        <ele>1776</ele>
        <time>2022-12-18T09:12:10Z</time>
      </trkpt>
      <trkpt lat="45.42642" lon="6.35952">
        <ele>1776</ele>
        <time>2022-12-18T09:12:16Z</time>
      </trkpt>
      <trkpt lat="45.42645" lon="6.35952">
        <ele>1778</ele>
        <time>2022-12-18T09:21:11Z</time>
      </trkpt>
      <trkpt lat="45.42657" lon="6.3595">
        <ele>1778</ele>
        <time>2022-12-18T09:21:27Z</time>
      </trkpt>
      <trkpt lat="45.42682" lon="6.35946">
        <ele>1779</ele>
        <time>2022-12-18T09:21:59Z</time>
      </trkpt>
      <trkpt lat="45.42696" lon="6.35945">
        <ele>1781</ele>
        <time>2022-12-18T09:22:20Z</time>
      </trkpt>
      <trkpt lat="45.42699" lon="6.35943">
        <ele>1782</ele>
        <time>2022-12-18T09:22:25Z</time>
      </trkpt>
      <trkpt lat="45.42705" lon="6.35942">
        <ele>1784</ele>
        <time>2022-12-18T09:22:35Z</time>
      </trkpt>
      <trkpt lat="45.42707" lon="6.35939">
        <ele>1785</ele>
        <time>2022-12-18T09:22:38Z</time>
      </trkpt>
      <trkpt lat="45.42719" lon="6.35936">
        <ele>1787</ele>
        <time>2022-12-18T09:22:57Z</time>
      </trkpt>
      <trkpt lat="45.42725" lon="6.35931">
        <ele>1788</ele>
        <time>2022-12-18T09:23:08Z</time>
      </trkpt>
      <trkpt lat="45.42728" lon="6.35928">
        <ele>1789</ele>
        <time>2022-12-18T09:23:13Z</time>
      </trkpt>
      <trkpt lat="45.42731" lon="6.35926">
        <ele>1790</ele>
        <time>2022-12-18T09:23:16Z</time>
      </trkpt>
      <trkpt lat="45.42742" lon="6.35917">
        <ele>1793</ele>
        <time>2022-12-18T09:23:35Z</time>
      </trkpt>
      <trkpt lat="45.42745" lon="6.35916">
        <ele>1793</ele>
        <time>2022-12-18T09:23:39Z</time>
      </trkpt>
      <trkpt lat="45.42748" lon="6.35916">
        <ele>1793</ele>
        <time>2022-12-18T09:23:44Z</time>
      </trkpt>
      <trkpt lat="45.42754" lon="6.3592">
        <ele>1794</ele>
        <time>2022-12-18T09:23:54Z</time>
      </trkpt>
      <trkpt lat="45.42763" lon="6.35921">
        <ele>1797</ele>
        <time>2022-12-18T09:24:09Z</time>
      </trkpt>
      <trkpt lat="45.42779" lon="6.35911">
        <ele>1801</ele>
        <time>2022-12-18T09:24:33Z</time>
      </trkpt>
      <trkpt lat="45.42783" lon="6.35905">
        <ele>1803</ele>
        <time>2022-12-18T09:24:42Z</time>
      </trkpt>
      <trkpt lat="45.42792" lon="6.35893">
        <ele>1805</ele>
        <time>2022-12-18T09:25:02Z</time>
      </trkpt>
      <trkpt lat="45.42797" lon="6.35891">
        <ele>1805</ele>
        <time>2022-12-18T09:25:10Z</time>
      </trkpt>
      <trkpt lat="45.428" lon="6.35891">
        <ele>1805</ele>
        <time>2022-12-18T09:25:15Z</time>
      </trkpt>
      <trkpt lat="45.4282" lon="6.35878">
        <ele>1809</ele>
        <time>2022-12-18T09:25:44Z</time>
      </trkpt>
      <trkpt lat="45.42832" lon="6.35877">
        <ele>1811</ele>
        <time>2022-12-18T09:25:59Z</time>
      </trkpt>
      <trkpt lat="45.42838" lon="6.35876">
        <ele>1812</ele>
        <time>2022-12-18T09:26:07Z</time>
      </trkpt>
      <trkpt lat="45.42861" lon="6.35869">
        <ele>1816</ele>
        <time>2022-12-18T09:26:39Z</time>
      </trkpt>
      <trkpt lat="45.42864" lon="6.35867">
        <ele>1816</ele>
        <time>2022-12-18T09:26:44Z</time>
      </trkpt>
      <trkpt lat="45.42872" lon="6.35866">
        <ele>1819</ele>
        <time>2022-12-18T09:26:56Z</time>
      </trkpt>
      <trkpt lat="45.42885" lon="6.35862">
        <ele>1821</ele>
        <time>2022-12-18T09:27:15Z</time>
      </trkpt>
      <trkpt lat="45.42893" lon="6.35851">
        <ele>1826</ele>
        <time>2022-12-18T09:27:31Z</time>
      </trkpt>
      <trkpt lat="45.429" lon="6.35847">
        <ele>1828</ele>
        <time>2022-12-18T09:27:43Z</time>
      </trkpt>
      <trkpt lat="45.42902" lon="6.35847">
        <ele>1828</ele>
        <time>2022-12-18T09:27:47Z</time>
      </trkpt>
      <trkpt lat="45.42908" lon="6.35849">
        <ele>1830</ele>
        <time>2022-12-18T09:27:56Z</time>
      </trkpt>
      <trkpt lat="45.42911" lon="6.3585">
        <ele>1830</ele>
        <time>2022-12-18T09:28:01Z</time>
      </trkpt>
      <trkpt lat="45.42916" lon="6.35849">
        <ele>1829</ele>
        <time>2022-12-18T09:28:09Z</time>
      </trkpt>
      <trkpt lat="45.42928" lon="6.35846">
        <ele>1832</ele>
        <time>2022-12-18T09:28:29Z</time>
      </trkpt>
      <trkpt lat="45.4293" lon="6.35844">
        <ele>1834</ele>
        <time>2022-12-18T09:28:35Z</time>
      </trkpt>
      <trkpt lat="45.42932" lon="6.3584">
        <ele>1835</ele>
        <time>2022-12-18T09:28:39Z</time>
      </trkpt>
      <trkpt lat="45.42939" lon="6.3583">
        <ele>1839</ele>
        <time>2022-12-18T09:28:52Z</time>
      </trkpt>
      <trkpt lat="45.42941" lon="6.35827">
        <ele>1840</ele>
        <time>2022-12-18T09:28:58Z</time>
      </trkpt>
      <trkpt lat="45.42944" lon="6.35826">
        <ele>1841</ele>
        <time>2022-12-18T09:29:04Z</time>
      </trkpt>
      <trkpt lat="45.42946" lon="6.35829">
        <ele>1841</ele>
        <time>2022-12-18T09:29:10Z</time>
      </trkpt>
      <trkpt lat="45.42949" lon="6.35832">
        <ele>1842</ele>
        <time>2022-12-18T09:29:15Z</time>
      </trkpt>
      <trkpt lat="45.42951" lon="6.35834">
        <ele>1842</ele>
        <time>2022-12-18T09:29:19Z</time>
      </trkpt>
      <trkpt lat="45.42959" lon="6.35838">
        <ele>1843</ele>
        <time>2022-12-18T09:29:33Z</time>
      </trkpt>
      <trkpt lat="45.4298" lon="6.3583">
        <ele>1848</ele>
        <time>2022-12-18T09:30:09Z</time>
      </trkpt>
      <trkpt lat="45.42985" lon="6.35827">
        <ele>1849</ele>
        <time>2022-12-18T09:30:16Z</time>
      </trkpt>
      <trkpt lat="45.42987" lon="6.35826">
        <ele>1850</ele>
        <time>2022-12-18T09:30:20Z</time>
      </trkpt>
      <trkpt lat="45.42992" lon="6.35824">
        <ele>1851</ele>
        <time>2022-12-18T09:30:28Z</time>
      </trkpt>
      <trkpt lat="45.42995" lon="6.35823">
        <ele>1852</ele>
        <time>2022-12-18T09:30:33Z</time>
      </trkpt>
      <trkpt lat="45.43001" lon="6.35821">
        <ele>1853</ele>
        <time>2022-12-18T09:30:44Z</time>
      </trkpt>
      <trkpt lat="45.43004" lon="6.35821">
        <ele>1853</ele>
        <time>2022-12-18T09:30:49Z</time>
      </trkpt>
      <trkpt lat="45.43007" lon="6.35819">
        <ele>1855</ele>
        <time>2022-12-18T09:30:54Z</time>
      </trkpt>
      <trkpt lat="45.43021" lon="6.35814">
        <ele>1860</ele>
        <time>2022-12-18T09:31:19Z</time>
      </trkpt>
      <trkpt lat="45.43028" lon="6.35809">
        <ele>1863</ele>
        <time>2022-12-18T09:31:35Z</time>
      </trkpt>
      <trkpt lat="45.4303" lon="6.35807">
        <ele>1863</ele>
        <time>2022-12-18T09:31:40Z</time>
      </trkpt>
      <trkpt lat="45.43044" lon="6.35801">
        <ele>1866</ele>
        <time>2022-12-18T09:32:03Z</time>
      </trkpt>
      <trkpt lat="45.43047" lon="6.358">
        <ele>1866</ele>
        <time>2022-12-18T09:32:07Z</time>
      </trkpt>
      <trkpt lat="45.43049" lon="6.358">
        <ele>1866</ele>
        <time>2022-12-18T09:32:13Z</time>
      </trkpt>
      <trkpt lat="45.43052" lon="6.35801">
        <ele>1866</ele>
        <time>2022-12-18T09:32:17Z</time>
      </trkpt>
      <trkpt lat="45.4307" lon="6.35788">
        <ele>1868</ele>
        <time>2022-12-18T09:32:48Z</time>
      </trkpt>
      <trkpt lat="45.4308" lon="6.35786">
        <ele>1869</ele>
        <time>2022-12-18T09:33:05Z</time>
      </trkpt>
      <trkpt lat="45.43089" lon="6.35782">
        <ele>1871</ele>
        <time>2022-12-18T09:33:21Z</time>
      </trkpt>
      <trkpt lat="45.43092" lon="6.35781">
        <ele>1872</ele>
        <time>2022-12-18T09:33:25Z</time>
      </trkpt>
      <trkpt lat="45.43095" lon="6.35781">
        <ele>1872</ele>
        <time>2022-12-18T09:33:28Z</time>
      </trkpt>
      <trkpt lat="45.43097" lon="6.35778">
        <ele>1872</ele>
        <time>2022-12-18T09:33:32Z</time>
      </trkpt>
      <trkpt lat="45.431" lon="6.35777">
        <ele>1873</ele>
        <time>2022-12-18T09:33:36Z</time>
      </trkpt>
      <trkpt lat="45.43109" lon="6.35772">
        <ele>1878</ele>
        <time>2022-12-18T09:34:23Z</time>
      </trkpt>
      <trkpt lat="45.4311" lon="6.35771">
        <ele>1878</ele>
        <time>2022-12-18T09:34:26Z</time>
      </trkpt>
      <trkpt lat="45.43113" lon="6.3577">
        <ele>1879</ele>
        <time>2022-12-18T09:34:30Z</time>
      </trkpt>
      <trkpt lat="45.43133" lon="6.3576">
        <ele>1883</ele>
        <time>2022-12-18T09:35:00Z</time>
      </trkpt>
      <trkpt lat="45.43135" lon="6.35759">
        <ele>1884</ele>
        <time>2022-12-18T09:35:04Z</time>
      </trkpt>
      <trkpt lat="45.43155" lon="6.35743">
        <ele>1888</ele>
        <time>2022-12-18T09:35:37Z</time>
      </trkpt>
      <trkpt lat="45.43163" lon="6.35735">
        <ele>1890</ele>
        <time>2022-12-18T09:35:51Z</time>
      </trkpt>
      <trkpt lat="45.43166" lon="6.35729">
        <ele>1892</ele>
        <time>2022-12-18T09:36:00Z</time>
      </trkpt>
      <trkpt lat="45.43178" lon="6.35718">
        <ele>1895</ele>
        <time>2022-12-18T09:36:21Z</time>
      </trkpt>
      <trkpt lat="45.4318" lon="6.35717">
        <ele>1895</ele>
        <time>2022-12-18T09:36:24Z</time>
      </trkpt>
      <trkpt lat="45.43182" lon="6.35714">
        <ele>1896</ele>
        <time>2022-12-18T09:36:28Z</time>
      </trkpt>
      <trkpt lat="45.43186" lon="6.35709">
        <ele>1898</ele>
        <time>2022-12-18T09:36:39Z</time>
      </trkpt>
      <trkpt lat="45.43188" lon="6.35707">
        <ele>1898</ele>
        <time>2022-12-18T09:36:42Z</time>
      </trkpt>
      <trkpt lat="45.43189" lon="6.35704">
        <ele>1899</ele>
        <time>2022-12-18T09:36:45Z</time>
      </trkpt>
      <trkpt lat="45.43189" lon="6.357">
        <ele>1899</ele>
        <time>2022-12-18T09:36:50Z</time>
      </trkpt>
      <trkpt lat="45.43187" lon="6.35696">
        <ele>1900</ele>
        <time>2022-12-18T09:36:53Z</time>
      </trkpt>
      <trkpt lat="45.43185" lon="6.35695">
        <ele>1900</ele>
        <time>2022-12-18T09:36:57Z</time>
      </trkpt>
      <trkpt lat="45.4318" lon="6.35693">
        <ele>1900</ele>
        <time>2022-12-18T09:37:04Z</time>
      </trkpt>
      <trkpt lat="45.43176" lon="6.35689">
        <ele>1900</ele>
        <time>2022-12-18T09:37:09Z</time>
      </trkpt>
      <trkpt lat="45.43174" lon="6.35686">
        <ele>1901</ele>
        <time>2022-12-18T09:37:13Z</time>
      </trkpt>
      <trkpt lat="45.43174" lon="6.35682">
        <ele>1901</ele>
        <time>2022-12-18T09:37:19Z</time>
      </trkpt>
      <trkpt lat="45.43175" lon="6.35679">
        <ele>1904</ele>
        <time>2022-12-18T09:37:38Z</time>
      </trkpt>
      <trkpt lat="45.43178" lon="6.35678">
        <ele>1904</ele>
        <time>2022-12-18T09:38:18Z</time>
      </trkpt>
      <trkpt lat="45.43179" lon="6.3568">
        <ele>1903</ele>
        <time>2022-12-18T09:38:39Z</time>
      </trkpt>
      <trkpt lat="45.43181" lon="6.35679">
        <ele>1904</ele>
        <time>2022-12-18T09:39:19Z</time>
      </trkpt>
      <trkpt lat="45.43188" lon="6.35679">
        <ele>1905</ele>
        <time>2022-12-18T09:39:25Z</time>
      </trkpt>
      <trkpt lat="45.4319" lon="6.35679">
        <ele>1905</ele>
        <time>2022-12-18T09:39:28Z</time>
      </trkpt>
      <trkpt lat="45.43196" lon="6.35678">
        <ele>1904</ele>
        <time>2022-12-18T09:39:34Z</time>
      </trkpt>
      <trkpt lat="45.43201" lon="6.35666">
        <ele>1904</ele>
        <time>2022-12-18T09:39:44Z</time>
      </trkpt>
      <trkpt lat="45.43207" lon="6.3565">
        <ele>1905</ele>
        <time>2022-12-18T09:40:00Z</time>
      </trkpt>
      <trkpt lat="45.43211" lon="6.35645">
        <ele>1907</ele>
        <time>2022-12-18T09:40:08Z</time>
      </trkpt>
      <trkpt lat="45.43214" lon="6.35641">
        <ele>1907</ele>
        <time>2022-12-18T09:40:12Z</time>
      </trkpt>
      <trkpt lat="45.43214" lon="6.35637">
        <ele>1908</ele>
        <time>2022-12-18T09:40:17Z</time>
      </trkpt>
      <trkpt lat="45.43212" lon="6.35631">
        <ele>1910</ele>
        <time>2022-12-18T09:40:21Z</time>
      </trkpt>
      <trkpt lat="45.43211" lon="6.35627">
        <ele>1910</ele>
        <time>2022-12-18T09:40:25Z</time>
      </trkpt>
      <trkpt lat="45.43213" lon="6.35624">
        <ele>1910</ele>
        <time>2022-12-18T09:40:29Z</time>
      </trkpt>
      <trkpt lat="45.43213" lon="6.35621">
        <ele>1910</ele>
        <time>2022-12-18T09:40:32Z</time>
      </trkpt>
      <trkpt lat="45.43217" lon="6.3562">
        <ele>1912</ele>
        <time>2022-12-18T09:40:39Z</time>
      </trkpt>
      <trkpt lat="45.4322" lon="6.35621">
        <ele>1914</ele>
        <time>2022-12-18T09:40:44Z</time>
      </trkpt>
      <trkpt lat="45.43223" lon="6.35621">
        <ele>1915</ele>
        <time>2022-12-18T09:40:47Z</time>
      </trkpt>
      <trkpt lat="45.43229" lon="6.35618">
        <ele>1917</ele>
        <time>2022-12-18T09:40:54Z</time>
      </trkpt>
      <trkpt lat="45.43236" lon="6.3561">
        <ele>1916</ele>
        <time>2022-12-18T09:41:03Z</time>
      </trkpt>
      <trkpt lat="45.4324" lon="6.35607">
        <ele>1915</ele>
        <time>2022-12-18T09:41:07Z</time>
      </trkpt>
      <trkpt lat="45.43242" lon="6.35605">
        <ele>1914</ele>
        <time>2022-12-18T09:41:09Z</time>
      </trkpt>
      <trkpt lat="45.43249" lon="6.35599">
        <ele>1912</ele>
        <time>2022-12-18T09:41:17Z</time>
      </trkpt>
      <trkpt lat="45.43253" lon="6.35593">
        <ele>1913</ele>
        <time>2022-12-18T09:41:23Z</time>
      </trkpt>
      <trkpt lat="45.43256" lon="6.35588">
        <ele>1913</ele>
        <time>2022-12-18T09:41:30Z</time>
      </trkpt>
      <trkpt lat="45.43257" lon="6.35583">
        <ele>1913</ele>
        <time>2022-12-18T09:41:36Z</time>
      </trkpt>
      <trkpt lat="45.43261" lon="6.35581">
        <ele>1913</ele>
        <time>2022-12-18T09:41:40Z</time>
      </trkpt>
      <trkpt lat="45.43263" lon="6.35577">
        <ele>1912</ele>
        <time>2022-12-18T09:41:45Z</time>
      </trkpt>
      <trkpt lat="45.43271" lon="6.35571">
        <ele>1914</ele>
        <time>2022-12-18T09:41:58Z</time>
      </trkpt>
      <trkpt lat="45.43274" lon="6.35571">
        <ele>1916</ele>
        <time>2022-12-18T09:42:01Z</time>
      </trkpt>
      <trkpt lat="45.43277" lon="6.35573">
        <ele>1916</ele>
        <time>2022-12-18T09:42:05Z</time>
      </trkpt>
      <trkpt lat="45.4328" lon="6.3557">
        <ele>1918</ele>
        <time>2022-12-18T09:42:11Z</time>
      </trkpt>
      <trkpt lat="45.43282" lon="6.35568">
        <ele>1918</ele>
        <time>2022-12-18T09:42:15Z</time>
      </trkpt>
      <trkpt lat="45.43281" lon="6.35566">
        <ele>1920</ele>
        <time>2022-12-18T09:42:19Z</time>
      </trkpt>
      <trkpt lat="45.43281" lon="6.35561">
        <ele>1924</ele>
        <time>2022-12-18T09:42:23Z</time>
      </trkpt>
      <trkpt lat="45.43279" lon="6.35558">
        <ele>1925</ele>
        <time>2022-12-18T09:42:28Z</time>
      </trkpt>
      <trkpt lat="45.43283" lon="6.35548">
        <ele>1928</ele>
        <time>2022-12-18T09:42:39Z</time>
      </trkpt>
      <trkpt lat="45.43288" lon="6.35543">
        <ele>1929</ele>
        <time>2022-12-18T09:42:46Z</time>
      </trkpt>
      <trkpt lat="45.43295" lon="6.35542">
        <ele>1929</ele>
        <time>2022-12-18T09:42:54Z</time>
      </trkpt>
      <trkpt lat="45.43297" lon="6.35538">
        <ele>1929</ele>
        <time>2022-12-18T09:42:59Z</time>
      </trkpt>
      <trkpt lat="45.43299" lon="6.35535">
        <ele>1930</ele>
        <time>2022-12-18T09:43:03Z</time>
      </trkpt>
      <trkpt lat="45.43303" lon="6.35528">
        <ele>1930</ele>
        <time>2022-12-18T09:43:09Z</time>
      </trkpt>
      <trkpt lat="45.43303" lon="6.35514">
        <ele>1933</ele>
        <time>2022-12-18T09:43:20Z</time>
      </trkpt>
      <trkpt lat="45.43305" lon="6.3551">
        <ele>1933</ele>
        <time>2022-12-18T09:43:26Z</time>
      </trkpt>
      <trkpt lat="45.43307" lon="6.35507">
        <ele>1934</ele>
        <time>2022-12-18T09:43:30Z</time>
      </trkpt>
      <trkpt lat="45.4331" lon="6.35506">
        <ele>1934</ele>
        <time>2022-12-18T09:43:33Z</time>
      </trkpt>
      <trkpt lat="45.43311" lon="6.35506">
        <ele>1936</ele>
        <time>2022-12-18T09:45:32Z</time>
      </trkpt>
      <trkpt lat="45.43314" lon="6.35509">
        <ele>1936</ele>
        <time>2022-12-18T09:45:45Z</time>
      </trkpt>
      <trkpt lat="45.43315" lon="6.35506">
        <ele>1941</ele>
        <time>2022-12-18T09:53:57Z</time>
      </trkpt>
      <trkpt lat="45.43317" lon="6.35505">
        <ele>1941</ele>
        <time>2022-12-18T09:54:01Z</time>
      </trkpt>
      <trkpt lat="45.43331" lon="6.35506">
        <ele>1939</ele>
        <time>2022-12-18T09:54:21Z</time>
      </trkpt>
      <trkpt lat="45.43346" lon="6.355">
        <ele>1939</ele>
        <time>2022-12-18T09:54:41Z</time>
      </trkpt>
      <trkpt lat="45.43362" lon="6.35494">
        <ele>1942</ele>
        <time>2022-12-18T09:55:02Z</time>
      </trkpt>
      <trkpt lat="45.43372" lon="6.35488">
        <ele>1942</ele>
        <time>2022-12-18T09:55:14Z</time>
      </trkpt>
      <trkpt lat="45.43379" lon="6.35484">
        <ele>1943</ele>
        <time>2022-12-18T09:55:23Z</time>
      </trkpt>
      <trkpt lat="45.43385" lon="6.35475">
        <ele>1945</ele>
        <time>2022-12-18T09:55:33Z</time>
      </trkpt>
      <trkpt lat="45.43388" lon="6.35471">
        <ele>1945</ele>
        <time>2022-12-18T09:55:40Z</time>
      </trkpt>
      <trkpt lat="45.43405" lon="6.35457">
        <ele>1946</ele>
        <time>2022-12-18T09:56:10Z</time>
      </trkpt>
      <trkpt lat="45.43411" lon="6.35449">
        <ele>1949</ele>
        <time>2022-12-18T09:56:25Z</time>
      </trkpt>
      <trkpt lat="45.43413" lon="6.35449">
        <ele>1950</ele>
        <time>2022-12-18T09:56:31Z</time>
      </trkpt>
      <trkpt lat="45.43415" lon="6.35448">
        <ele>1950</ele>
        <time>2022-12-18T09:56:32Z</time>
      </trkpt>
      <trkpt lat="45.43419" lon="6.35442">
        <ele>1950</ele>
        <time>2022-12-18T09:56:40Z</time>
      </trkpt>
      <trkpt lat="45.43426" lon="6.35438">
        <ele>1951</ele>
        <time>2022-12-18T09:56:57Z</time>
      </trkpt>
      <trkpt lat="45.43432" lon="6.35429">
        <ele>1954</ele>
        <time>2022-12-18T09:57:09Z</time>
      </trkpt>
      <trkpt lat="45.43433" lon="6.35428">
        <ele>1955</ele>
        <time>2022-12-18T09:57:12Z</time>
      </trkpt>
      <trkpt lat="45.4345" lon="6.35412">
        <ele>1962</ele>
        <time>2022-12-18T09:57:43Z</time>
      </trkpt>
      <trkpt lat="45.43455" lon="6.35406">
        <ele>1966</ele>
        <time>2022-12-18T09:57:55Z</time>
      </trkpt>
      <trkpt lat="45.43458" lon="6.35405">
        <ele>1967</ele>
        <time>2022-12-18T09:57:59Z</time>
      </trkpt>
      <trkpt lat="45.4346" lon="6.35401">
        <ele>1968</ele>
        <time>2022-12-18T09:58:05Z</time>
      </trkpt>
      <trkpt lat="45.43463" lon="6.35399">
        <ele>1969</ele>
        <time>2022-12-18T09:58:12Z</time>
      </trkpt>
      <trkpt lat="45.43478" lon="6.35379">
        <ele>1972</ele>
        <time>2022-12-18T09:58:46Z</time>
      </trkpt>
      <trkpt lat="45.43479" lon="6.35377">
        <ele>1972</ele>
        <time>2022-12-18T09:58:49Z</time>
      </trkpt>
      <trkpt lat="45.4348" lon="6.35374">
        <ele>1974</ele>
        <time>2022-12-18T09:58:53Z</time>
      </trkpt>
      <trkpt lat="45.43481" lon="6.35368">
        <ele>1973</ele>
        <time>2022-12-18T09:59:03Z</time>
      </trkpt>
      <trkpt lat="45.43483" lon="6.35367">
        <ele>1973</ele>
        <time>2022-12-18T09:59:07Z</time>
      </trkpt>
      <trkpt lat="45.43485" lon="6.35361">
        <ele>1976</ele>
        <time>2022-12-18T09:59:15Z</time>
      </trkpt>
      <trkpt lat="45.43491" lon="6.35351">
        <ele>1980</ele>
        <time>2022-12-18T09:59:28Z</time>
      </trkpt>
      <trkpt lat="45.43491" lon="6.35348">
        <ele>1981</ele>
        <time>2022-12-18T09:59:33Z</time>
      </trkpt>
      <trkpt lat="45.43495" lon="6.35338">
        <ele>1984</ele>
        <time>2022-12-18T09:59:49Z</time>
      </trkpt>
      <trkpt lat="45.43496" lon="6.35334">
        <ele>1985</ele>
        <time>2022-12-18T09:59:54Z</time>
      </trkpt>
      <trkpt lat="45.43497" lon="6.35331">
        <ele>1986</ele>
        <time>2022-12-18T09:59:57Z</time>
      </trkpt>
      <trkpt lat="45.43496" lon="6.35327">
        <ele>1986</ele>
        <time>2022-12-18T10:00:01Z</time>
      </trkpt>
      <trkpt lat="45.43497" lon="6.35324">
        <ele>1986</ele>
        <time>2022-12-18T10:00:04Z</time>
      </trkpt>
      <trkpt lat="45.43497" lon="6.3532">
        <ele>1987</ele>
        <time>2022-12-18T10:00:09Z</time>
      </trkpt>
      <trkpt lat="45.43498" lon="6.35316">
        <ele>1988</ele>
        <time>2022-12-18T10:00:13Z</time>
      </trkpt>
      <trkpt lat="45.43498" lon="6.35312">
        <ele>1989</ele>
        <time>2022-12-18T10:00:17Z</time>
      </trkpt>
      <trkpt lat="45.43499" lon="6.35308">
        <ele>1989</ele>
        <time>2022-12-18T10:00:21Z</time>
      </trkpt>
      <trkpt lat="45.43499" lon="6.35304">
        <ele>1989</ele>
        <time>2022-12-18T10:00:25Z</time>
      </trkpt>
      <trkpt lat="45.435" lon="6.353">
        <ele>1990</ele>
        <time>2022-12-18T10:00:31Z</time>
      </trkpt>
      <trkpt lat="45.43504" lon="6.35283">
        <ele>1993</ele>
        <time>2022-12-18T10:00:50Z</time>
      </trkpt>
      <trkpt lat="45.43503" lon="6.35277">
        <ele>1995</ele>
        <time>2022-12-18T10:00:58Z</time>
      </trkpt>
      <trkpt lat="45.43503" lon="6.35273">
        <ele>1995</ele>
        <time>2022-12-18T10:01:04Z</time>
      </trkpt>
      <trkpt lat="45.43504" lon="6.35271">
        <ele>1997</ele>
        <time>2022-12-18T10:01:09Z</time>
      </trkpt>
      <trkpt lat="45.43505" lon="6.35267">
        <ele>1997</ele>
        <time>2022-12-18T10:01:14Z</time>
      </trkpt>
      <trkpt lat="45.43507" lon="6.35261">
        <ele>2000</ele>
        <time>2022-12-18T10:01:22Z</time>
      </trkpt>
      <trkpt lat="45.43506" lon="6.35258">
        <ele>2001</ele>
        <time>2022-12-18T10:01:27Z</time>
      </trkpt>
      <trkpt lat="45.43507" lon="6.35255">
        <ele>2003</ele>
        <time>2022-12-18T10:01:30Z</time>
      </trkpt>
      <trkpt lat="45.43508" lon="6.35248">
        <ele>2003</ele>
        <time>2022-12-18T10:01:39Z</time>
      </trkpt>
      <trkpt lat="45.43508" lon="6.35245">
        <ele>2003</ele>
        <time>2022-12-18T10:01:43Z</time>
      </trkpt>
      <trkpt lat="45.43508" lon="6.35242">
        <ele>2005</ele>
        <time>2022-12-18T10:01:59Z</time>
      </trkpt>
      <trkpt lat="45.43508" lon="6.3524">
        <ele>2005</ele>
        <time>2022-12-18T10:02:04Z</time>
      </trkpt>
      <trkpt lat="45.43512" lon="6.35234">
        <ele>2006</ele>
        <time>2022-12-18T10:02:12Z</time>
      </trkpt>
      <trkpt lat="45.43512" lon="6.35231">
        <ele>2007</ele>
        <time>2022-12-18T10:02:16Z</time>
      </trkpt>
      <trkpt lat="45.43513" lon="6.35228">
        <ele>2007</ele>
        <time>2022-12-18T10:02:21Z</time>
      </trkpt>
      <trkpt lat="45.43515" lon="6.35226">
        <ele>2007</ele>
        <time>2022-12-18T10:02:25Z</time>
      </trkpt>
      <trkpt lat="45.43519" lon="6.35218">
        <ele>2011</ele>
        <time>2022-12-18T10:02:34Z</time>
      </trkpt>
      <trkpt lat="45.43521" lon="6.35203">
        <ele>2013</ele>
        <time>2022-12-18T10:02:53Z</time>
      </trkpt>
      <trkpt lat="45.43523" lon="6.35196">
        <ele>2015</ele>
        <time>2022-12-18T10:03:00Z</time>
      </trkpt>
      <trkpt lat="45.43523" lon="6.35192">
        <ele>2015</ele>
        <time>2022-12-18T10:03:04Z</time>
      </trkpt>
      <trkpt lat="45.43525" lon="6.35192">
        <ele>2015</ele>
        <time>2022-12-18T10:03:18Z</time>
      </trkpt>
      <trkpt lat="45.43527" lon="6.35194">
        <ele>2016</ele>
        <time>2022-12-18T10:03:24Z</time>
      </trkpt>
      <trkpt lat="45.43529" lon="6.35196">
        <ele>2017</ele>
        <time>2022-12-18T10:03:27Z</time>
      </trkpt>
      <trkpt lat="45.43533" lon="6.35204">
        <ele>2017</ele>
        <time>2022-12-18T10:03:42Z</time>
      </trkpt>
      <trkpt lat="45.43533" lon="6.35207">
        <ele>2017</ele>
        <time>2022-12-18T10:03:46Z</time>
      </trkpt>
      <trkpt lat="45.43535" lon="6.35207">
        <ele>2017</ele>
        <time>2022-12-18T10:03:55Z</time>
      </trkpt>
      <trkpt lat="45.43537" lon="6.35196">
        <ele>2019</ele>
        <time>2022-12-18T10:04:15Z</time>
      </trkpt>
      <trkpt lat="45.43536" lon="6.35188">
        <ele>2021</ele>
        <time>2022-12-18T10:04:24Z</time>
      </trkpt>
      <trkpt lat="45.43536" lon="6.35181">
        <ele>2022</ele>
        <time>2022-12-18T10:04:32Z</time>
      </trkpt>
      <trkpt lat="45.43534" lon="6.35178">
        <ele>2022</ele>
        <time>2022-12-18T10:04:36Z</time>
      </trkpt>
      <trkpt lat="45.43533" lon="6.35176">
        <ele>2022</ele>
        <time>2022-12-18T10:04:39Z</time>
      </trkpt>
      <trkpt lat="45.43531" lon="6.35161">
        <ele>2022</ele>
        <time>2022-12-18T10:04:55Z</time>
      </trkpt>
      <trkpt lat="45.43532" lon="6.35153">
        <ele>2026</ele>
        <time>2022-12-18T10:05:05Z</time>
      </trkpt>
      <trkpt lat="45.43533" lon="6.3515">
        <ele>2026</ele>
        <time>2022-12-18T10:05:09Z</time>
      </trkpt>
      <trkpt lat="45.43535" lon="6.3515">
        <ele>2029</ele>
        <time>2022-12-18T10:05:31Z</time>
      </trkpt>
      <trkpt lat="45.43537" lon="6.35152">
        <ele>2029</ele>
        <time>2022-12-18T10:05:34Z</time>
      </trkpt>
      <trkpt lat="45.43543" lon="6.35155">
        <ele>2031</ele>
        <time>2022-12-18T10:05:46Z</time>
      </trkpt>
      <trkpt lat="45.43556" lon="6.35164">
        <ele>2034</ele>
        <time>2022-12-18T10:06:11Z</time>
      </trkpt>
      <trkpt lat="45.43558" lon="6.35167">
        <ele>2035</ele>
        <time>2022-12-18T10:06:17Z</time>
      </trkpt>
      <trkpt lat="45.43569" lon="6.35175">
        <ele>2037</ele>
        <time>2022-12-18T10:06:38Z</time>
      </trkpt>
      <trkpt lat="45.43571" lon="6.35176">
        <ele>2037</ele>
        <time>2022-12-18T10:06:42Z</time>
      </trkpt>
      <trkpt lat="45.43574" lon="6.35171">
        <ele>2043</ele>
        <time>2022-12-18T10:07:30Z</time>
      </trkpt>
      <trkpt lat="45.43575" lon="6.35165">
        <ele>2044</ele>
        <time>2022-12-18T10:07:38Z</time>
      </trkpt>
      <trkpt lat="45.43575" lon="6.35161">
        <ele>2044</ele>
        <time>2022-12-18T10:07:47Z</time>
      </trkpt>
      <trkpt lat="45.43575" lon="6.35157">
        <ele>2044</ele>
        <time>2022-12-18T10:07:56Z</time>
      </trkpt>
      <trkpt lat="45.43576" lon="6.35154">
        <ele>2045</ele>
        <time>2022-12-18T10:07:58Z</time>
      </trkpt>
      <trkpt lat="45.43577" lon="6.35152">
        <ele>2047</ele>
        <time>2022-12-18T10:08:14Z</time>
      </trkpt>
      <trkpt lat="45.43579" lon="6.35148">
        <ele>2047</ele>
        <time>2022-12-18T10:08:18Z</time>
      </trkpt>
      <trkpt lat="45.4358" lon="6.35145">
        <ele>2048</ele>
        <time>2022-12-18T10:08:22Z</time>
      </trkpt>
      <trkpt lat="45.43579" lon="6.35131">
        <ele>2050</ele>
        <time>2022-12-18T10:08:37Z</time>
      </trkpt>
      <trkpt lat="45.43584" lon="6.35131">
        <ele>2051</ele>
        <time>2022-12-18T10:08:54Z</time>
      </trkpt>
      <trkpt lat="45.43594" lon="6.35141">
        <ele>2053</ele>
        <time>2022-12-18T10:09:11Z</time>
      </trkpt>
      <trkpt lat="45.436" lon="6.35151">
        <ele>2055</ele>
        <time>2022-12-18T10:09:27Z</time>
      </trkpt>
      <trkpt lat="45.43602" lon="6.35151">
        <ele>2057</ele>
        <time>2022-12-18T10:09:49Z</time>
      </trkpt>
      <trkpt lat="45.43601" lon="6.35148">
        <ele>2057</ele>
        <time>2022-12-18T10:09:54Z</time>
      </trkpt>
      <trkpt lat="45.436" lon="6.35144">
        <ele>2059</ele>
        <time>2022-12-18T10:09:59Z</time>
      </trkpt>
      <trkpt lat="45.436" lon="6.35138">
        <ele>2060</ele>
        <time>2022-12-18T10:10:06Z</time>
      </trkpt>
      <trkpt lat="45.43599" lon="6.35135">
        <ele>2061</ele>
        <time>2022-12-18T10:10:09Z</time>
      </trkpt>
      <trkpt lat="45.436" lon="6.35131">
        <ele>2061</ele>
        <time>2022-12-18T10:10:13Z</time>
      </trkpt>
      <trkpt lat="45.43601" lon="6.35127">
        <ele>2061</ele>
        <time>2022-12-18T10:10:18Z</time>
      </trkpt>
      <trkpt lat="45.43603" lon="6.3512">
        <ele>2062</ele>
        <time>2022-12-18T10:10:27Z</time>
      </trkpt>
      <trkpt lat="45.43604" lon="6.35122">
        <ele>2063</ele>
        <time>2022-12-18T10:10:38Z</time>
      </trkpt>
      <trkpt lat="45.43609" lon="6.35125">
        <ele>2064</ele>
        <time>2022-12-18T10:10:45Z</time>
      </trkpt>
      <trkpt lat="45.43612" lon="6.35125">
        <ele>2065</ele>
        <time>2022-12-18T10:10:51Z</time>
      </trkpt>
      <trkpt lat="45.43614" lon="6.35126">
        <ele>2066</ele>
        <time>2022-12-18T10:10:55Z</time>
      </trkpt>
      <trkpt lat="45.43617" lon="6.35132">
        <ele>2067</ele>
        <time>2022-12-18T10:11:04Z</time>
      </trkpt>
      <trkpt lat="45.43619" lon="6.35131">
        <ele>2068</ele>
        <time>2022-12-18T10:11:08Z</time>
      </trkpt>
      <trkpt lat="45.4362" lon="6.35131">
        <ele>2069</ele>
        <time>2022-12-18T10:11:38Z</time>
      </trkpt>
      <trkpt lat="45.43621" lon="6.35125">
        <ele>2069</ele>
        <time>2022-12-18T10:11:47Z</time>
      </trkpt>
      <trkpt lat="45.4362" lon="6.35121">
        <ele>2070</ele>
        <time>2022-12-18T10:11:54Z</time>
      </trkpt>
      <trkpt lat="45.4362" lon="6.35118">
        <ele>2070</ele>
        <time>2022-12-18T10:11:57Z</time>
      </trkpt>
      <trkpt lat="45.43625" lon="6.35111">
        <ele>2072</ele>
        <time>2022-12-18T10:12:05Z</time>
      </trkpt>
      <trkpt lat="45.43627" lon="6.35111">
        <ele>2073</ele>
        <time>2022-12-18T10:12:19Z</time>
      </trkpt>
      <trkpt lat="45.43629" lon="6.35114">
        <ele>2074</ele>
        <time>2022-12-18T10:12:25Z</time>
      </trkpt>
      <trkpt lat="45.4363" lon="6.35115">
        <ele>2074</ele>
        <time>2022-12-18T10:12:28Z</time>
      </trkpt>
      <trkpt lat="45.43633" lon="6.35116">
        <ele>2076</ele>
        <time>2022-12-18T10:12:33Z</time>
      </trkpt>
      <trkpt lat="45.43641" lon="6.35128">
        <ele>2077</ele>
        <time>2022-12-18T10:13:02Z</time>
      </trkpt>
      <trkpt lat="45.43641" lon="6.35123">
        <ele>2080</ele>
        <time>2022-12-18T10:14:03Z</time>
      </trkpt>
      <trkpt lat="45.43646" lon="6.3511">
        <ele>2083</ele>
        <time>2022-12-18T10:14:17Z</time>
      </trkpt>
      <trkpt lat="45.43648" lon="6.35108">
        <ele>2084</ele>
        <time>2022-12-18T10:14:21Z</time>
      </trkpt>
      <trkpt lat="45.4365" lon="6.35107">
        <ele>2085</ele>
        <time>2022-12-18T10:14:27Z</time>
      </trkpt>
      <trkpt lat="45.43651" lon="6.3511">
        <ele>2086</ele>
        <time>2022-12-18T10:14:34Z</time>
      </trkpt>
      <trkpt lat="45.43662" lon="6.35129">
        <ele>2088</ele>
        <time>2022-12-18T10:15:05Z</time>
      </trkpt>
      <trkpt lat="45.43668" lon="6.35135">
        <ele>2091</ele>
        <time>2022-12-18T10:15:18Z</time>
      </trkpt>
      <trkpt lat="45.4367" lon="6.35133">
        <ele>2092</ele>
        <time>2022-12-18T10:15:30Z</time>
      </trkpt>
      <trkpt lat="45.43672" lon="6.35122">
        <ele>2096</ele>
        <time>2022-12-18T10:15:47Z</time>
      </trkpt>
      <trkpt lat="45.43674" lon="6.35119">
        <ele>2096</ele>
        <time>2022-12-18T10:15:51Z</time>
      </trkpt>
      <trkpt lat="45.43675" lon="6.35115">
        <ele>2096</ele>
        <time>2022-12-18T10:15:54Z</time>
      </trkpt>
      <trkpt lat="45.43676" lon="6.35112">
        <ele>2097</ele>
        <time>2022-12-18T10:15:58Z</time>
      </trkpt>
      <trkpt lat="45.43678" lon="6.35109">
        <ele>2099</ele>
        <time>2022-12-18T10:16:04Z</time>
      </trkpt>
      <trkpt lat="45.43684" lon="6.3512">
        <ele>2100</ele>
        <time>2022-12-18T10:16:25Z</time>
      </trkpt>
      <trkpt lat="45.43685" lon="6.35123">
        <ele>2100</ele>
        <time>2022-12-18T10:16:28Z</time>
      </trkpt>
      <trkpt lat="45.43692" lon="6.35129">
        <ele>2103</ele>
        <time>2022-12-18T10:16:41Z</time>
      </trkpt>
      <trkpt lat="45.43693" lon="6.35131">
        <ele>2104</ele>
        <time>2022-12-18T10:16:46Z</time>
      </trkpt>
      <trkpt lat="45.43694" lon="6.35136">
        <ele>2105</ele>
        <time>2022-12-18T10:16:51Z</time>
      </trkpt>
      <trkpt lat="45.43694" lon="6.35139">
        <ele>2105</ele>
        <time>2022-12-18T10:16:55Z</time>
      </trkpt>
      <trkpt lat="45.43696" lon="6.35139">
        <ele>2106</ele>
        <time>2022-12-18T10:17:31Z</time>
      </trkpt>
      <trkpt lat="45.43698" lon="6.35137">
        <ele>2109</ele>
        <time>2022-12-18T10:17:37Z</time>
      </trkpt>
      <trkpt lat="45.437" lon="6.35134">
        <ele>2109</ele>
        <time>2022-12-18T10:17:40Z</time>
      </trkpt>
      <trkpt lat="45.437" lon="6.35131">
        <ele>2111</ele>
        <time>2022-12-18T10:17:43Z</time>
      </trkpt>
      <trkpt lat="45.43702" lon="6.35128">
        <ele>2111</ele>
        <time>2022-12-18T10:17:48Z</time>
      </trkpt>
      <trkpt lat="45.43703" lon="6.35121">
        <ele>2112</ele>
        <time>2022-12-18T10:17:57Z</time>
      </trkpt>
      <trkpt lat="45.43703" lon="6.35117">
        <ele>2113</ele>
        <time>2022-12-18T10:18:01Z</time>
      </trkpt>
      <trkpt lat="45.43702" lon="6.35113">
        <ele>2113</ele>
        <time>2022-12-18T10:18:07Z</time>
      </trkpt>
      <trkpt lat="45.43703" lon="6.35109">
        <ele>2115</ele>
        <time>2022-12-18T10:18:11Z</time>
      </trkpt>
      <trkpt lat="45.43705" lon="6.35109">
        <ele>2117</ele>
        <time>2022-12-18T10:19:30Z</time>
      </trkpt>
      <trkpt lat="45.43714" lon="6.35117">
        <ele>2119</ele>
        <time>2022-12-18T10:19:55Z</time>
      </trkpt>
      <trkpt lat="45.43716" lon="6.3512">
        <ele>2120</ele>
        <time>2022-12-18T10:20:00Z</time>
      </trkpt>
      <trkpt lat="45.43718" lon="6.35116">
        <ele>2120</ele>
        <time>2022-12-18T10:20:26Z</time>
      </trkpt>
      <trkpt lat="45.43719" lon="6.35112">
        <ele>2121</ele>
        <time>2022-12-18T10:20:31Z</time>
      </trkpt>
      <trkpt lat="45.4372" lon="6.35108">
        <ele>2122</ele>
        <time>2022-12-18T10:20:37Z</time>
      </trkpt>
      <trkpt lat="45.4372" lon="6.35105">
        <ele>2123</ele>
        <time>2022-12-18T10:20:43Z</time>
      </trkpt>
      <trkpt lat="45.43723" lon="6.35091">
        <ele>2125</ele>
        <time>2022-12-18T10:21:12Z</time>
      </trkpt>
      <trkpt lat="45.43725" lon="6.3509">
        <ele>2124</ele>
        <time>2022-12-18T10:21:32Z</time>
      </trkpt>
      <trkpt lat="45.43726" lon="6.35093">
        <ele>2125</ele>
        <time>2022-12-18T10:21:36Z</time>
      </trkpt>
      <trkpt lat="45.43727" lon="6.35095">
        <ele>2126</ele>
        <time>2022-12-18T10:22:08Z</time>
      </trkpt>
      <trkpt lat="45.43729" lon="6.35097">
        <ele>2126</ele>
        <time>2022-12-18T10:22:26Z</time>
      </trkpt>
      <trkpt lat="45.43731" lon="6.35099">
        <ele>2127</ele>
        <time>2022-12-18T10:22:33Z</time>
      </trkpt>
      <trkpt lat="45.43732" lon="6.35103">
        <ele>2128</ele>
        <time>2022-12-18T10:22:38Z</time>
      </trkpt>
      <trkpt lat="45.43738" lon="6.35109">
        <ele>2131</ele>
        <time>2022-12-18T10:22:50Z</time>
      </trkpt>
      <trkpt lat="45.4374" lon="6.35112">
        <ele>2132</ele>
        <time>2022-12-18T10:22:56Z</time>
      </trkpt>
      <trkpt lat="45.43742" lon="6.35114">
        <ele>2133</ele>
        <time>2022-12-18T10:23:00Z</time>
      </trkpt>
      <trkpt lat="45.43743" lon="6.35117">
        <ele>2134</ele>
        <time>2022-12-18T10:23:07Z</time>
      </trkpt>
      <trkpt lat="45.43746" lon="6.35123">
        <ele>2134</ele>
        <time>2022-12-18T10:23:16Z</time>
      </trkpt>
      <trkpt lat="45.43747" lon="6.35125">
        <ele>2133</ele>
        <time>2022-12-18T10:23:21Z</time>
      </trkpt>
      <trkpt lat="45.43749" lon="6.35123">
        <ele>2133</ele>
        <time>2022-12-18T10:23:58Z</time>
      </trkpt>
      <trkpt lat="45.43751" lon="6.35116">
        <ele>2134</ele>
        <time>2022-12-18T10:24:05Z</time>
      </trkpt>
      <trkpt lat="45.43753" lon="6.35115">
        <ele>2140</ele>
        <time>2022-12-18T10:24:28Z</time>
      </trkpt>
      <trkpt lat="45.43755" lon="6.35118">
        <ele>2141</ele>
        <time>2022-12-18T10:24:32Z</time>
      </trkpt>
      <trkpt lat="45.43756" lon="6.35121">
        <ele>2141</ele>
        <time>2022-12-18T10:24:35Z</time>
      </trkpt>
      <trkpt lat="45.43756" lon="6.35127">
        <ele>2140</ele>
        <time>2022-12-18T10:24:42Z</time>
      </trkpt>
      <trkpt lat="45.43758" lon="6.35125">
        <ele>2140</ele>
        <time>2022-12-18T10:25:10Z</time>
      </trkpt>
      <trkpt lat="45.4376" lon="6.35122">
        <ele>2138</ele>
        <time>2022-12-18T10:25:15Z</time>
      </trkpt>
      <trkpt lat="45.43761" lon="6.35119">
        <ele>2138</ele>
        <time>2022-12-18T10:25:19Z</time>
      </trkpt>
      <trkpt lat="45.43762" lon="6.35116">
        <ele>2137</ele>
        <time>2022-12-18T10:25:23Z</time>
      </trkpt>
      <trkpt lat="45.4376" lon="6.35108">
        <ele>2139</ele>
        <time>2022-12-18T10:25:44Z</time>
      </trkpt>
      <trkpt lat="45.43762" lon="6.3511">
        <ele>2142</ele>
        <time>2022-12-18T10:26:01Z</time>
      </trkpt>
      <trkpt lat="45.43769" lon="6.35117">
        <ele>2148</ele>
        <time>2022-12-18T10:26:15Z</time>
      </trkpt>
      <trkpt lat="45.43771" lon="6.3512">
        <ele>2148</ele>
        <time>2022-12-18T10:26:20Z</time>
      </trkpt>
      <trkpt lat="45.43772" lon="6.35122">
        <ele>2148</ele>
        <time>2022-12-18T10:26:29Z</time>
      </trkpt>
      <trkpt lat="45.43773" lon="6.35124">
        <ele>2148</ele>
        <time>2022-12-18T10:26:31Z</time>
      </trkpt>
      <trkpt lat="45.43774" lon="6.3512">
        <ele>2147</ele>
        <time>2022-12-18T10:26:45Z</time>
      </trkpt>
      <trkpt lat="45.43773" lon="6.35116">
        <ele>2147</ele>
        <time>2022-12-18T10:26:51Z</time>
      </trkpt>
      <trkpt lat="45.43773" lon="6.35112">
        <ele>2147</ele>
        <time>2022-12-18T10:26:54Z</time>
      </trkpt>
      <trkpt lat="45.43771" lon="6.35105">
        <ele>2148</ele>
        <time>2022-12-18T10:27:02Z</time>
      </trkpt>
      <trkpt lat="45.43772" lon="6.35103">
        <ele>2151</ele>
        <time>2022-12-18T10:27:48Z</time>
      </trkpt>
      <trkpt lat="45.43773" lon="6.35105">
        <ele>2151</ele>
        <time>2022-12-18T10:27:52Z</time>
      </trkpt>
      <trkpt lat="45.43775" lon="6.35108">
        <ele>2155</ele>
        <time>2022-12-18T10:27:57Z</time>
      </trkpt>
      <trkpt lat="45.43788" lon="6.3512">
        <ele>2162</ele>
        <time>2022-12-18T10:28:27Z</time>
      </trkpt>
      <trkpt lat="45.43792" lon="6.35124">
        <ele>2162</ele>
        <time>2022-12-18T10:28:34Z</time>
      </trkpt>
      <trkpt lat="45.43793" lon="6.35126">
        <ele>2162</ele>
        <time>2022-12-18T10:28:37Z</time>
      </trkpt>
      <trkpt lat="45.43794" lon="6.35128">
        <ele>2162</ele>
        <time>2022-12-18T10:28:40Z</time>
      </trkpt>
      <trkpt lat="45.43796" lon="6.35124">
        <ele>2162</ele>
        <time>2022-12-18T10:28:56Z</time>
      </trkpt>
      <trkpt lat="45.43795" lon="6.3512">
        <ele>2161</ele>
        <time>2022-12-18T10:29:00Z</time>
      </trkpt>
      <trkpt lat="45.43795" lon="6.35115">
        <ele>2160</ele>
        <time>2022-12-18T10:29:06Z</time>
      </trkpt>
      <trkpt lat="45.43794" lon="6.3511">
        <ele>2159</ele>
        <time>2022-12-18T10:29:10Z</time>
      </trkpt>
      <trkpt lat="45.43793" lon="6.35106">
        <ele>2159</ele>
        <time>2022-12-18T10:29:14Z</time>
      </trkpt>
      <trkpt lat="45.43786" lon="6.35095">
        <ele>2158</ele>
        <time>2022-12-18T10:29:28Z</time>
      </trkpt>
      <trkpt lat="45.43787" lon="6.35098">
        <ele>2159</ele>
        <time>2022-12-18T10:29:50Z</time>
      </trkpt>
      <trkpt lat="45.43788" lon="6.351">
        <ele>2159</ele>
        <time>2022-12-18T10:29:53Z</time>
      </trkpt>
      <trkpt lat="45.4379" lon="6.35102">
        <ele>2164</ele>
        <time>2022-12-18T10:29:56Z</time>
      </trkpt>
      <trkpt lat="45.43796" lon="6.35107">
        <ele>2169</ele>
        <time>2022-12-18T10:30:07Z</time>
      </trkpt>
      <trkpt lat="45.43798" lon="6.35109">
        <ele>2170</ele>
        <time>2022-12-18T10:30:11Z</time>
      </trkpt>
      <trkpt lat="45.43815" lon="6.35121">
        <ele>2177</ele>
        <time>2022-12-18T10:30:44Z</time>
      </trkpt>
      <trkpt lat="45.43821" lon="6.35128">
        <ele>2179</ele>
        <time>2022-12-18T10:30:57Z</time>
      </trkpt>
      <trkpt lat="45.43821" lon="6.35125">
        <ele>2180</ele>
        <time>2022-12-18T10:31:24Z</time>
      </trkpt>
      <trkpt lat="45.4382" lon="6.35117">
        <ele>2179</ele>
        <time>2022-12-18T10:31:32Z</time>
      </trkpt>
      <trkpt lat="45.43822" lon="6.35116">
        <ele>2178</ele>
        <time>2022-12-18T10:32:04Z</time>
      </trkpt>
      <trkpt lat="45.43826" lon="6.35119">
        <ele>2184</ele>
        <time>2022-12-18T10:32:12Z</time>
      </trkpt>
      <trkpt lat="45.43828" lon="6.35121">
        <ele>2185</ele>
        <time>2022-12-18T10:32:17Z</time>
      </trkpt>
      <trkpt lat="45.43828" lon="6.35125">
        <ele>2186</ele>
        <time>2022-12-18T10:32:23Z</time>
      </trkpt>
      <trkpt lat="45.43828" lon="6.35128">
        <ele>2185</ele>
        <time>2022-12-18T10:32:37Z</time>
      </trkpt>
      <trkpt lat="45.4383" lon="6.35131">
        <ele>2186</ele>
        <time>2022-12-18T10:32:42Z</time>
      </trkpt>
      <trkpt lat="45.43834" lon="6.35135">
        <ele>2186</ele>
        <time>2022-12-18T10:33:21Z</time>
      </trkpt>
      <trkpt lat="45.43835" lon="6.35135">
        <ele>2188</ele>
        <time>2022-12-18T10:33:39Z</time>
      </trkpt>
      <trkpt lat="45.43836" lon="6.35132">
        <ele>2188</ele>
        <time>2022-12-18T10:33:42Z</time>
      </trkpt>
      <trkpt lat="45.43839" lon="6.35128">
        <ele>2188</ele>
        <time>2022-12-18T10:33:48Z</time>
      </trkpt>
      <trkpt lat="45.43839" lon="6.35124">
        <ele>2188</ele>
        <time>2022-12-18T10:33:52Z</time>
      </trkpt>
      <trkpt lat="45.43839" lon="6.35121">
        <ele>2189</ele>
        <time>2022-12-18T10:33:56Z</time>
      </trkpt>
      <trkpt lat="45.4384" lon="6.35114">
        <ele>2190</ele>
        <time>2022-12-18T10:34:05Z</time>
      </trkpt>
      <trkpt lat="45.43841" lon="6.35111">
        <ele>2191</ele>
        <time>2022-12-18T10:34:09Z</time>
      </trkpt>
      <trkpt lat="45.4384" lon="6.35102">
        <ele>2194</ele>
        <time>2022-12-18T10:34:21Z</time>
      </trkpt>
      <trkpt lat="45.43842" lon="6.351">
        <ele>2196</ele>
        <time>2022-12-18T10:34:42Z</time>
      </trkpt>
      <trkpt lat="45.43847" lon="6.351">
        <ele>2200</ele>
        <time>2022-12-18T10:34:49Z</time>
      </trkpt>
      <trkpt lat="45.43849" lon="6.35101">
        <ele>2201</ele>
        <time>2022-12-18T10:34:52Z</time>
      </trkpt>
      <trkpt lat="45.43855" lon="6.35106">
        <ele>2204</ele>
        <time>2022-12-18T10:35:02Z</time>
      </trkpt>
      <trkpt lat="45.43857" lon="6.35108">
        <ele>2204</ele>
        <time>2022-12-18T10:35:06Z</time>
      </trkpt>
      <trkpt lat="45.43861" lon="6.35113">
        <ele>2206</ele>
        <time>2022-12-18T10:35:16Z</time>
      </trkpt>
      <trkpt lat="45.43862" lon="6.35116">
        <ele>2207</ele>
        <time>2022-12-18T10:35:22Z</time>
      </trkpt>
      <trkpt lat="45.43863" lon="6.35118">
        <ele>2207</ele>
        <time>2022-12-18T10:35:26Z</time>
      </trkpt>
      <trkpt lat="45.43865" lon="6.35121">
        <ele>2207</ele>
        <time>2022-12-18T10:35:36Z</time>
      </trkpt>
      <trkpt lat="45.43869" lon="6.35123">
        <ele>2209</ele>
        <time>2022-12-18T10:35:44Z</time>
      </trkpt>
      <trkpt lat="45.4387" lon="6.35121">
        <ele>2210</ele>
        <time>2022-12-18T10:36:27Z</time>
      </trkpt>
      <trkpt lat="45.43873" lon="6.35122">
        <ele>2210</ele>
        <time>2022-12-18T10:36:43Z</time>
      </trkpt>
      <trkpt lat="45.43876" lon="6.35124">
        <ele>2209</ele>
        <time>2022-12-18T10:36:47Z</time>
      </trkpt>
      <trkpt lat="45.43879" lon="6.35125">
        <ele>2209</ele>
        <time>2022-12-18T10:36:50Z</time>
      </trkpt>
      <trkpt lat="45.43888" lon="6.35127">
        <ele>2210</ele>
        <time>2022-12-18T10:37:00Z</time>
      </trkpt>
      <trkpt lat="45.43894" lon="6.3513">
        <ele>2210</ele>
        <time>2022-12-18T10:37:07Z</time>
      </trkpt>
      <trkpt lat="45.43901" lon="6.35134">
        <ele>2211</ele>
        <time>2022-12-18T10:37:21Z</time>
      </trkpt>
      <trkpt lat="45.43903" lon="6.35135">
        <ele>2212</ele>
        <time>2022-12-18T10:37:25Z</time>
      </trkpt>
      <trkpt lat="45.43905" lon="6.35135">
        <ele>2214</ele>
        <time>2022-12-18T10:37:36Z</time>
      </trkpt>
      <trkpt lat="45.43907" lon="6.35135">
        <ele>2215</ele>
        <time>2022-12-18T10:37:40Z</time>
      </trkpt>
      <trkpt lat="45.43906" lon="6.35138">
        <ele>2216</ele>
        <time>2022-12-18T10:37:44Z</time>
      </trkpt>
      <trkpt lat="45.43903" lon="6.35138">
        <ele>2216</ele>
        <time>2022-12-18T10:37:47Z</time>
      </trkpt>
      <trkpt lat="45.43902" lon="6.35141">
        <ele>2215</ele>
        <time>2022-12-18T10:37:50Z</time>
      </trkpt>
      <trkpt lat="45.43903" lon="6.35143">
        <ele>2215</ele>
        <time>2022-12-18T10:37:54Z</time>
      </trkpt>
      <trkpt lat="45.43905" lon="6.35142">
        <ele>2216</ele>
        <time>2022-12-18T10:38:10Z</time>
      </trkpt>
      <trkpt lat="45.43903" lon="6.35139">
        <ele>2216</ele>
        <time>2022-12-18T10:38:53Z</time>
      </trkpt>
      <trkpt lat="45.43891" lon="6.3514">
        <ele>2214</ele>
        <time>2022-12-18T10:39:07Z</time>
      </trkpt>
      <trkpt lat="45.43884" lon="6.35146">
        <ele>2213</ele>
        <time>2022-12-18T10:39:16Z</time>
      </trkpt>
      <trkpt lat="45.43885" lon="6.35149">
        <ele>2213</ele>
        <time>2022-12-18T10:39:20Z</time>
      </trkpt>
      <trkpt lat="45.43886" lon="6.35148">
        <ele>2213</ele>
        <time>2022-12-18T10:48:36Z</time>
      </trkpt>
      <trkpt lat="45.43888" lon="6.35147">
        <ele>2214</ele>
        <time>2022-12-18T10:50:25Z</time>
      </trkpt>
      <trkpt lat="45.43891" lon="6.35145">
        <ele>2214</ele>
        <time>2022-12-18T10:50:28Z</time>
      </trkpt>
      <trkpt lat="45.43894" lon="6.35143">
        <ele>2218</ele>
        <time>2022-12-18T10:50:32Z</time>
      </trkpt>
      <trkpt lat="45.439" lon="6.35145">
        <ele>2219</ele>
        <time>2022-12-18T10:50:40Z</time>
      </trkpt>
      <trkpt lat="45.43901" lon="6.35144">
        <ele>2220</ele>
        <time>2022-12-18T10:51:12Z</time>
      </trkpt>
      <trkpt lat="45.43904" lon="6.35145">
        <ele>2219</ele>
        <time>2022-12-18T10:59:23Z</time>
      </trkpt>
      <trkpt lat="45.43907" lon="6.35143">
        <ele>2220</ele>
        <time>2022-12-18T10:59:31Z</time>
      </trkpt>
      <trkpt lat="45.43909" lon="6.35141">
        <ele>2220</ele>
        <time>2022-12-18T10:59:35Z</time>
      </trkpt>
      <trkpt lat="45.43918" lon="6.35139">
        <ele>2220</ele>
        <time>2022-12-18T10:59:46Z</time>
      </trkpt>
      <trkpt lat="45.43921" lon="6.35137">
        <ele>2220</ele>
        <time>2022-12-18T10:59:51Z</time>
      </trkpt>
      <trkpt lat="45.43921" lon="6.35137">
        <ele>2219</ele>
        <time>2022-12-18T11:00:22Z</time>
      </trkpt>
      <trkpt lat="45.43921" lon="6.3514">
        <ele>2217</ele>
        <time>2022-12-18T11:00:28Z</time>
      </trkpt>
      <trkpt lat="45.43921" lon="6.35141">
        <ele>2219</ele>
        <time>2022-12-18T11:01:00Z</time>
      </trkpt>
      <trkpt lat="45.43919" lon="6.35145">
        <ele>2220</ele>
        <time>2022-12-18T11:01:06Z</time>
      </trkpt>
      <trkpt lat="45.43921" lon="6.35148">
        <ele>2219</ele>
        <time>2022-12-18T11:01:10Z</time>
      </trkpt>
      <trkpt lat="45.43927" lon="6.35142">
        <ele>2220</ele>
        <time>2022-12-18T11:01:47Z</time>
      </trkpt>
      <trkpt lat="45.4393" lon="6.3514">
        <ele>2219</ele>
        <time>2022-12-18T11:01:51Z</time>
      </trkpt>
      <trkpt lat="45.43932" lon="6.35139">
        <ele>2220</ele>
        <time>2022-12-18T11:01:59Z</time>
      </trkpt>
      <trkpt lat="45.43935" lon="6.35136">
        <ele>2221</ele>
        <time>2022-12-18T11:02:03Z</time>
      </trkpt>
      <trkpt lat="45.43943" lon="6.35133">
        <ele>2222</ele>
        <time>2022-12-18T11:02:19Z</time>
      </trkpt>
      <trkpt lat="45.43951" lon="6.3513">
        <ele>2226</ele>
        <time>2022-12-18T11:02:35Z</time>
      </trkpt>
      <trkpt lat="45.43953" lon="6.35128">
        <ele>2227</ele>
        <time>2022-12-18T11:02:40Z</time>
      </trkpt>
      <trkpt lat="45.43961" lon="6.35131">
        <ele>2231</ele>
        <time>2022-12-18T11:02:55Z</time>
      </trkpt>
      <trkpt lat="45.43962" lon="6.35129">
        <ele>2231</ele>
        <time>2022-12-18T11:03:07Z</time>
      </trkpt>
      <trkpt lat="45.43962" lon="6.35126">
        <ele>2231</ele>
        <time>2022-12-18T11:03:11Z</time>
      </trkpt>
      <trkpt lat="45.43959" lon="6.35124">
        <ele>2232</ele>
        <time>2022-12-18T11:03:14Z</time>
      </trkpt>
      <trkpt lat="45.43961" lon="6.35122">
        <ele>2233</ele>
        <time>2022-12-18T11:03:26Z</time>
      </trkpt>
      <trkpt lat="45.43964" lon="6.35123">
        <ele>2234</ele>
        <time>2022-12-18T11:03:32Z</time>
      </trkpt>
      <trkpt lat="45.43967" lon="6.35124">
        <ele>2237</ele>
        <time>2022-12-18T11:03:38Z</time>
      </trkpt>
      <trkpt lat="45.43969" lon="6.35123">
        <ele>2238</ele>
        <time>2022-12-18T11:03:43Z</time>
      </trkpt>
      <trkpt lat="45.43976" lon="6.35127">
        <ele>2240</ele>
        <time>2022-12-18T11:04:00Z</time>
      </trkpt>
      <trkpt lat="45.43975" lon="6.35123">
        <ele>2242</ele>
        <time>2022-12-18T11:04:19Z</time>
      </trkpt>
      <trkpt lat="45.43974" lon="6.3512">
        <ele>2241</ele>
        <time>2022-12-18T11:04:24Z</time>
      </trkpt>
      <trkpt lat="45.43972" lon="6.35118">
        <ele>2240</ele>
        <time>2022-12-18T11:04:28Z</time>
      </trkpt>
      <trkpt lat="45.4397" lon="6.35117">
        <ele>2240</ele>
        <time>2022-12-18T11:04:32Z</time>
      </trkpt>
      <trkpt lat="45.43969" lon="6.35112">
        <ele>2238</ele>
        <time>2022-12-18T11:04:39Z</time>
      </trkpt>
      <trkpt lat="45.43968" lon="6.3511">
        <ele>2237</ele>
        <time>2022-12-18T11:04:43Z</time>
      </trkpt>
      <trkpt lat="45.43977" lon="6.35114">
        <ele>2240</ele>
        <time>2022-12-18T11:05:10Z</time>
      </trkpt>
      <trkpt lat="45.43979" lon="6.35115">
        <ele>2242</ele>
        <time>2022-12-18T11:05:16Z</time>
      </trkpt>
      <trkpt lat="45.43978" lon="6.35113">
        <ele>2245</ele>
        <time>2022-12-18T11:05:31Z</time>
      </trkpt>
      <trkpt lat="45.43977" lon="6.3511">
        <ele>2244</ele>
        <time>2022-12-18T11:05:35Z</time>
      </trkpt>
      <trkpt lat="45.43976" lon="6.35107">
        <ele>2245</ele>
        <time>2022-12-18T11:05:38Z</time>
      </trkpt>
      <trkpt lat="45.43977" lon="6.35101">
        <ele>2244</ele>
        <time>2022-12-18T11:05:49Z</time>
      </trkpt>
      <trkpt lat="45.43976" lon="6.35099">
        <ele>2244</ele>
        <time>2022-12-18T11:05:52Z</time>
      </trkpt>
      <trkpt lat="45.43977" lon="6.35089">
        <ele>2245</ele>
        <time>2022-12-18T11:06:08Z</time>
      </trkpt>
      <trkpt lat="45.43977" lon="6.35086">
        <ele>2245</ele>
        <time>2022-12-18T11:06:11Z</time>
      </trkpt>
      <trkpt lat="45.43975" lon="6.35082">
        <ele>2245</ele>
        <time>2022-12-18T11:06:14Z</time>
      </trkpt>
      <trkpt lat="45.43973" lon="6.35074">
        <ele>2248</ele>
        <time>2022-12-18T11:06:28Z</time>
      </trkpt>
      <trkpt lat="45.43972" lon="6.3507">
        <ele>2248</ele>
        <time>2022-12-18T11:06:32Z</time>
      </trkpt>
      <trkpt lat="45.43971" lon="6.35068">
        <ele>2249</ele>
        <time>2022-12-18T11:06:36Z</time>
      </trkpt>
      <trkpt lat="45.4397" lon="6.35065">
        <ele>2249</ele>
        <time>2022-12-18T11:06:39Z</time>
      </trkpt>
      <trkpt lat="45.43969" lon="6.35063">
        <ele>2249</ele>
        <time>2022-12-18T11:06:42Z</time>
      </trkpt>
      <trkpt lat="45.43969" lon="6.35059">
        <ele>2249</ele>
        <time>2022-12-18T11:06:49Z</time>
      </trkpt>
      <trkpt lat="45.43967" lon="6.35054">
        <ele>2250</ele>
        <time>2022-12-18T11:06:55Z</time>
      </trkpt>
      <trkpt lat="45.43966" lon="6.35047">
        <ele>2252</ele>
        <time>2022-12-18T11:07:04Z</time>
      </trkpt>
      <trkpt lat="45.43966" lon="6.35047">
        <ele>2252</ele>
        <time>2022-12-18T11:07:20Z</time>
      </trkpt>
      <trkpt lat="45.43969" lon="6.35046">
        <ele>2252</ele>
        <time>2022-12-18T11:07:25Z</time>
      </trkpt>
      <trkpt lat="45.43971" lon="6.35046">
        <ele>2254</ele>
        <time>2022-12-18T11:07:33Z</time>
      </trkpt>
      <trkpt lat="45.43974" lon="6.35048">
        <ele>2257</ele>
        <time>2022-12-18T11:07:48Z</time>
      </trkpt>
      <trkpt lat="45.43978" lon="6.35052">
        <ele>2260</ele>
        <time>2022-12-18T11:07:56Z</time>
      </trkpt>
      <trkpt lat="45.43982" lon="6.35058">
        <ele>2262</ele>
        <time>2022-12-18T11:08:04Z</time>
      </trkpt>
      <trkpt lat="45.43983" lon="6.35061">
        <ele>2262</ele>
        <time>2022-12-18T11:08:09Z</time>
      </trkpt>
      <trkpt lat="45.43985" lon="6.35062">
        <ele>2262</ele>
        <time>2022-12-18T11:08:20Z</time>
      </trkpt>
      <trkpt lat="45.43985" lon="6.35059">
        <ele>2262</ele>
        <time>2022-12-18T11:08:45Z</time>
      </trkpt>
      <trkpt lat="45.43986" lon="6.35052">
        <ele>2262</ele>
        <time>2022-12-18T11:08:51Z</time>
      </trkpt>
      <trkpt lat="45.43986" lon="6.35048">
        <ele>2261</ele>
        <time>2022-12-18T11:08:58Z</time>
      </trkpt>
      <trkpt lat="45.43986" lon="6.35044">
        <ele>2261</ele>
        <time>2022-12-18T11:09:02Z</time>
      </trkpt>
      <trkpt lat="45.43987" lon="6.35037">
        <ele>2262</ele>
        <time>2022-12-18T11:09:10Z</time>
      </trkpt>
      <trkpt lat="45.43985" lon="6.35034">
        <ele>2262</ele>
        <time>2022-12-18T11:09:12Z</time>
      </trkpt>
      <trkpt lat="45.43985" lon="6.35031">
        <ele>2262</ele>
        <time>2022-12-18T11:09:16Z</time>
      </trkpt>
      <trkpt lat="45.43984" lon="6.35028">
        <ele>2263</ele>
        <time>2022-12-18T11:09:27Z</time>
      </trkpt>
      <trkpt lat="45.43983" lon="6.35026">
        <ele>2263</ele>
        <time>2022-12-18T11:09:29Z</time>
      </trkpt>
      <trkpt lat="45.43982" lon="6.35024">
        <ele>2262</ele>
        <time>2022-12-18T11:09:35Z</time>
      </trkpt>
      <trkpt lat="45.4398" lon="6.35021">
        <ele>2261</ele>
        <time>2022-12-18T11:09:37Z</time>
      </trkpt>
      <trkpt lat="45.43976" lon="6.35014">
        <ele>2262</ele>
        <time>2022-12-18T11:09:49Z</time>
      </trkpt>
      <trkpt lat="45.43979" lon="6.35014">
        <ele>2263</ele>
        <time>2022-12-18T11:10:11Z</time>
      </trkpt>
      <trkpt lat="45.43981" lon="6.35014">
        <ele>2265</ele>
        <time>2022-12-18T11:10:14Z</time>
      </trkpt>
      <trkpt lat="45.43996" lon="6.3501">
        <ele>2272</ele>
        <time>2022-12-18T11:10:38Z</time>
      </trkpt>
      <trkpt lat="45.43998" lon="6.35009">
        <ele>2274</ele>
        <time>2022-12-18T11:10:43Z</time>
      </trkpt>
      <trkpt lat="45.44" lon="6.35009">
        <ele>2275</ele>
        <time>2022-12-18T11:10:48Z</time>
      </trkpt>
      <trkpt lat="45.44002" lon="6.35011">
        <ele>2277</ele>
        <time>2022-12-18T11:10:54Z</time>
      </trkpt>
      <trkpt lat="45.44004" lon="6.35008">
        <ele>2280</ele>
        <time>2022-12-18T11:11:17Z</time>
      </trkpt>
      <trkpt lat="45.44003" lon="6.35006">
        <ele>2279</ele>
        <time>2022-12-18T11:11:20Z</time>
      </trkpt>
      <trkpt lat="45.44002" lon="6.35003">
        <ele>2279</ele>
        <time>2022-12-18T11:11:23Z</time>
      </trkpt>
      <trkpt lat="45.44001" lon="6.35002">
        <ele>2278</ele>
        <time>2022-12-18T11:11:26Z</time>
      </trkpt>
      <trkpt lat="45.43996" lon="6.34998">
        <ele>2277</ele>
        <time>2022-12-18T11:11:32Z</time>
      </trkpt>
      <trkpt lat="45.44001" lon="6.34998">
        <ele>2278</ele>
        <time>2022-12-18T11:11:53Z</time>
      </trkpt>
      <trkpt lat="45.44004" lon="6.34997">
        <ele>2279</ele>
        <time>2022-12-18T11:11:58Z</time>
      </trkpt>
      <trkpt lat="45.44011" lon="6.34996">
        <ele>2284</ele>
        <time>2022-12-18T11:12:13Z</time>
      </trkpt>
      <trkpt lat="45.44013" lon="6.34994">
        <ele>2285</ele>
        <time>2022-12-18T11:12:19Z</time>
      </trkpt>
      <trkpt lat="45.44011" lon="6.34992">
        <ele>2285</ele>
        <time>2022-12-18T11:12:22Z</time>
      </trkpt>
      <trkpt lat="45.4401" lon="6.34988">
        <ele>2284</ele>
        <time>2022-12-18T11:12:26Z</time>
      </trkpt>
      <trkpt lat="45.44013" lon="6.34988">
        <ele>2285</ele>
        <time>2022-12-18T11:13:24Z</time>
      </trkpt>
      <trkpt lat="45.44015" lon="6.34989">
        <ele>2285</ele>
        <time>2022-12-18T11:13:28Z</time>
      </trkpt>
      <trkpt lat="45.4402" lon="6.34986">
        <ele>2287</ele>
        <time>2022-12-18T11:13:36Z</time>
      </trkpt>
      <trkpt lat="45.44023" lon="6.34985">
        <ele>2288</ele>
        <time>2022-12-18T11:13:41Z</time>
      </trkpt>
      <trkpt lat="45.44026" lon="6.34987">
        <ele>2289</ele>
        <time>2022-12-18T11:13:46Z</time>
      </trkpt>
      <trkpt lat="45.44038" lon="6.34985">
        <ele>2294</ele>
        <time>2022-12-18T11:14:04Z</time>
      </trkpt>
      <trkpt lat="45.4404" lon="6.34983">
        <ele>2294</ele>
        <time>2022-12-18T11:14:08Z</time>
      </trkpt>
      <trkpt lat="45.44042" lon="6.34983">
        <ele>2295</ele>
        <time>2022-12-18T11:14:11Z</time>
      </trkpt>
      <trkpt lat="45.44044" lon="6.34981">
        <ele>2295</ele>
        <time>2022-12-18T11:14:15Z</time>
      </trkpt>
      <trkpt lat="45.44047" lon="6.34981">
        <ele>2297</ele>
        <time>2022-12-18T11:14:21Z</time>
      </trkpt>
      <trkpt lat="45.4405" lon="6.34984">
        <ele>2298</ele>
        <time>2022-12-18T11:14:26Z</time>
      </trkpt>
      <trkpt lat="45.44061" lon="6.34985">
        <ele>2298</ele>
        <time>2022-12-18T11:14:42Z</time>
      </trkpt>
      <trkpt lat="45.44064" lon="6.34986">
        <ele>2299</ele>
        <time>2022-12-18T11:14:47Z</time>
      </trkpt>
      <trkpt lat="45.4407" lon="6.34984">
        <ele>2300</ele>
        <time>2022-12-18T11:14:57Z</time>
      </trkpt>
      <trkpt lat="45.44074" lon="6.34984">
        <ele>2302</ele>
        <time>2022-12-18T11:15:02Z</time>
      </trkpt>
      <trkpt lat="45.44076" lon="6.34981">
        <ele>2301</ele>
        <time>2022-12-18T11:15:05Z</time>
      </trkpt>
      <trkpt lat="45.44087" lon="6.34972">
        <ele>2302</ele>
        <time>2022-12-18T11:15:28Z</time>
      </trkpt>
      <trkpt lat="45.44096" lon="6.34956">
        <ele>2303</ele>
        <time>2022-12-18T11:15:58Z</time>
      </trkpt>
      <trkpt lat="45.44098" lon="6.34954">
        <ele>2301</ele>
        <time>2022-12-18T11:16:03Z</time>
      </trkpt>
      <trkpt lat="45.44101" lon="6.34954">
        <ele>2302</ele>
        <time>2022-12-18T11:16:08Z</time>
      </trkpt>
      <trkpt lat="45.44104" lon="6.34957">
        <ele>2304</ele>
        <time>2022-12-18T11:16:17Z</time>
      </trkpt>
      <trkpt lat="45.44107" lon="6.34967">
        <ele>2308</ele>
        <time>2022-12-18T11:16:34Z</time>
      </trkpt>
      <trkpt lat="45.44107" lon="6.34965">
        <ele>2308</ele>
        <time>2022-12-18T11:17:29Z</time>
      </trkpt>
      <trkpt lat="45.44109" lon="6.34963">
        <ele>2310</ele>
        <time>2022-12-18T11:17:32Z</time>
      </trkpt>
      <trkpt lat="45.4411" lon="6.34959">
        <ele>2311</ele>
        <time>2022-12-18T11:17:37Z</time>
      </trkpt>
      <trkpt lat="45.44111" lon="6.34956">
        <ele>2311</ele>
        <time>2022-12-18T11:17:40Z</time>
      </trkpt>
      <trkpt lat="45.44113" lon="6.34952">
        <ele>2312</ele>
        <time>2022-12-18T11:17:44Z</time>
      </trkpt>
      <trkpt lat="45.44113" lon="6.34948">
        <ele>2311</ele>
        <time>2022-12-18T11:17:49Z</time>
      </trkpt>
      <trkpt lat="45.44115" lon="6.34944">
        <ele>2311</ele>
        <time>2022-12-18T11:17:53Z</time>
      </trkpt>
      <trkpt lat="45.44116" lon="6.34941">
        <ele>2311</ele>
        <time>2022-12-18T11:17:57Z</time>
      </trkpt>
      <trkpt lat="45.44117" lon="6.34936">
        <ele>2311</ele>
        <time>2022-12-18T11:18:01Z</time>
      </trkpt>
      <trkpt lat="45.44119" lon="6.34935">
        <ele>2312</ele>
        <time>2022-12-18T11:18:09Z</time>
      </trkpt>
      <trkpt lat="45.44122" lon="6.34934">
        <ele>2313</ele>
        <time>2022-12-18T11:18:15Z</time>
      </trkpt>
      <trkpt lat="45.44125" lon="6.34936">
        <ele>2316</ele>
        <time>2022-12-18T11:18:24Z</time>
      </trkpt>
      <trkpt lat="45.44128" lon="6.34937">
        <ele>2318</ele>
        <time>2022-12-18T11:18:31Z</time>
      </trkpt>
      <trkpt lat="45.4413" lon="6.34934">
        <ele>2319</ele>
        <time>2022-12-18T11:18:49Z</time>
      </trkpt>
      <trkpt lat="45.44131" lon="6.34911">
        <ele>2319</ele>
        <time>2022-12-18T11:19:16Z</time>
      </trkpt>
      <trkpt lat="45.44134" lon="6.34909">
        <ele>2319</ele>
        <time>2022-12-18T11:19:21Z</time>
      </trkpt>
      <trkpt lat="45.44137" lon="6.34907">
        <ele>2321</ele>
        <time>2022-12-18T11:19:27Z</time>
      </trkpt>
      <trkpt lat="45.44139" lon="6.34904">
        <ele>2322</ele>
        <time>2022-12-18T11:19:34Z</time>
      </trkpt>
      <trkpt lat="45.44141" lon="6.34903">
        <ele>2325</ele>
        <time>2022-12-18T11:19:40Z</time>
      </trkpt>
      <trkpt lat="45.44144" lon="6.34901">
        <ele>2326</ele>
        <time>2022-12-18T11:19:45Z</time>
      </trkpt>
      <trkpt lat="45.44143" lon="6.34895">
        <ele>2328</ele>
        <time>2022-12-18T11:19:59Z</time>
      </trkpt>
      <trkpt lat="45.4414" lon="6.34893">
        <ele>2329</ele>
        <time>2022-12-18T11:20:31Z</time>
      </trkpt>
      <trkpt lat="45.44139" lon="6.3489">
        <ele>2329</ele>
        <time>2022-12-18T11:20:34Z</time>
      </trkpt>
      <trkpt lat="45.44137" lon="6.34889">
        <ele>2328</ele>
        <time>2022-12-18T11:20:36Z</time>
      </trkpt>
      <trkpt lat="45.44134" lon="6.34886">
        <ele>2327</ele>
        <time>2022-12-18T11:20:39Z</time>
      </trkpt>
      <trkpt lat="45.44132" lon="6.34883">
        <ele>2326</ele>
        <time>2022-12-18T11:20:43Z</time>
      </trkpt>
      <trkpt lat="45.44126" lon="6.34882">
        <ele>2328</ele>
        <time>2022-12-18T11:20:51Z</time>
      </trkpt>
      <trkpt lat="45.44124" lon="6.34879">
        <ele>2328</ele>
        <time>2022-12-18T11:20:56Z</time>
      </trkpt>
      <trkpt lat="45.44121" lon="6.34876">
        <ele>2328</ele>
        <time>2022-12-18T11:21:12Z</time>
      </trkpt>
      <trkpt lat="45.44115" lon="6.34876">
        <ele>2328</ele>
        <time>2022-12-18T11:21:22Z</time>
      </trkpt>
      <trkpt lat="45.44113" lon="6.34878">
        <ele>2328</ele>
        <time>2022-12-18T11:21:26Z</time>
      </trkpt>
      <trkpt lat="45.44113" lon="6.34878">
        <ele>2328</ele>
        <time>2022-12-18T11:21:54Z</time>
      </trkpt>
      <trkpt lat="45.44117" lon="6.34876">
        <ele>2328</ele>
        <time>2022-12-18T11:21:59Z</time>
      </trkpt>
      <trkpt lat="45.44125" lon="6.34872">
        <ele>2337</ele>
        <time>2022-12-18T11:22:14Z</time>
      </trkpt>
      <trkpt lat="45.44129" lon="6.3487">
        <ele>2338</ele>
        <time>2022-12-18T11:22:18Z</time>
      </trkpt>
      <trkpt lat="45.44131" lon="6.34868">
        <ele>2338</ele>
        <time>2022-12-18T11:22:21Z</time>
      </trkpt>
      <trkpt lat="45.44134" lon="6.34866">
        <ele>2339</ele>
        <time>2022-12-18T11:22:28Z</time>
      </trkpt>
      <trkpt lat="45.44144" lon="6.34861">
        <ele>2344</ele>
        <time>2022-12-18T11:22:45Z</time>
      </trkpt>
      <trkpt lat="45.44156" lon="6.34856">
        <ele>2346</ele>
        <time>2022-12-18T11:23:11Z</time>
      </trkpt>
      <trkpt lat="45.4416" lon="6.34857">
        <ele>2348</ele>
        <time>2022-12-18T11:23:20Z</time>
      </trkpt>
      <trkpt lat="45.44164" lon="6.34858">
        <ele>2348</ele>
        <time>2022-12-18T11:23:35Z</time>
      </trkpt>
      <trkpt lat="45.44168" lon="6.34858">
        <ele>2349</ele>
        <time>2022-12-18T11:23:43Z</time>
      </trkpt>
      <trkpt lat="45.44166" lon="6.34854">
        <ele>2349</ele>
        <time>2022-12-18T11:24:02Z</time>
      </trkpt>
      <trkpt lat="45.44162" lon="6.34845">
        <ele>2348</ele>
        <time>2022-12-18T11:24:13Z</time>
      </trkpt>
      <trkpt lat="45.44161" lon="6.34842">
        <ele>2348</ele>
        <time>2022-12-18T11:24:31Z</time>
      </trkpt>
      <trkpt lat="45.4416" lon="6.34838">
        <ele>2347</ele>
        <time>2022-12-18T11:24:37Z</time>
      </trkpt>
      <trkpt lat="45.44159" lon="6.34833">
        <ele>2347</ele>
        <time>2022-12-18T11:24:44Z</time>
      </trkpt>
      <trkpt lat="45.44154" lon="6.34827">
        <ele>2347</ele>
        <time>2022-12-18T11:24:55Z</time>
      </trkpt>
      <trkpt lat="45.44154" lon="6.34823">
        <ele>2348</ele>
        <time>2022-12-18T11:24:59Z</time>
      </trkpt>
      <trkpt lat="45.44159" lon="6.34821">
        <ele>2359</ele>
        <time>2022-12-18T11:25:35Z</time>
      </trkpt>
      <trkpt lat="45.44162" lon="6.34822">
        <ele>2360</ele>
        <time>2022-12-18T11:25:42Z</time>
      </trkpt>
      <trkpt lat="45.44166" lon="6.34823">
        <ele>2362</ele>
        <time>2022-12-18T11:25:47Z</time>
      </trkpt>
      <trkpt lat="45.44174" lon="6.34821">
        <ele>2368</ele>
        <time>2022-12-18T11:26:13Z</time>
      </trkpt>
      <trkpt lat="45.44178" lon="6.34824">
        <ele>2373</ele>
        <time>2022-12-18T11:26:25Z</time>
      </trkpt>
      <trkpt lat="45.44178" lon="6.3482">
        <ele>2373</ele>
        <time>2022-12-18T11:26:54Z</time>
      </trkpt>
      <trkpt lat="45.44176" lon="6.34819">
        <ele>2373</ele>
        <time>2022-12-18T11:26:58Z</time>
      </trkpt>
      <trkpt lat="45.44174" lon="6.34816">
        <ele>2374</ele>
        <time>2022-12-18T11:27:08Z</time>
      </trkpt>
      <trkpt lat="45.44173" lon="6.34811">
        <ele>2373</ele>
        <time>2022-12-18T11:27:15Z</time>
      </trkpt>
      <trkpt lat="45.44168" lon="6.34801">
        <ele>2372</ele>
        <time>2022-12-18T11:27:27Z</time>
      </trkpt>
      <trkpt lat="45.44168" lon="6.34798">
        <ele>2372</ele>
        <time>2022-12-18T11:27:32Z</time>
      </trkpt>
      <trkpt lat="45.44171" lon="6.34798">
        <ele>2375</ele>
        <time>2022-12-18T11:27:58Z</time>
      </trkpt>
      <trkpt lat="45.44174" lon="6.34802">
        <ele>2378</ele>
        <time>2022-12-18T11:28:04Z</time>
      </trkpt>
      <trkpt lat="45.44182" lon="6.34803">
        <ele>2381</ele>
        <time>2022-12-18T11:28:18Z</time>
      </trkpt>
      <trkpt lat="45.44183" lon="6.34803">
        <ele>2383</ele>
        <time>2022-12-18T11:28:51Z</time>
      </trkpt>
      <trkpt lat="45.44183" lon="6.34799">
        <ele>2383</ele>
        <time>2022-12-18T11:28:56Z</time>
      </trkpt>
      <trkpt lat="45.44182" lon="6.34796">
        <ele>2384</ele>
        <time>2022-12-18T11:29:00Z</time>
      </trkpt>
      <trkpt lat="45.4418" lon="6.34792">
        <ele>2384</ele>
        <time>2022-12-18T11:29:07Z</time>
      </trkpt>
      <trkpt lat="45.44182" lon="6.3479">
        <ele>2383</ele>
        <time>2022-12-18T11:29:34Z</time>
      </trkpt>
      <trkpt lat="45.44185" lon="6.34794">
        <ele>2384</ele>
        <time>2022-12-18T11:29:43Z</time>
      </trkpt>
      <trkpt lat="45.44191" lon="6.34794">
        <ele>2388</ele>
        <time>2022-12-18T11:29:57Z</time>
      </trkpt>
      <trkpt lat="45.44189" lon="6.34792">
        <ele>2389</ele>
        <time>2022-12-18T11:30:24Z</time>
      </trkpt>
      <trkpt lat="45.44187" lon="6.3478">
        <ele>2390</ele>
        <time>2022-12-18T11:30:40Z</time>
      </trkpt>
      <trkpt lat="45.44189" lon="6.3478">
        <ele>2390</ele>
        <time>2022-12-18T11:31:03Z</time>
      </trkpt>
      <trkpt lat="45.44196" lon="6.34784">
        <ele>2394</ele>
        <time>2022-12-18T11:31:14Z</time>
      </trkpt>
      <trkpt lat="45.44199" lon="6.34785">
        <ele>2396</ele>
        <time>2022-12-18T11:31:20Z</time>
      </trkpt>
      <trkpt lat="45.442" lon="6.3478">
        <ele>2399</ele>
        <time>2022-12-18T11:31:57Z</time>
      </trkpt>
      <trkpt lat="45.44199" lon="6.34777">
        <ele>2399</ele>
        <time>2022-12-18T11:32:01Z</time>
      </trkpt>
      <trkpt lat="45.44196" lon="6.34763">
        <ele>2400</ele>
        <time>2022-12-18T11:32:17Z</time>
      </trkpt>
      <trkpt lat="45.442" lon="6.34763">
        <ele>2399</ele>
        <time>2022-12-18T11:32:42Z</time>
      </trkpt>
      <trkpt lat="45.44201" lon="6.34767">
        <ele>2401</ele>
        <time>2022-12-18T11:32:49Z</time>
      </trkpt>
      <trkpt lat="45.44205" lon="6.34768">
        <ele>2402</ele>
        <time>2022-12-18T11:32:54Z</time>
      </trkpt>
      <trkpt lat="45.44207" lon="6.34767">
        <ele>2405</ele>
        <time>2022-12-18T11:33:15Z</time>
      </trkpt>
      <trkpt lat="45.44207" lon="6.34764">
        <ele>2405</ele>
        <time>2022-12-18T11:33:24Z</time>
      </trkpt>
      <trkpt lat="45.44206" lon="6.3476">
        <ele>2407</ele>
        <time>2022-12-18T11:33:40Z</time>
      </trkpt>
      <trkpt lat="45.44207" lon="6.34751">
        <ele>2407</ele>
        <time>2022-12-18T11:33:51Z</time>
      </trkpt>
      <trkpt lat="45.44205" lon="6.34748">
        <ele>2408</ele>
        <time>2022-12-18T11:33:57Z</time>
      </trkpt>
      <trkpt lat="45.44205" lon="6.34745">
        <ele>2407</ele>
        <time>2022-12-18T11:34:04Z</time>
      </trkpt>
      <trkpt lat="45.4421" lon="6.34743">
        <ele>2410</ele>
        <time>2022-12-18T11:34:30Z</time>
      </trkpt>
      <trkpt lat="45.44213" lon="6.34746">
        <ele>2411</ele>
        <time>2022-12-18T11:34:36Z</time>
      </trkpt>
      <trkpt lat="45.44216" lon="6.34748">
        <ele>2413</ele>
        <time>2022-12-18T11:34:43Z</time>
      </trkpt>
      <trkpt lat="45.44218" lon="6.34748">
        <ele>2413</ele>
        <time>2022-12-18T11:34:48Z</time>
      </trkpt>
      <trkpt lat="45.44218" lon="6.34751">
        <ele>2413</ele>
        <time>2022-12-18T11:35:07Z</time>
      </trkpt>
      <trkpt lat="45.44216" lon="6.3475">
        <ele>2413</ele>
        <time>2022-12-18T11:35:14Z</time>
      </trkpt>
      <trkpt lat="45.44215" lon="6.34746">
        <ele>2414</ele>
        <time>2022-12-18T11:35:18Z</time>
      </trkpt>
      <trkpt lat="45.44216" lon="6.34742">
        <ele>2416</ele>
        <time>2022-12-18T11:35:23Z</time>
      </trkpt>
      <trkpt lat="45.44215" lon="6.34739">
        <ele>2417</ele>
        <time>2022-12-18T11:35:27Z</time>
      </trkpt>
      <trkpt lat="45.44215" lon="6.34736">
        <ele>2418</ele>
        <time>2022-12-18T11:35:31Z</time>
      </trkpt>
      <trkpt lat="45.44215" lon="6.34732">
        <ele>2420</ele>
        <time>2022-12-18T11:35:37Z</time>
      </trkpt>
      <trkpt lat="45.44215" lon="6.34728">
        <ele>2420</ele>
        <time>2022-12-18T11:35:41Z</time>
      </trkpt>
      <trkpt lat="45.44214" lon="6.34725">
        <ele>2420</ele>
        <time>2022-12-18T11:35:45Z</time>
      </trkpt>
      <trkpt lat="45.44208" lon="6.3472">
        <ele>2419</ele>
        <time>2022-12-18T11:35:53Z</time>
      </trkpt>
      <trkpt lat="45.44206" lon="6.34716">
        <ele>2420</ele>
        <time>2022-12-18T11:36:05Z</time>
      </trkpt>
      <trkpt lat="45.44208" lon="6.34716">
        <ele>2421</ele>
        <time>2022-12-18T11:36:28Z</time>
      </trkpt>
      <trkpt lat="45.44217" lon="6.34714">
        <ele>2429</ele>
        <time>2022-12-18T11:36:45Z</time>
      </trkpt>
      <trkpt lat="45.4422" lon="6.34715">
        <ele>2431</ele>
        <time>2022-12-18T11:36:52Z</time>
      </trkpt>
      <trkpt lat="45.44227" lon="6.34716">
        <ele>2432</ele>
        <time>2022-12-18T11:37:02Z</time>
      </trkpt>
      <trkpt lat="45.44229" lon="6.34719">
        <ele>2433</ele>
        <time>2022-12-18T11:37:10Z</time>
      </trkpt>
      <trkpt lat="45.44231" lon="6.3472">
        <ele>2434</ele>
        <time>2022-12-18T11:37:49Z</time>
      </trkpt>
      <trkpt lat="45.44231" lon="6.34715">
        <ele>2434</ele>
        <time>2022-12-18T11:37:56Z</time>
      </trkpt>
      <trkpt lat="45.44231" lon="6.34711">
        <ele>2437</ele>
        <time>2022-12-18T11:38:01Z</time>
      </trkpt>
      <trkpt lat="45.44232" lon="6.34699">
        <ele>2438</ele>
        <time>2022-12-18T11:38:13Z</time>
      </trkpt>
      <trkpt lat="45.44232" lon="6.34695">
        <ele>2439</ele>
        <time>2022-12-18T11:38:18Z</time>
      </trkpt>
      <trkpt lat="45.44228" lon="6.34695">
        <ele>2438</ele>
        <time>2022-12-18T11:43:41Z</time>
      </trkpt>
      <trkpt lat="45.44229" lon="6.34693">
        <ele>2435</ele>
        <time>2022-12-18T11:43:53Z</time>
      </trkpt>
      <trkpt lat="45.44231" lon="6.34691">
        <ele>2437</ele>
        <time>2022-12-18T11:45:21Z</time>
      </trkpt>
      <trkpt lat="45.44228" lon="6.34692">
        <ele>2438</ele>
        <time>2022-12-18T11:45:39Z</time>
      </trkpt>
      <trkpt lat="45.4423" lon="6.34696">
        <ele>2437</ele>
        <time>2022-12-18T11:45:42Z</time>
      </trkpt>
      <trkpt lat="45.4423" lon="6.34698">
        <ele>2439</ele>
        <time>2022-12-18T11:51:43Z</time>
      </trkpt>
      <trkpt lat="45.44233" lon="6.34696">
        <ele>2438</ele>
        <time>2022-12-18T11:51:52Z</time>
      </trkpt>
      <trkpt lat="45.44232" lon="6.34693">
        <ele>2438</ele>
        <time>2022-12-18T11:52:01Z</time>
      </trkpt>
      <trkpt lat="45.44229" lon="6.34687">
        <ele>2435</ele>
        <time>2022-12-18T11:52:09Z</time>
      </trkpt>
      <trkpt lat="45.4423" lon="6.34684">
        <ele>2434</ele>
        <time>2022-12-18T11:52:13Z</time>
      </trkpt>
      <trkpt lat="45.44231" lon="6.3468">
        <ele>2436</ele>
        <time>2022-12-18T11:52:56Z</time>
      </trkpt>
      <trkpt lat="45.44235" lon="6.34674">
        <ele>2435</ele>
        <time>2022-12-18T11:52:58Z</time>
      </trkpt>
      <trkpt lat="45.44248" lon="6.34673">
        <ele>2434</ele>
        <time>2022-12-18T11:53:01Z</time>
      </trkpt>
      <trkpt lat="45.44299" lon="6.34653">
        <ele>2423</ele>
        <time>2022-12-18T11:53:12Z</time>
      </trkpt>
      <trkpt lat="45.44314" lon="6.34642">
        <ele>2421</ele>
        <time>2022-12-18T11:53:16Z</time>
      </trkpt>
      <trkpt lat="45.44329" lon="6.34636">
        <ele>2417</ele>
        <time>2022-12-18T11:53:20Z</time>
      </trkpt>
      <trkpt lat="45.44409" lon="6.34572">
        <ele>2390</ele>
        <time>2022-12-18T11:53:37Z</time>
      </trkpt>
      <trkpt lat="45.4442" lon="6.34559">
        <ele>2384</ele>
        <time>2022-12-18T11:53:40Z</time>
      </trkpt>
      <trkpt lat="45.44423" lon="6.3456">
        <ele>2382</ele>
        <time>2022-12-18T11:53:42Z</time>
      </trkpt>
      <trkpt lat="45.44422" lon="6.34552">
        <ele>2379</ele>
        <time>2022-12-18T11:53:45Z</time>
      </trkpt>
      <trkpt lat="45.44418" lon="6.34547">
        <ele>2373</ele>
        <time>2022-12-18T11:53:49Z</time>
      </trkpt>
      <trkpt lat="45.44418" lon="6.34549">
        <ele>2367</ele>
        <time>2022-12-18T11:56:20Z</time>
      </trkpt>
      <trkpt lat="45.44415" lon="6.34548">
        <ele>2359</ele>
        <time>2022-12-18T11:56:58Z</time>
      </trkpt>
      <trkpt lat="45.44408" lon="6.34555">
        <ele>2349</ele>
        <time>2022-12-18T11:57:09Z</time>
      </trkpt>
      <trkpt lat="45.44405" lon="6.34556">
        <ele>2348</ele>
        <time>2022-12-18T11:57:12Z</time>
      </trkpt>
      <trkpt lat="45.44405" lon="6.34562">
        <ele>2348</ele>
        <time>2022-12-18T11:57:23Z</time>
      </trkpt>
      <trkpt lat="45.44407" lon="6.34565">
        <ele>2347</ele>
        <time>2022-12-18T11:57:26Z</time>
      </trkpt>
      <trkpt lat="45.44403" lon="6.34567">
        <ele>2348</ele>
        <time>2022-12-18T11:57:49Z</time>
      </trkpt>
      <trkpt lat="45.444" lon="6.34569">
        <ele>2347</ele>
        <time>2022-12-18T11:57:53Z</time>
      </trkpt>
      <trkpt lat="45.44397" lon="6.34569">
        <ele>2348</ele>
        <time>2022-12-18T11:57:58Z</time>
      </trkpt>
      <trkpt lat="45.44394" lon="6.34571">
        <ele>2348</ele>
        <time>2022-12-18T11:58:02Z</time>
      </trkpt>
      <trkpt lat="45.44395" lon="6.34577">
        <ele>2348</ele>
        <time>2022-12-18T11:58:06Z</time>
      </trkpt>
      <trkpt lat="45.44391" lon="6.34578">
        <ele>2347</ele>
        <time>2022-12-18T11:58:15Z</time>
      </trkpt>
      <trkpt lat="45.44385" lon="6.34577">
        <ele>2349</ele>
        <time>2022-12-18T11:58:24Z</time>
      </trkpt>
      <trkpt lat="45.44381" lon="6.34576">
        <ele>2351</ele>
        <time>2022-12-18T11:58:29Z</time>
      </trkpt>
      <trkpt lat="45.44381" lon="6.34579">
        <ele>2351</ele>
        <time>2022-12-18T11:58:34Z</time>
      </trkpt>
      <trkpt lat="45.44384" lon="6.34599">
        <ele>2350</ele>
        <time>2022-12-18T11:58:51Z</time>
      </trkpt>
      <trkpt lat="45.44372" lon="6.34594">
        <ele>2356</ele>
        <time>2022-12-18T11:59:12Z</time>
      </trkpt>
      <trkpt lat="45.44369" lon="6.34592">
        <ele>2357</ele>
        <time>2022-12-18T11:59:19Z</time>
      </trkpt>
      <trkpt lat="45.44368" lon="6.34589">
        <ele>2358</ele>
        <time>2022-12-18T11:59:27Z</time>
      </trkpt>
      <trkpt lat="45.44367" lon="6.34594">
        <ele>2360</ele>
        <time>2022-12-18T11:59:40Z</time>
      </trkpt>
      <trkpt lat="45.44366" lon="6.34598">
        <ele>2360</ele>
        <time>2022-12-18T11:59:44Z</time>
      </trkpt>
      <trkpt lat="45.44366" lon="6.3462">
        <ele>2360</ele>
        <time>2022-12-18T12:00:08Z</time>
      </trkpt>
      <trkpt lat="45.44366" lon="6.34626">
        <ele>2361</ele>
        <time>2022-12-18T12:00:13Z</time>
      </trkpt>
      <trkpt lat="45.44363" lon="6.34627">
        <ele>2362</ele>
        <time>2022-12-18T12:00:20Z</time>
      </trkpt>
      <trkpt lat="45.4436" lon="6.34625">
        <ele>2363</ele>
        <time>2022-12-18T12:00:24Z</time>
      </trkpt>
      <trkpt lat="45.44357" lon="6.34622">
        <ele>2366</ele>
        <time>2022-12-18T12:00:29Z</time>
      </trkpt>
      <trkpt lat="45.44353" lon="6.34619">
        <ele>2368</ele>
        <time>2022-12-18T12:00:33Z</time>
      </trkpt>
      <trkpt lat="45.44351" lon="6.3462">
        <ele>2369</ele>
        <time>2022-12-18T12:00:37Z</time>
      </trkpt>
      <trkpt lat="45.44348" lon="6.34621">
        <ele>2371</ele>
        <time>2022-12-18T12:00:43Z</time>
      </trkpt>
      <trkpt lat="45.44348" lon="6.34625">
        <ele>2372</ele>
        <time>2022-12-18T12:00:54Z</time>
      </trkpt>
      <trkpt lat="45.44352" lon="6.34642">
        <ele>2371</ele>
        <time>2022-12-18T12:01:11Z</time>
      </trkpt>
      <trkpt lat="45.44356" lon="6.34651">
        <ele>2369</ele>
        <time>2022-12-18T12:01:22Z</time>
      </trkpt>
      <trkpt lat="45.44358" lon="6.34655">
        <ele>2370</ele>
        <time>2022-12-18T12:01:28Z</time>
      </trkpt>
      <trkpt lat="45.44352" lon="6.34653">
        <ele>2373</ele>
        <time>2022-12-18T12:01:41Z</time>
      </trkpt>
      <trkpt lat="45.44349" lon="6.34653">
        <ele>2378</ele>
        <time>2022-12-18T12:01:44Z</time>
      </trkpt>
      <trkpt lat="45.44341" lon="6.34651">
        <ele>2381</ele>
        <time>2022-12-18T12:01:55Z</time>
      </trkpt>
      <trkpt lat="45.44338" lon="6.34649">
        <ele>2381</ele>
        <time>2022-12-18T12:01:59Z</time>
      </trkpt>
      <trkpt lat="45.44319" lon="6.34648">
        <ele>2387</ele>
        <time>2022-12-18T12:02:29Z</time>
      </trkpt>
      <trkpt lat="45.44317" lon="6.3465">
        <ele>2389</ele>
        <time>2022-12-18T12:02:34Z</time>
      </trkpt>
      <trkpt lat="45.44315" lon="6.34655">
        <ele>2389</ele>
        <time>2022-12-18T12:02:42Z</time>
      </trkpt>
      <trkpt lat="45.44316" lon="6.3466">
        <ele>2389</ele>
        <time>2022-12-18T12:02:46Z</time>
      </trkpt>
      <trkpt lat="45.44316" lon="6.34664">
        <ele>2390</ele>
        <time>2022-12-18T12:02:51Z</time>
      </trkpt>
      <trkpt lat="45.44313" lon="6.34664">
        <ele>2390</ele>
        <time>2022-12-18T12:02:58Z</time>
      </trkpt>
      <trkpt lat="45.44311" lon="6.34664">
        <ele>2392</ele>
        <time>2022-12-18T12:03:02Z</time>
      </trkpt>
      <trkpt lat="45.44299" lon="6.3465">
        <ele>2399</ele>
        <time>2022-12-18T12:03:35Z</time>
      </trkpt>
      <trkpt lat="45.44296" lon="6.34648">
        <ele>2400</ele>
        <time>2022-12-18T12:03:39Z</time>
      </trkpt>
      <trkpt lat="45.44295" lon="6.34645">
        <ele>2401</ele>
        <time>2022-12-18T12:03:50Z</time>
      </trkpt>
      <trkpt lat="45.44295" lon="6.3465">
        <ele>2403</ele>
        <time>2022-12-18T12:04:09Z</time>
      </trkpt>
      <trkpt lat="45.44296" lon="6.34659">
        <ele>2404</ele>
        <time>2022-12-18T12:04:20Z</time>
      </trkpt>
      <trkpt lat="45.44294" lon="6.34662">
        <ele>2402</ele>
        <time>2022-12-18T12:04:27Z</time>
      </trkpt>
      <trkpt lat="45.44291" lon="6.34664">
        <ele>2400</ele>
        <time>2022-12-18T12:04:31Z</time>
      </trkpt>
      <trkpt lat="45.44291" lon="6.34668">
        <ele>2401</ele>
        <time>2022-12-18T12:04:35Z</time>
      </trkpt>
      <trkpt lat="45.44288" lon="6.34669">
        <ele>2402</ele>
        <time>2022-12-18T12:04:39Z</time>
      </trkpt>
      <trkpt lat="45.44281" lon="6.34667">
        <ele>2405</ele>
        <time>2022-12-18T12:04:49Z</time>
      </trkpt>
      <trkpt lat="45.44279" lon="6.34666">
        <ele>2407</ele>
        <time>2022-12-18T12:04:53Z</time>
      </trkpt>
      <trkpt lat="45.44276" lon="6.34666">
        <ele>2409</ele>
        <time>2022-12-18T12:04:57Z</time>
      </trkpt>
      <trkpt lat="45.44274" lon="6.34666">
        <ele>2410</ele>
        <time>2022-12-18T12:05:00Z</time>
      </trkpt>
      <trkpt lat="45.44271" lon="6.34666">
        <ele>2412</ele>
        <time>2022-12-18T12:05:05Z</time>
      </trkpt>
      <trkpt lat="45.44269" lon="6.34668">
        <ele>2412</ele>
        <time>2022-12-18T12:05:08Z</time>
      </trkpt>
      <trkpt lat="45.44266" lon="6.34666">
        <ele>2412</ele>
        <time>2022-12-18T12:05:12Z</time>
      </trkpt>
      <trkpt lat="45.44264" lon="6.34666">
        <ele>2413</ele>
        <time>2022-12-18T12:05:16Z</time>
      </trkpt>
      <trkpt lat="45.44256" lon="6.34673">
        <ele>2416</ele>
        <time>2022-12-18T12:05:37Z</time>
      </trkpt>
      <trkpt lat="45.44255" lon="6.34676">
        <ele>2418</ele>
        <time>2022-12-18T12:05:41Z</time>
      </trkpt>
      <trkpt lat="45.44252" lon="6.34682">
        <ele>2421</ele>
        <time>2022-12-18T12:05:58Z</time>
      </trkpt>
      <trkpt lat="45.44247" lon="6.34683">
        <ele>2422</ele>
        <time>2022-12-18T12:06:07Z</time>
      </trkpt>
      <trkpt lat="45.44245" lon="6.34681">
        <ele>2423</ele>
        <time>2022-12-18T12:06:10Z</time>
      </trkpt>
      <trkpt lat="45.44242" lon="6.3468">
        <ele>2425</ele>
        <time>2022-12-18T12:06:15Z</time>
      </trkpt>
      <trkpt lat="45.4424" lon="6.34679">
        <ele>2425</ele>
        <time>2022-12-18T12:06:18Z</time>
      </trkpt>
      <trkpt lat="45.44239" lon="6.34676">
        <ele>2428</ele>
        <time>2022-12-18T12:06:22Z</time>
      </trkpt>
      <trkpt lat="45.44237" lon="6.34673">
        <ele>2428</ele>
        <time>2022-12-18T12:06:27Z</time>
      </trkpt>
      <trkpt lat="45.44236" lon="6.3467">
        <ele>2429</ele>
        <time>2022-12-18T12:06:32Z</time>
      </trkpt>
      <trkpt lat="45.44236" lon="6.34667">
        <ele>2430</ele>
        <time>2022-12-18T12:06:36Z</time>
      </trkpt>
      <trkpt lat="45.44234" lon="6.34666">
        <ele>2432</ele>
        <time>2022-12-18T12:06:53Z</time>
      </trkpt>
      <trkpt lat="45.44234" lon="6.34671">
        <ele>2433</ele>
        <time>2022-12-18T12:06:57Z</time>
      </trkpt>
      <trkpt lat="45.44233" lon="6.34674">
        <ele>2434</ele>
        <time>2022-12-18T12:07:00Z</time>
      </trkpt>
      <trkpt lat="45.44233" lon="6.34678">
        <ele>2434</ele>
        <time>2022-12-18T12:07:03Z</time>
      </trkpt>
      <trkpt lat="45.44234" lon="6.34686">
        <ele>2435</ele>
        <time>2022-12-18T12:07:07Z</time>
      </trkpt>
      <trkpt lat="45.44233" lon="6.34687">
        <ele>2435</ele>
        <time>2022-12-18T12:12:14Z</time>
      </trkpt>
      <trkpt lat="45.44232" lon="6.34684">
        <ele>2435</ele>
        <time>2022-12-18T12:12:17Z</time>
      </trkpt>
      <trkpt lat="45.44232" lon="6.3468">
        <ele>2437</ele>
        <time>2022-12-18T12:12:24Z</time>
      </trkpt>
      <trkpt lat="45.44241" lon="6.3467">
        <ele>2436</ele>
        <time>2022-12-18T12:12:27Z</time>
      </trkpt>
      <trkpt lat="45.44249" lon="6.34669">
        <ele>2434</ele>
        <time>2022-12-18T12:12:29Z</time>
      </trkpt>
      <trkpt lat="45.44269" lon="6.34666">
        <ele>2431</ele>
        <time>2022-12-18T12:12:33Z</time>
      </trkpt>
      <trkpt lat="45.44278" lon="6.34662">
        <ele>2430</ele>
        <time>2022-12-18T12:12:35Z</time>
      </trkpt>
      <trkpt lat="45.44335" lon="6.34626">
        <ele>2420</ele>
        <time>2022-12-18T12:12:47Z</time>
      </trkpt>
      <trkpt lat="45.44331" lon="6.34629">
        <ele>2418</ele>
        <time>2022-12-18T12:12:53Z</time>
      </trkpt>
      <trkpt lat="45.44339" lon="6.34623">
        <ele>2412</ele>
        <time>2022-12-18T12:14:43Z</time>
      </trkpt>
      <trkpt lat="45.4436" lon="6.34583">
        <ele>2399</ele>
        <time>2022-12-18T12:14:51Z</time>
      </trkpt>
      <trkpt lat="45.44416" lon="6.34559">
        <ele>2380</ele>
        <time>2022-12-18T12:15:03Z</time>
      </trkpt>
      <trkpt lat="45.44428" lon="6.34557">
        <ele>2379</ele>
        <time>2022-12-18T12:15:05Z</time>
      </trkpt>
      <trkpt lat="45.44434" lon="6.34562">
        <ele>2377</ele>
        <time>2022-12-18T12:15:07Z</time>
      </trkpt>
      <trkpt lat="45.44433" lon="6.34568">
        <ele>2375</ele>
        <time>2022-12-18T12:15:09Z</time>
      </trkpt>
      <trkpt lat="45.44431" lon="6.34569">
        <ele>2368</ele>
        <time>2022-12-18T12:15:44Z</time>
      </trkpt>
      <trkpt lat="45.4443" lon="6.3457">
        <ele>2352</ele>
        <time>2022-12-18T12:18:30Z</time>
      </trkpt>
      <trkpt lat="45.44428" lon="6.34566">
        <ele>2347</ele>
        <time>2022-12-18T12:18:50Z</time>
      </trkpt>
      <trkpt lat="45.44426" lon="6.34565">
        <ele>2345</ele>
        <time>2022-12-18T12:18:53Z</time>
      </trkpt>
      <trkpt lat="45.44424" lon="6.34564">
        <ele>2344</ele>
        <time>2022-12-18T12:19:30Z</time>
      </trkpt>
      <trkpt lat="45.44419" lon="6.34565">
        <ele>2344</ele>
        <time>2022-12-18T12:20:02Z</time>
      </trkpt>
      <trkpt lat="45.44416" lon="6.34565">
        <ele>2344</ele>
        <time>2022-12-18T12:20:06Z</time>
      </trkpt>
      <trkpt lat="45.44414" lon="6.34568">
        <ele>2343</ele>
        <time>2022-12-18T12:20:10Z</time>
      </trkpt>
      <trkpt lat="45.44412" lon="6.34571">
        <ele>2342</ele>
        <time>2022-12-18T12:20:13Z</time>
      </trkpt>
      <trkpt lat="45.4441" lon="6.34574">
        <ele>2343</ele>
        <time>2022-12-18T12:20:18Z</time>
      </trkpt>
      <trkpt lat="45.44406" lon="6.34574">
        <ele>2344</ele>
        <time>2022-12-18T12:20:23Z</time>
      </trkpt>
      <trkpt lat="45.44403" lon="6.34573">
        <ele>2346</ele>
        <time>2022-12-18T12:20:29Z</time>
      </trkpt>
      <trkpt lat="45.444" lon="6.34577">
        <ele>2349</ele>
        <time>2022-12-18T12:20:36Z</time>
      </trkpt>
      <trkpt lat="45.44397" lon="6.3458">
        <ele>2350</ele>
        <time>2022-12-18T12:20:44Z</time>
      </trkpt>
      <trkpt lat="45.44397" lon="6.34588">
        <ele>2351</ele>
        <time>2022-12-18T12:20:52Z</time>
      </trkpt>
      <trkpt lat="45.44397" lon="6.34593">
        <ele>2351</ele>
        <time>2022-12-18T12:20:56Z</time>
      </trkpt>
      <trkpt lat="45.44394" lon="6.34592">
        <ele>2354</ele>
        <time>2022-12-18T12:21:08Z</time>
      </trkpt>
      <trkpt lat="45.44389" lon="6.34588">
        <ele>2356</ele>
        <time>2022-12-18T12:21:15Z</time>
      </trkpt>
      <trkpt lat="45.44383" lon="6.34588">
        <ele>2356</ele>
        <time>2022-12-18T12:21:24Z</time>
      </trkpt>
      <trkpt lat="45.44384" lon="6.34592">
        <ele>2355</ele>
        <time>2022-12-18T12:21:29Z</time>
      </trkpt>
      <trkpt lat="45.44385" lon="6.34596">
        <ele>2356</ele>
        <time>2022-12-18T12:21:34Z</time>
      </trkpt>
      <trkpt lat="45.44384" lon="6.34603">
        <ele>2357</ele>
        <time>2022-12-18T12:21:42Z</time>
      </trkpt>
      <trkpt lat="45.44383" lon="6.34601">
        <ele>2359</ele>
        <time>2022-12-18T12:21:48Z</time>
      </trkpt>
      <trkpt lat="45.44381" lon="6.34599">
        <ele>2359</ele>
        <time>2022-12-18T12:21:53Z</time>
      </trkpt>
      <trkpt lat="45.44376" lon="6.34595">
        <ele>2358</ele>
        <time>2022-12-18T12:22:00Z</time>
      </trkpt>
      <trkpt lat="45.44374" lon="6.34595">
        <ele>2359</ele>
        <time>2022-12-18T12:22:03Z</time>
      </trkpt>
      <trkpt lat="45.44372" lon="6.34593">
        <ele>2359</ele>
        <time>2022-12-18T12:22:08Z</time>
      </trkpt>
      <trkpt lat="45.4437" lon="6.3459">
        <ele>2359</ele>
        <time>2022-12-18T12:22:14Z</time>
      </trkpt>
      <trkpt lat="45.44368" lon="6.34594">
        <ele>2360</ele>
        <time>2022-12-18T12:22:23Z</time>
      </trkpt>
      <trkpt lat="45.44368" lon="6.346">
        <ele>2362</ele>
        <time>2022-12-18T12:22:31Z</time>
      </trkpt>
      <trkpt lat="45.44367" lon="6.34606">
        <ele>2364</ele>
        <time>2022-12-18T12:22:38Z</time>
      </trkpt>
      <trkpt lat="45.44367" lon="6.3461">
        <ele>2365</ele>
        <time>2022-12-18T12:22:42Z</time>
      </trkpt>
      <trkpt lat="45.44367" lon="6.34616">
        <ele>2365</ele>
        <time>2022-12-18T12:22:47Z</time>
      </trkpt>
      <trkpt lat="45.44367" lon="6.3462">
        <ele>2365</ele>
        <time>2022-12-18T12:22:51Z</time>
      </trkpt>
      <trkpt lat="45.44368" lon="6.34624">
        <ele>2366</ele>
        <time>2022-12-18T12:22:58Z</time>
      </trkpt>
      <trkpt lat="45.44362" lon="6.34623">
        <ele>2368</ele>
        <time>2022-12-18T12:23:31Z</time>
      </trkpt>
      <trkpt lat="45.44359" lon="6.34621">
        <ele>2368</ele>
        <time>2022-12-18T12:23:33Z</time>
      </trkpt>
      <trkpt lat="45.44356" lon="6.34624">
        <ele>2368</ele>
        <time>2022-12-18T12:23:37Z</time>
      </trkpt>
      <trkpt lat="45.4435" lon="6.34623">
        <ele>2370</ele>
        <time>2022-12-18T12:23:48Z</time>
      </trkpt>
      <trkpt lat="45.44353" lon="6.34627">
        <ele>2371</ele>
        <time>2022-12-18T12:23:56Z</time>
      </trkpt>
      <trkpt lat="45.44355" lon="6.34635">
        <ele>2375</ele>
        <time>2022-12-18T12:24:13Z</time>
      </trkpt>
      <trkpt lat="45.44356" lon="6.3464">
        <ele>2374</ele>
        <time>2022-12-18T12:24:19Z</time>
      </trkpt>
      <trkpt lat="45.44359" lon="6.34651">
        <ele>2375</ele>
        <time>2022-12-18T12:24:33Z</time>
      </trkpt>
      <trkpt lat="45.44357" lon="6.34652">
        <ele>2377</ele>
        <time>2022-12-18T12:24:45Z</time>
      </trkpt>
      <trkpt lat="45.44354" lon="6.34651">
        <ele>2379</ele>
        <time>2022-12-18T12:24:50Z</time>
      </trkpt>
      <trkpt lat="45.44349" lon="6.34651">
        <ele>2381</ele>
        <time>2022-12-18T12:24:56Z</time>
      </trkpt>
      <trkpt lat="45.44347" lon="6.3465">
        <ele>2381</ele>
        <time>2022-12-18T12:25:00Z</time>
      </trkpt>
      <trkpt lat="45.44345" lon="6.3465">
        <ele>2381</ele>
        <time>2022-12-18T12:25:04Z</time>
      </trkpt>
      <trkpt lat="45.44342" lon="6.34649">
        <ele>2381</ele>
        <time>2022-12-18T12:25:07Z</time>
      </trkpt>
      <trkpt lat="45.44337" lon="6.34649">
        <ele>2383</ele>
        <time>2022-12-18T12:25:16Z</time>
      </trkpt>
      <trkpt lat="45.44334" lon="6.34647">
        <ele>2385</ele>
        <time>2022-12-18T12:25:19Z</time>
      </trkpt>
      <trkpt lat="45.44332" lon="6.34649">
        <ele>2385</ele>
        <time>2022-12-18T12:25:23Z</time>
      </trkpt>
      <trkpt lat="45.44329" lon="6.34649">
        <ele>2387</ele>
        <time>2022-12-18T12:25:28Z</time>
      </trkpt>
      <trkpt lat="45.44326" lon="6.34648">
        <ele>2387</ele>
        <time>2022-12-18T12:25:41Z</time>
      </trkpt>
      <trkpt lat="45.44321" lon="6.34652">
        <ele>2390</ele>
        <time>2022-12-18T12:25:52Z</time>
      </trkpt>
      <trkpt lat="45.44317" lon="6.34658">
        <ele>2392</ele>
        <time>2022-12-18T12:26:02Z</time>
      </trkpt>
      <trkpt lat="45.44316" lon="6.34662">
        <ele>2392</ele>
        <time>2022-12-18T12:26:07Z</time>
      </trkpt>
      <trkpt lat="45.44313" lon="6.34662">
        <ele>2393</ele>
        <time>2022-12-18T12:26:18Z</time>
      </trkpt>
      <trkpt lat="45.4431" lon="6.34659">
        <ele>2397</ele>
        <time>2022-12-18T12:26:23Z</time>
      </trkpt>
      <trkpt lat="45.44307" lon="6.34658">
        <ele>2398</ele>
        <time>2022-12-18T12:26:29Z</time>
      </trkpt>
      <trkpt lat="45.44302" lon="6.34653">
        <ele>2399</ele>
        <time>2022-12-18T12:26:47Z</time>
      </trkpt>
      <trkpt lat="45.443" lon="6.34651">
        <ele>2401</ele>
        <time>2022-12-18T12:26:51Z</time>
      </trkpt>
      <trkpt lat="45.44297" lon="6.34649">
        <ele>2402</ele>
        <time>2022-12-18T12:26:56Z</time>
      </trkpt>
      <trkpt lat="45.44297" lon="6.34651">
        <ele>2406</ele>
        <time>2022-12-18T12:27:39Z</time>
      </trkpt>
      <trkpt lat="45.44293" lon="6.34664">
        <ele>2407</ele>
        <time>2022-12-18T12:27:56Z</time>
      </trkpt>
      <trkpt lat="45.44291" lon="6.34666">
        <ele>2406</ele>
        <time>2022-12-18T12:28:02Z</time>
      </trkpt>
      <trkpt lat="45.44288" lon="6.34668">
        <ele>2407</ele>
        <time>2022-12-18T12:28:07Z</time>
      </trkpt>
      <trkpt lat="45.44283" lon="6.34668">
        <ele>2409</ele>
        <time>2022-12-18T12:28:16Z</time>
      </trkpt>
      <trkpt lat="45.44281" lon="6.34667">
        <ele>2411</ele>
        <time>2022-12-18T12:28:19Z</time>
      </trkpt>
      <trkpt lat="45.44278" lon="6.34666">
        <ele>2412</ele>
        <time>2022-12-18T12:28:23Z</time>
      </trkpt>
      <trkpt lat="45.44276" lon="6.34665">
        <ele>2413</ele>
        <time>2022-12-18T12:28:26Z</time>
      </trkpt>
      <trkpt lat="45.44274" lon="6.34666">
        <ele>2413</ele>
        <time>2022-12-18T12:28:30Z</time>
      </trkpt>
      <trkpt lat="45.44269" lon="6.34663">
        <ele>2415</ele>
        <time>2022-12-18T12:28:54Z</time>
      </trkpt>
      <trkpt lat="45.44266" lon="6.34663">
        <ele>2415</ele>
        <time>2022-12-18T12:28:58Z</time>
      </trkpt>
      <trkpt lat="45.44264" lon="6.34665">
        <ele>2417</ele>
        <time>2022-12-18T12:29:04Z</time>
      </trkpt>
      <trkpt lat="45.4426" lon="6.3467">
        <ele>2418</ele>
        <time>2022-12-18T12:29:13Z</time>
      </trkpt>
      <trkpt lat="45.44255" lon="6.34672">
        <ele>2419</ele>
        <time>2022-12-18T12:29:22Z</time>
      </trkpt>
      <trkpt lat="45.44253" lon="6.34674">
        <ele>2421</ele>
        <time>2022-12-18T12:29:28Z</time>
      </trkpt>
      <trkpt lat="45.44251" lon="6.34679">
        <ele>2421</ele>
        <time>2022-12-18T12:29:33Z</time>
      </trkpt>
      <trkpt lat="45.44249" lon="6.3468">
        <ele>2422</ele>
        <time>2022-12-18T12:29:38Z</time>
      </trkpt>
      <trkpt lat="45.44247" lon="6.3468">
        <ele>2423</ele>
        <time>2022-12-18T12:29:42Z</time>
      </trkpt>
      <trkpt lat="45.44244" lon="6.34681">
        <ele>2425</ele>
        <time>2022-12-18T12:29:48Z</time>
      </trkpt>
      <trkpt lat="45.44238" lon="6.34679">
        <ele>2428</ele>
        <time>2022-12-18T12:30:00Z</time>
      </trkpt>
      <trkpt lat="45.44237" lon="6.34676">
        <ele>2428</ele>
        <time>2022-12-18T12:30:04Z</time>
      </trkpt>
      <trkpt lat="45.44235" lon="6.34674">
        <ele>2429</ele>
        <time>2022-12-18T12:30:10Z</time>
      </trkpt>
      <trkpt lat="45.44234" lon="6.34671">
        <ele>2430</ele>
        <time>2022-12-18T12:30:21Z</time>
      </trkpt>
      <trkpt lat="45.44234" lon="6.34668">
        <ele>2431</ele>
        <time>2022-12-18T12:30:26Z</time>
      </trkpt>
      <trkpt lat="45.44234" lon="6.34664">
        <ele>2430</ele>
        <time>2022-12-18T12:30:30Z</time>
      </trkpt>
      <trkpt lat="45.44232" lon="6.34666">
        <ele>2434</ele>
        <time>2022-12-18T12:31:20Z</time>
      </trkpt>
      <trkpt lat="45.44229" lon="6.34676">
        <ele>2435</ele>
        <time>2022-12-18T12:31:28Z</time>
      </trkpt>
      <trkpt lat="45.4423" lon="6.34682">
        <ele>2436</ele>
        <time>2022-12-18T12:31:30Z</time>
      </trkpt>
      <trkpt lat="45.4423" lon="6.34686">
        <ele>2436</ele>
        <time>2022-12-18T12:31:32Z</time>
      </trkpt>
      <trkpt lat="45.44233" lon="6.3469">
        <ele>2437</ele>
        <time>2022-12-18T12:31:35Z</time>
      </trkpt>
      <trkpt lat="45.44235" lon="6.34694">
        <ele>2437</ele>
        <time>2022-12-18T12:31:39Z</time>
      </trkpt>
      <trkpt lat="45.44235" lon="6.34694">
        <ele>2438</ele>
        <time>2022-12-18T12:35:35Z</time>
      </trkpt>
      <trkpt lat="45.44235" lon="6.34697">
        <ele>2438</ele>
        <time>2022-12-18T12:38:33Z</time>
      </trkpt>
      <trkpt lat="45.44233" lon="6.34698">
        <ele>2438</ele>
        <time>2022-12-18T12:41:36Z</time>
      </trkpt>
      <trkpt lat="45.4423" lon="6.34697">
        <ele>2439</ele>
        <time>2022-12-18T12:42:12Z</time>
      </trkpt>
      <trkpt lat="45.44227" lon="6.34696">
        <ele>2438</ele>
        <time>2022-12-18T12:42:14Z</time>
      </trkpt>
      <trkpt lat="45.44225" lon="6.34696">
        <ele>2437</ele>
        <time>2022-12-18T12:42:22Z</time>
      </trkpt>
      <trkpt lat="45.44205" lon="6.34707">
        <ele>2434</ele>
        <time>2022-12-18T12:42:29Z</time>
      </trkpt>
      <trkpt lat="45.44204" lon="6.34714">
        <ele>2434</ele>
        <time>2022-12-18T12:42:31Z</time>
      </trkpt>
      <trkpt lat="45.44202" lon="6.34722">
        <ele>2433</ele>
        <time>2022-12-18T12:42:34Z</time>
      </trkpt>
      <trkpt lat="45.44203" lon="6.34733">
        <ele>2432</ele>
        <time>2022-12-18T12:42:36Z</time>
      </trkpt>
      <trkpt lat="45.44199" lon="6.34737">
        <ele>2431</ele>
        <time>2022-12-18T12:42:40Z</time>
      </trkpt>
      <trkpt lat="45.44197" lon="6.34743">
        <ele>2429</ele>
        <time>2022-12-18T12:42:43Z</time>
      </trkpt>
      <trkpt lat="45.44199" lon="6.34749">
        <ele>2428</ele>
        <time>2022-12-18T12:42:45Z</time>
      </trkpt>
      <trkpt lat="45.44195" lon="6.34749">
        <ele>2425</ele>
        <time>2022-12-18T12:42:49Z</time>
      </trkpt>
      <trkpt lat="45.44192" lon="6.34752">
        <ele>2423</ele>
        <time>2022-12-18T12:42:54Z</time>
      </trkpt>
      <trkpt lat="45.44182" lon="6.34759">
        <ele>2419</ele>
        <time>2022-12-18T12:42:58Z</time>
      </trkpt>
      <trkpt lat="45.44179" lon="6.34767">
        <ele>2418</ele>
        <time>2022-12-18T12:43:00Z</time>
      </trkpt>
      <trkpt lat="45.44181" lon="6.34773">
        <ele>2417</ele>
        <time>2022-12-18T12:43:02Z</time>
      </trkpt>
      <trkpt lat="45.44166" lon="6.34774">
        <ele>2414</ele>
        <time>2022-12-18T12:43:09Z</time>
      </trkpt>
      <trkpt lat="45.44162" lon="6.34774">
        <ele>2413</ele>
        <time>2022-12-18T12:43:14Z</time>
      </trkpt>
      <trkpt lat="45.4416" lon="6.34779">
        <ele>2413</ele>
        <time>2022-12-18T12:43:16Z</time>
      </trkpt>
      <trkpt lat="45.44161" lon="6.34786">
        <ele>2411</ele>
        <time>2022-12-18T12:43:18Z</time>
      </trkpt>
      <trkpt lat="45.44157" lon="6.34787">
        <ele>2408</ele>
        <time>2022-12-18T12:43:26Z</time>
      </trkpt>
      <trkpt lat="45.44152" lon="6.34787">
        <ele>2406</ele>
        <time>2022-12-18T12:43:28Z</time>
      </trkpt>
      <trkpt lat="45.44148" lon="6.34795">
        <ele>2405</ele>
        <time>2022-12-18T12:43:32Z</time>
      </trkpt>
      <trkpt lat="45.44147" lon="6.34802">
        <ele>2402</ele>
        <time>2022-12-18T12:43:34Z</time>
      </trkpt>
      <trkpt lat="45.44143" lon="6.34806">
        <ele>2402</ele>
        <time>2022-12-18T12:43:35Z</time>
      </trkpt>
      <trkpt lat="45.44132" lon="6.34811">
        <ele>2400</ele>
        <time>2022-12-18T12:43:37Z</time>
      </trkpt>
      <trkpt lat="45.44128" lon="6.34816">
        <ele>2397</ele>
        <time>2022-12-18T12:43:39Z</time>
      </trkpt>
      <trkpt lat="45.44125" lon="6.34818">
        <ele>2396</ele>
        <time>2022-12-18T12:43:46Z</time>
      </trkpt>
      <trkpt lat="45.44106" lon="6.34834">
        <ele>2390</ele>
        <time>2022-12-18T12:43:55Z</time>
      </trkpt>
      <trkpt lat="45.44102" lon="6.34839">
        <ele>2389</ele>
        <time>2022-12-18T12:43:57Z</time>
      </trkpt>
      <trkpt lat="45.44104" lon="6.34848">
        <ele>2387</ele>
        <time>2022-12-18T12:43:59Z</time>
      </trkpt>
      <trkpt lat="45.44106" lon="6.34859">
        <ele>2385</ele>
        <time>2022-12-18T12:44:01Z</time>
      </trkpt>
      <trkpt lat="45.44108" lon="6.34866">
        <ele>2383</ele>
        <time>2022-12-18T12:44:03Z</time>
      </trkpt>
      <trkpt lat="45.44103" lon="6.34872">
        <ele>2381</ele>
        <time>2022-12-18T12:44:05Z</time>
      </trkpt>
      <trkpt lat="45.44101" lon="6.34878">
        <ele>2380</ele>
        <time>2022-12-18T12:44:06Z</time>
      </trkpt>
      <trkpt lat="45.44102" lon="6.34885">
        <ele>2378</ele>
        <time>2022-12-18T12:44:07Z</time>
      </trkpt>
      <trkpt lat="45.44106" lon="6.34886">
        <ele>2376</ele>
        <time>2022-12-18T12:44:08Z</time>
      </trkpt>
      <trkpt lat="45.44113" lon="6.34887">
        <ele>2374</ele>
        <time>2022-12-18T12:44:10Z</time>
      </trkpt>
      <trkpt lat="45.44117" lon="6.34888">
        <ele>2371</ele>
        <time>2022-12-18T12:44:12Z</time>
      </trkpt>
      <trkpt lat="45.44118" lon="6.34896">
        <ele>2370</ele>
        <time>2022-12-18T12:44:14Z</time>
      </trkpt>
      <trkpt lat="45.44124" lon="6.3492">
        <ele>2361</ele>
        <time>2022-12-18T12:44:20Z</time>
      </trkpt>
      <trkpt lat="45.44131" lon="6.34937">
        <ele>2355</ele>
        <time>2022-12-18T12:44:23Z</time>
      </trkpt>
      <trkpt lat="45.44134" lon="6.34935">
        <ele>2345</ele>
        <time>2022-12-18T12:44:44Z</time>
      </trkpt>
      <trkpt lat="45.44132" lon="6.34935">
        <ele>2336</ele>
        <time>2022-12-18T12:52:31Z</time>
      </trkpt>
      <trkpt lat="45.44129" lon="6.34939">
        <ele>2331</ele>
        <time>2022-12-18T12:52:32Z</time>
      </trkpt>
      <trkpt lat="45.44117" lon="6.3499">
        <ele>2313</ele>
        <time>2022-12-18T12:52:40Z</time>
      </trkpt>
      <trkpt lat="45.44115" lon="6.34996">
        <ele>2311</ele>
        <time>2022-12-18T12:52:41Z</time>
      </trkpt>
      <trkpt lat="45.44112" lon="6.35009">
        <ele>2307</ele>
        <time>2022-12-18T12:52:43Z</time>
      </trkpt>
      <trkpt lat="45.44111" lon="6.35029">
        <ele>2304</ele>
        <time>2022-12-18T12:52:47Z</time>
      </trkpt>
      <trkpt lat="45.44113" lon="6.35037">
        <ele>2302</ele>
        <time>2022-12-18T12:52:49Z</time>
      </trkpt>
      <trkpt lat="45.4411" lon="6.35052">
        <ele>2299</ele>
        <time>2022-12-18T12:52:53Z</time>
      </trkpt>
      <trkpt lat="45.44108" lon="6.35058">
        <ele>2299</ele>
        <time>2022-12-18T12:52:54Z</time>
      </trkpt>
      <trkpt lat="45.44102" lon="6.35058">
        <ele>2297</ele>
        <time>2022-12-18T12:52:56Z</time>
      </trkpt>
      <trkpt lat="45.44098" lon="6.35061">
        <ele>2296</ele>
        <time>2022-12-18T12:52:57Z</time>
      </trkpt>
      <trkpt lat="45.44096" lon="6.35066">
        <ele>2295</ele>
        <time>2022-12-18T12:52:58Z</time>
      </trkpt>
      <trkpt lat="45.44087" lon="6.35057">
        <ele>2294</ele>
        <time>2022-12-18T12:53:00Z</time>
      </trkpt>
      <trkpt lat="45.44083" lon="6.3506">
        <ele>2293</ele>
        <time>2022-12-18T12:53:01Z</time>
      </trkpt>
      <trkpt lat="45.4406" lon="6.35085">
        <ele>2287</ele>
        <time>2022-12-18T12:53:08Z</time>
      </trkpt>
      <trkpt lat="45.44058" lon="6.3509">
        <ele>2286</ele>
        <time>2022-12-18T12:53:09Z</time>
      </trkpt>
      <trkpt lat="45.44058" lon="6.35095">
        <ele>2284</ele>
        <time>2022-12-18T12:53:10Z</time>
      </trkpt>
      <trkpt lat="45.44057" lon="6.35105">
        <ele>2282</ele>
        <time>2022-12-18T12:53:12Z</time>
      </trkpt>
      <trkpt lat="45.44056" lon="6.35109">
        <ele>2281</ele>
        <time>2022-12-18T12:53:13Z</time>
      </trkpt>
      <trkpt lat="45.44053" lon="6.35115">
        <ele>2279</ele>
        <time>2022-12-18T12:53:15Z</time>
      </trkpt>
      <trkpt lat="45.44054" lon="6.35119">
        <ele>2278</ele>
        <time>2022-12-18T12:53:16Z</time>
      </trkpt>
      <trkpt lat="45.44055" lon="6.35123">
        <ele>2276</ele>
        <time>2022-12-18T12:53:17Z</time>
      </trkpt>
      <trkpt lat="45.44052" lon="6.35128">
        <ele>2275</ele>
        <time>2022-12-18T12:53:19Z</time>
      </trkpt>
      <trkpt lat="45.44051" lon="6.35134">
        <ele>2273</ele>
        <time>2022-12-18T12:53:20Z</time>
      </trkpt>
      <trkpt lat="45.44049" lon="6.35139">
        <ele>2271</ele>
        <time>2022-12-18T12:53:21Z</time>
      </trkpt>
      <trkpt lat="45.44045" lon="6.35148">
        <ele>2269</ele>
        <time>2022-12-18T12:53:23Z</time>
      </trkpt>
      <trkpt lat="45.44041" lon="6.35158">
        <ele>2266</ele>
        <time>2022-12-18T12:53:25Z</time>
      </trkpt>
      <trkpt lat="45.44039" lon="6.35163">
        <ele>2263</ele>
        <time>2022-12-18T12:53:26Z</time>
      </trkpt>
      <trkpt lat="45.4403" lon="6.35174">
        <ele>2257</ele>
        <time>2022-12-18T12:53:29Z</time>
      </trkpt>
      <trkpt lat="45.44025" lon="6.35176">
        <ele>2253</ele>
        <time>2022-12-18T12:53:31Z</time>
      </trkpt>
      <trkpt lat="45.44016" lon="6.35169">
        <ele>2251</ele>
        <time>2022-12-18T12:53:33Z</time>
      </trkpt>
      <trkpt lat="45.44011" lon="6.35166">
        <ele>2250</ele>
        <time>2022-12-18T12:53:34Z</time>
      </trkpt>
      <trkpt lat="45.4401" lon="6.35169">
        <ele>2247</ele>
        <time>2022-12-18T12:53:48Z</time>
      </trkpt>
      <trkpt lat="45.44008" lon="6.35168">
        <ele>2247</ele>
        <time>2022-12-18T12:53:52Z</time>
      </trkpt>
      <trkpt lat="45.44" lon="6.35155">
        <ele>2245</ele>
        <time>2022-12-18T12:53:58Z</time>
      </trkpt>
      <trkpt lat="45.43988" lon="6.35137">
        <ele>2242</ele>
        <time>2022-12-18T12:54:01Z</time>
      </trkpt>
      <trkpt lat="45.4398" lon="6.35128">
        <ele>2241</ele>
        <time>2022-12-18T12:54:03Z</time>
      </trkpt>
      <trkpt lat="45.43957" lon="6.35115">
        <ele>2237</ele>
        <time>2022-12-18T12:54:10Z</time>
      </trkpt>
      <trkpt lat="45.43954" lon="6.35117">
        <ele>2236</ele>
        <time>2022-12-18T12:54:11Z</time>
      </trkpt>
      <trkpt lat="45.43951" lon="6.35124">
        <ele>2234</ele>
        <time>2022-12-18T12:54:12Z</time>
      </trkpt>
      <trkpt lat="45.43949" lon="6.35132">
        <ele>2232</ele>
        <time>2022-12-18T12:54:14Z</time>
      </trkpt>
      <trkpt lat="45.43945" lon="6.35134">
        <ele>2231</ele>
        <time>2022-12-18T12:54:15Z</time>
      </trkpt>
      <trkpt lat="45.4394" lon="6.35133">
        <ele>2229</ele>
        <time>2022-12-18T12:54:16Z</time>
      </trkpt>
      <trkpt lat="45.43935" lon="6.35136">
        <ele>2227</ele>
        <time>2022-12-18T12:54:17Z</time>
      </trkpt>
      <trkpt lat="45.43917" lon="6.35147">
        <ele>2221</ele>
        <time>2022-12-18T12:54:21Z</time>
      </trkpt>
      <trkpt lat="45.43919" lon="6.35145">
        <ele>2218</ele>
        <time>2022-12-18T12:54:36Z</time>
      </trkpt>
      <trkpt lat="45.43915" lon="6.35142">
        <ele>2215</ele>
        <time>2022-12-18T12:54:39Z</time>
      </trkpt>
      <trkpt lat="45.43911" lon="6.35141">
        <ele>2214</ele>
        <time>2022-12-18T12:54:40Z</time>
      </trkpt>
      <trkpt lat="45.43909" lon="6.35138">
        <ele>2212</ele>
        <time>2022-12-18T12:54:45Z</time>
      </trkpt>
      <trkpt lat="45.43905" lon="6.35143">
        <ele>2210</ele>
        <time>2022-12-18T12:55:00Z</time>
      </trkpt>
      <trkpt lat="45.43903" lon="6.35144">
        <ele>2210</ele>
        <time>2022-12-18T12:55:04Z</time>
      </trkpt>
      <trkpt lat="45.43903" lon="6.35144">
        <ele>2210</ele>
        <time>2022-12-18T13:05:51Z</time>
      </trkpt>
      <trkpt lat="45.43901" lon="6.35146">
        <ele>2211</ele>
        <time>2022-12-18T13:18:41Z</time>
      </trkpt>
      <trkpt lat="45.439" lon="6.35144">
        <ele>2211</ele>
        <time>2022-12-18T13:21:53Z</time>
      </trkpt>
      <trkpt lat="45.439" lon="6.35141">
        <ele>2211</ele>
        <time>2022-12-18T13:21:59Z</time>
      </trkpt>
      <trkpt lat="45.43903" lon="6.3514">
        <ele>2212</ele>
        <time>2022-12-18T13:23:25Z</time>
      </trkpt>
      <trkpt lat="45.43904" lon="6.35139">
        <ele>2213</ele>
        <time>2022-12-18T13:23:27Z</time>
      </trkpt>
      <trkpt lat="45.43905" lon="6.35134">
        <ele>2214</ele>
        <time>2022-12-18T13:23:29Z</time>
      </trkpt>
      <trkpt lat="45.43898" lon="6.35127">
        <ele>2213</ele>
        <time>2022-12-18T13:23:32Z</time>
      </trkpt>
      <trkpt lat="45.43896" lon="6.35126">
        <ele>2212</ele>
        <time>2022-12-18T13:23:33Z</time>
      </trkpt>
      <trkpt lat="45.43894" lon="6.35126">
        <ele>2211</ele>
        <time>2022-12-18T13:23:37Z</time>
      </trkpt>
      <trkpt lat="45.43891" lon="6.35129">
        <ele>2211</ele>
        <time>2022-12-18T13:23:42Z</time>
      </trkpt>
      <trkpt lat="45.43889" lon="6.35129">
        <ele>2211</ele>
        <time>2022-12-18T13:23:44Z</time>
      </trkpt>
      <trkpt lat="45.43887" lon="6.35129">
        <ele>2211</ele>
        <time>2022-12-18T13:23:46Z</time>
      </trkpt>
      <trkpt lat="45.43885" lon="6.35128">
        <ele>2210</ele>
        <time>2022-12-18T13:23:50Z</time>
      </trkpt>
      <trkpt lat="45.43879" lon="6.35127">
        <ele>2211</ele>
        <time>2022-12-18T13:24:04Z</time>
      </trkpt>
      <trkpt lat="45.43877" lon="6.35125">
        <ele>2211</ele>
        <time>2022-12-18T13:24:07Z</time>
      </trkpt>
      <trkpt lat="45.43868" lon="6.35123">
        <ele>2211</ele>
        <time>2022-12-18T13:25:26Z</time>
      </trkpt>
      <trkpt lat="45.43865" lon="6.35119">
        <ele>2209</ele>
        <time>2022-12-18T13:25:28Z</time>
      </trkpt>
      <trkpt lat="45.4386" lon="6.35107">
        <ele>2208</ele>
        <time>2022-12-18T13:25:30Z</time>
      </trkpt>
      <trkpt lat="45.43857" lon="6.35101">
        <ele>2208</ele>
        <time>2022-12-18T13:25:31Z</time>
      </trkpt>
      <trkpt lat="45.43848" lon="6.35094">
        <ele>2207</ele>
        <time>2022-12-18T13:25:33Z</time>
      </trkpt>
      <trkpt lat="45.43842" lon="6.35092">
        <ele>2207</ele>
        <time>2022-12-18T13:25:35Z</time>
      </trkpt>
      <trkpt lat="45.43838" lon="6.35093">
        <ele>2207</ele>
        <time>2022-12-18T13:25:37Z</time>
      </trkpt>
      <trkpt lat="45.43837" lon="6.35097">
        <ele>2206</ele>
        <time>2022-12-18T13:25:41Z</time>
      </trkpt>
      <trkpt lat="45.43838" lon="6.35104">
        <ele>2204</ele>
        <time>2022-12-18T13:25:43Z</time>
      </trkpt>
      <trkpt lat="45.43836" lon="6.35107">
        <ele>2203</ele>
        <time>2022-12-18T13:25:46Z</time>
      </trkpt>
      <trkpt lat="45.43834" lon="6.35113">
        <ele>2203</ele>
        <time>2022-12-18T13:25:48Z</time>
      </trkpt>
      <trkpt lat="45.43837" lon="6.35127">
        <ele>2201</ele>
        <time>2022-12-18T13:25:51Z</time>
      </trkpt>
      <trkpt lat="45.43835" lon="6.3513">
        <ele>2200</ele>
        <time>2022-12-18T13:25:55Z</time>
      </trkpt>
      <trkpt lat="45.43831" lon="6.35121">
        <ele>2199</ele>
        <time>2022-12-18T13:25:59Z</time>
      </trkpt>
      <trkpt lat="45.43826" lon="6.35117">
        <ele>2198</ele>
        <time>2022-12-18T13:26:01Z</time>
      </trkpt>
      <trkpt lat="45.43823" lon="6.35115">
        <ele>2197</ele>
        <time>2022-12-18T13:26:05Z</time>
      </trkpt>
      <trkpt lat="45.43806" lon="6.35112">
        <ele>2193</ele>
        <time>2022-12-18T13:26:12Z</time>
      </trkpt>
      <trkpt lat="45.438" lon="6.35107">
        <ele>2192</ele>
        <time>2022-12-18T13:26:14Z</time>
      </trkpt>
      <trkpt lat="45.43787" lon="6.3509">
        <ele>2188</ele>
        <time>2022-12-18T13:26:19Z</time>
      </trkpt>
      <trkpt lat="45.43786" lon="6.35087">
        <ele>2187</ele>
        <time>2022-12-18T13:26:21Z</time>
      </trkpt>
      <trkpt lat="45.43784" lon="6.35085">
        <ele>2186</ele>
        <time>2022-12-18T13:26:41Z</time>
      </trkpt>
      <trkpt lat="45.43782" lon="6.35083">
        <ele>2184</ele>
        <time>2022-12-18T13:26:44Z</time>
      </trkpt>
      <trkpt lat="45.4378" lon="6.3508">
        <ele>2182</ele>
        <time>2022-12-18T13:26:50Z</time>
      </trkpt>
      <trkpt lat="45.43779" lon="6.35076">
        <ele>2180</ele>
        <time>2022-12-18T13:26:52Z</time>
      </trkpt>
      <trkpt lat="45.43775" lon="6.35074">
        <ele>2177</ele>
        <time>2022-12-18T13:27:01Z</time>
      </trkpt>
      <trkpt lat="45.43773" lon="6.35077">
        <ele>2177</ele>
        <time>2022-12-18T13:27:02Z</time>
      </trkpt>
      <trkpt lat="45.43773" lon="6.35081">
        <ele>2176</ele>
        <time>2022-12-18T13:27:03Z</time>
      </trkpt>
      <trkpt lat="45.4377" lon="6.35076">
        <ele>2173</ele>
        <time>2022-12-18T13:27:08Z</time>
      </trkpt>
      <trkpt lat="45.43765" lon="6.35073">
        <ele>2172</ele>
        <time>2022-12-18T13:27:10Z</time>
      </trkpt>
      <trkpt lat="45.43764" lon="6.35076">
        <ele>2170</ele>
        <time>2022-12-18T13:27:11Z</time>
      </trkpt>
      <trkpt lat="45.4376" lon="6.35081">
        <ele>2169</ele>
        <time>2022-12-18T13:27:13Z</time>
      </trkpt>
      <trkpt lat="45.43754" lon="6.35078">
        <ele>2167</ele>
        <time>2022-12-18T13:27:15Z</time>
      </trkpt>
      <trkpt lat="45.43749" lon="6.35083">
        <ele>2165</ele>
        <time>2022-12-18T13:27:17Z</time>
      </trkpt>
      <trkpt lat="45.43748" lon="6.35078">
        <ele>2163</ele>
        <time>2022-12-18T13:27:25Z</time>
      </trkpt>
      <trkpt lat="45.43742" lon="6.35082">
        <ele>2157</ele>
        <time>2022-12-18T13:27:30Z</time>
      </trkpt>
      <trkpt lat="45.43739" lon="6.35074">
        <ele>2154</ele>
        <time>2022-12-18T13:27:32Z</time>
      </trkpt>
      <trkpt lat="45.43736" lon="6.35071">
        <ele>2153</ele>
        <time>2022-12-18T13:27:34Z</time>
      </trkpt>
      <trkpt lat="45.43733" lon="6.35076">
        <ele>2152</ele>
        <time>2022-12-18T13:27:35Z</time>
      </trkpt>
      <trkpt lat="45.43733" lon="6.3508">
        <ele>2150</ele>
        <time>2022-12-18T13:27:36Z</time>
      </trkpt>
      <trkpt lat="45.43734" lon="6.35083">
        <ele>2149</ele>
        <time>2022-12-18T13:27:38Z</time>
      </trkpt>
      <trkpt lat="45.43731" lon="6.35097">
        <ele>2143</ele>
        <time>2022-12-18T13:28:04Z</time>
      </trkpt>
      <trkpt lat="45.4373" lon="6.35103">
        <ele>2142</ele>
        <time>2022-12-18T13:28:06Z</time>
      </trkpt>
      <trkpt lat="45.4373" lon="6.35105">
        <ele>2141</ele>
        <time>2022-12-18T13:28:08Z</time>
      </trkpt>
      <trkpt lat="45.43727" lon="6.35103">
        <ele>2140</ele>
        <time>2022-12-18T13:28:10Z</time>
      </trkpt>
      <trkpt lat="45.43726" lon="6.35099">
        <ele>2140</ele>
        <time>2022-12-18T13:28:11Z</time>
      </trkpt>
      <trkpt lat="45.43723" lon="6.35097">
        <ele>2139</ele>
        <time>2022-12-18T13:28:13Z</time>
      </trkpt>
      <trkpt lat="45.43722" lon="6.35101">
        <ele>2139</ele>
        <time>2022-12-18T13:28:14Z</time>
      </trkpt>
      <trkpt lat="45.43721" lon="6.35106">
        <ele>2137</ele>
        <time>2022-12-18T13:28:15Z</time>
      </trkpt>
      <trkpt lat="45.43721" lon="6.35121">
        <ele>2135</ele>
        <time>2022-12-18T13:28:18Z</time>
      </trkpt>
      <trkpt lat="45.43719" lon="6.35132">
        <ele>2133</ele>
        <time>2022-12-18T13:28:20Z</time>
      </trkpt>
      <trkpt lat="45.43704" lon="6.35168">
        <ele>2127</ele>
        <time>2022-12-18T13:28:29Z</time>
      </trkpt>
      <trkpt lat="45.437" lon="6.35176">
        <ele>2126</ele>
        <time>2022-12-18T13:28:36Z</time>
      </trkpt>
      <trkpt lat="45.43691" lon="6.35213">
        <ele>2120</ele>
        <time>2022-12-18T13:28:46Z</time>
      </trkpt>
      <trkpt lat="45.4369" lon="6.35238">
        <ele>2119</ele>
        <time>2022-12-18T13:28:51Z</time>
      </trkpt>
      <trkpt lat="45.43688" lon="6.35318">
        <ele>2114</ele>
        <time>2022-12-18T13:29:07Z</time>
      </trkpt>
      <trkpt lat="45.43688" lon="6.35322">
        <ele>2114</ele>
        <time>2022-12-18T13:29:08Z</time>
      </trkpt>
      <trkpt lat="45.43687" lon="6.35329">
        <ele>2113</ele>
        <time>2022-12-18T13:29:11Z</time>
      </trkpt>
      <trkpt lat="45.43685" lon="6.35332">
        <ele>2113</ele>
        <time>2022-12-18T13:29:12Z</time>
      </trkpt>
      <trkpt lat="45.43683" lon="6.35334">
        <ele>2112</ele>
        <time>2022-12-18T13:29:14Z</time>
      </trkpt>
      <trkpt lat="45.43665" lon="6.35338">
        <ele>2109</ele>
        <time>2022-12-18T13:29:25Z</time>
      </trkpt>
      <trkpt lat="45.43659" lon="6.35341">
        <ele>2108</ele>
        <time>2022-12-18T13:29:27Z</time>
      </trkpt>
      <trkpt lat="45.43657" lon="6.35341">
        <ele>2107</ele>
        <time>2022-12-18T13:29:41Z</time>
      </trkpt>
      <trkpt lat="45.43654" lon="6.35339">
        <ele>2106</ele>
        <time>2022-12-18T13:29:44Z</time>
      </trkpt>
      <trkpt lat="45.43652" lon="6.35345">
        <ele>2105</ele>
        <time>2022-12-18T13:29:46Z</time>
      </trkpt>
      <trkpt lat="45.43651" lon="6.3536">
        <ele>2102</ele>
        <time>2022-12-18T13:29:53Z</time>
      </trkpt>
      <trkpt lat="45.4365" lon="6.35369">
        <ele>2100</ele>
        <time>2022-12-18T13:29:55Z</time>
      </trkpt>
      <trkpt lat="45.43647" lon="6.35373">
        <ele>2100</ele>
        <time>2022-12-18T13:29:57Z</time>
      </trkpt>
      <trkpt lat="45.43644" lon="6.35372">
        <ele>2100</ele>
        <time>2022-12-18T13:29:59Z</time>
      </trkpt>
      <trkpt lat="45.43638" lon="6.35376">
        <ele>2098</ele>
        <time>2022-12-18T13:30:01Z</time>
      </trkpt>
      <trkpt lat="45.43628" lon="6.35371">
        <ele>2096</ele>
        <time>2022-12-18T13:30:04Z</time>
      </trkpt>
      <trkpt lat="45.43624" lon="6.35373">
        <ele>2095</ele>
        <time>2022-12-18T13:30:05Z</time>
      </trkpt>
      <trkpt lat="45.43621" lon="6.35368">
        <ele>2094</ele>
        <time>2022-12-18T13:30:06Z</time>
      </trkpt>
      <trkpt lat="45.43621" lon="6.35362">
        <ele>2093</ele>
        <time>2022-12-18T13:30:07Z</time>
      </trkpt>
      <trkpt lat="45.43625" lon="6.35365">
        <ele>2090</ele>
        <time>2022-12-18T13:30:09Z</time>
      </trkpt>
      <trkpt lat="45.43626" lon="6.35363">
        <ele>2087</ele>
        <time>2022-12-18T13:31:20Z</time>
      </trkpt>
      <trkpt lat="45.43624" lon="6.3536">
        <ele>2087</ele>
        <time>2022-12-18T13:32:10Z</time>
      </trkpt>
      <trkpt lat="45.43621" lon="6.35359">
        <ele>2085</ele>
        <time>2022-12-18T13:32:11Z</time>
      </trkpt>
      <trkpt lat="45.43619" lon="6.35362">
        <ele>2084</ele>
        <time>2022-12-18T13:32:12Z</time>
      </trkpt>
      <trkpt lat="45.43615" lon="6.35373">
        <ele>2082</ele>
        <time>2022-12-18T13:32:14Z</time>
      </trkpt>
      <trkpt lat="45.43614" lon="6.35376">
        <ele>2080</ele>
        <time>2022-12-18T13:32:15Z</time>
      </trkpt>
      <trkpt lat="45.43613" lon="6.35379">
        <ele>2080</ele>
        <time>2022-12-18T13:32:16Z</time>
      </trkpt>
      <trkpt lat="45.43611" lon="6.35382">
        <ele>2079</ele>
        <time>2022-12-18T13:32:17Z</time>
      </trkpt>
      <trkpt lat="45.43607" lon="6.35379">
        <ele>2078</ele>
        <time>2022-12-18T13:32:19Z</time>
      </trkpt>
      <trkpt lat="45.43604" lon="6.35378">
        <ele>2077</ele>
        <time>2022-12-18T13:32:20Z</time>
      </trkpt>
      <trkpt lat="45.436" lon="6.35382">
        <ele>2075</ele>
        <time>2022-12-18T13:32:21Z</time>
      </trkpt>
      <trkpt lat="45.43598" lon="6.35399">
        <ele>2072</ele>
        <time>2022-12-18T13:32:24Z</time>
      </trkpt>
      <trkpt lat="45.43597" lon="6.35414">
        <ele>2070</ele>
        <time>2022-12-18T13:32:27Z</time>
      </trkpt>
      <trkpt lat="45.43596" lon="6.35417">
        <ele>2068</ele>
        <time>2022-12-18T13:32:28Z</time>
      </trkpt>
      <trkpt lat="45.43591" lon="6.35417">
        <ele>2068</ele>
        <time>2022-12-18T13:32:30Z</time>
      </trkpt>
      <trkpt lat="45.43586" lon="6.35414">
        <ele>2066</ele>
        <time>2022-12-18T13:32:31Z</time>
      </trkpt>
      <trkpt lat="45.43583" lon="6.3542">
        <ele>2064</ele>
        <time>2022-12-18T13:32:33Z</time>
      </trkpt>
      <trkpt lat="45.43579" lon="6.35433">
        <ele>2060</ele>
        <time>2022-12-18T13:32:35Z</time>
      </trkpt>
      <trkpt lat="45.43579" lon="6.35438">
        <ele>2060</ele>
        <time>2022-12-18T13:32:36Z</time>
      </trkpt>
      <trkpt lat="45.43576" lon="6.35442">
        <ele>2059</ele>
        <time>2022-12-18T13:32:38Z</time>
      </trkpt>
      <trkpt lat="45.43573" lon="6.35439">
        <ele>2058</ele>
        <time>2022-12-18T13:32:40Z</time>
      </trkpt>
      <trkpt lat="45.43565" lon="6.35451">
        <ele>2053</ele>
        <time>2022-12-18T13:32:46Z</time>
      </trkpt>
      <trkpt lat="45.43563" lon="6.35452">
        <ele>2052</ele>
        <time>2022-12-18T13:32:49Z</time>
      </trkpt>
      <trkpt lat="45.43561" lon="6.35452">
        <ele>2051</ele>
        <time>2022-12-18T13:32:50Z</time>
      </trkpt>
      <trkpt lat="45.4356" lon="6.35446">
        <ele>2051</ele>
        <time>2022-12-18T13:32:52Z</time>
      </trkpt>
      <trkpt lat="45.43562" lon="6.35442">
        <ele>2051</ele>
        <time>2022-12-18T13:32:55Z</time>
      </trkpt>
      <trkpt lat="45.43561" lon="6.35429">
        <ele>2049</ele>
        <time>2022-12-18T13:32:57Z</time>
      </trkpt>
      <trkpt lat="45.4356" lon="6.35423">
        <ele>2045</ele>
        <time>2022-12-18T13:33:06Z</time>
      </trkpt>
      <trkpt lat="45.43556" lon="6.35427">
        <ele>2044</ele>
        <time>2022-12-18T13:33:08Z</time>
      </trkpt>
      <trkpt lat="45.43554" lon="6.35429">
        <ele>2039</ele>
        <time>2022-12-18T13:33:15Z</time>
      </trkpt>
      <trkpt lat="45.43551" lon="6.3543">
        <ele>2039</ele>
        <time>2022-12-18T13:33:17Z</time>
      </trkpt>
      <trkpt lat="45.43546" lon="6.35434">
        <ele>2036</ele>
        <time>2022-12-18T13:33:20Z</time>
      </trkpt>
      <trkpt lat="45.43541" lon="6.35443">
        <ele>2034</ele>
        <time>2022-12-18T13:33:22Z</time>
      </trkpt>
      <trkpt lat="45.43536" lon="6.35453">
        <ele>2031</ele>
        <time>2022-12-18T13:33:25Z</time>
      </trkpt>
      <trkpt lat="45.43512" lon="6.35491">
        <ele>2026</ele>
        <time>2022-12-18T13:33:34Z</time>
      </trkpt>
      <trkpt lat="45.43509" lon="6.3549">
        <ele>2026</ele>
        <time>2022-12-18T13:33:47Z</time>
      </trkpt>
      <trkpt lat="45.43508" lon="6.35486">
        <ele>2025</ele>
        <time>2022-12-18T13:33:48Z</time>
      </trkpt>
      <trkpt lat="45.43504" lon="6.35485">
        <ele>2024</ele>
        <time>2022-12-18T13:33:50Z</time>
      </trkpt>
      <trkpt lat="45.435" lon="6.35478">
        <ele>2022</ele>
        <time>2022-12-18T13:33:52Z</time>
      </trkpt>
      <trkpt lat="45.43496" lon="6.3548">
        <ele>2021</ele>
        <time>2022-12-18T13:33:53Z</time>
      </trkpt>
      <trkpt lat="45.43493" lon="6.35485">
        <ele>2020</ele>
        <time>2022-12-18T13:33:54Z</time>
      </trkpt>
      <trkpt lat="45.43492" lon="6.35488">
        <ele>2019</ele>
        <time>2022-12-18T13:33:55Z</time>
      </trkpt>
      <trkpt lat="45.43488" lon="6.35486">
        <ele>2017</ele>
        <time>2022-12-18T13:34:10Z</time>
      </trkpt>
      <trkpt lat="45.43486" lon="6.35482">
        <ele>2016</ele>
        <time>2022-12-18T13:34:11Z</time>
      </trkpt>
      <trkpt lat="45.43483" lon="6.3548">
        <ele>2015</ele>
        <time>2022-12-18T13:34:12Z</time>
      </trkpt>
      <trkpt lat="45.43477" lon="6.35488">
        <ele>2012</ele>
        <time>2022-12-18T13:34:16Z</time>
      </trkpt>
      <trkpt lat="45.43472" lon="6.35492">
        <ele>2009</ele>
        <time>2022-12-18T13:34:21Z</time>
      </trkpt>
      <trkpt lat="45.43468" lon="6.35496">
        <ele>2006</ele>
        <time>2022-12-18T13:34:22Z</time>
      </trkpt>
      <trkpt lat="45.43466" lon="6.35499">
        <ele>2005</ele>
        <time>2022-12-18T13:34:23Z</time>
      </trkpt>
      <trkpt lat="45.43464" lon="6.35501">
        <ele>2003</ele>
        <time>2022-12-18T13:34:24Z</time>
      </trkpt>
      <trkpt lat="45.43459" lon="6.3549">
        <ele>2001</ele>
        <time>2022-12-18T13:34:26Z</time>
      </trkpt>
      <trkpt lat="45.43455" lon="6.35493">
        <ele>1998</ele>
        <time>2022-12-18T13:34:28Z</time>
      </trkpt>
      <trkpt lat="45.43455" lon="6.35499">
        <ele>1995</ele>
        <time>2022-12-18T13:36:21Z</time>
      </trkpt>
      <trkpt lat="45.43453" lon="6.35503">
        <ele>1993</ele>
        <time>2022-12-18T13:37:43Z</time>
      </trkpt>
      <trkpt lat="45.43451" lon="6.35506">
        <ele>1992</ele>
        <time>2022-12-18T13:37:48Z</time>
      </trkpt>
      <trkpt lat="45.43448" lon="6.35508">
        <ele>1990</ele>
        <time>2022-12-18T13:38:08Z</time>
      </trkpt>
      <trkpt lat="45.43446" lon="6.35507">
        <ele>1990</ele>
        <time>2022-12-18T13:38:17Z</time>
      </trkpt>
      <trkpt lat="45.43444" lon="6.3551">
        <ele>1988</ele>
        <time>2022-12-18T13:38:23Z</time>
      </trkpt>
      <trkpt lat="45.43444" lon="6.35513">
        <ele>1988</ele>
        <time>2022-12-18T13:38:37Z</time>
      </trkpt>
      <trkpt lat="45.43445" lon="6.35513">
        <ele>1987</ele>
        <time>2022-12-18T13:39:30Z</time>
      </trkpt>
      <trkpt lat="45.43444" lon="6.35517">
        <ele>1988</ele>
        <time>2022-12-18T13:42:51Z</time>
      </trkpt>
      <trkpt lat="45.43446" lon="6.35518">
        <ele>1989</ele>
        <time>2022-12-18T13:43:46Z</time>
      </trkpt>
      <trkpt lat="45.43447" lon="6.35516">
        <ele>1992</ele>
        <time>2022-12-18T13:48:20Z</time>
      </trkpt>
      <trkpt lat="45.43447" lon="6.35514">
        <ele>1993</ele>
        <time>2022-12-18T13:56:47Z</time>
      </trkpt>
      <trkpt lat="45.43449" lon="6.35511">
        <ele>1993</ele>
        <time>2022-12-18T13:56:55Z</time>
      </trkpt>
      <trkpt lat="45.43451" lon="6.35507">
        <ele>1994</ele>
        <time>2022-12-18T13:57:08Z</time>
      </trkpt>
      <trkpt lat="45.43451" lon="6.35505">
        <ele>1994</ele>
        <time>2022-12-18T13:57:15Z</time>
      </trkpt>
      <trkpt lat="45.43453" lon="6.35503">
        <ele>1994</ele>
        <time>2022-12-18T13:57:32Z</time>
      </trkpt>
      <trkpt lat="45.43451" lon="6.35507">
        <ele>1994</ele>
        <time>2022-12-18T13:59:33Z</time>
      </trkpt>
      <trkpt lat="45.4345" lon="6.3551">
        <ele>1994</ele>
        <time>2022-12-18T13:59:36Z</time>
      </trkpt>
      <trkpt lat="45.43449" lon="6.35513">
        <ele>1992</ele>
        <time>2022-12-18T13:59:40Z</time>
      </trkpt>
      <trkpt lat="45.43446" lon="6.35515">
        <ele>1991</ele>
        <time>2022-12-18T13:59:45Z</time>
      </trkpt>
      <trkpt lat="45.43448" lon="6.35518">
        <ele>1990</ele>
        <time>2022-12-18T14:00:17Z</time>
      </trkpt>
      <trkpt lat="45.43449" lon="6.35516">
        <ele>1990</ele>
        <time>2022-12-18T14:01:06Z</time>
      </trkpt>
      <trkpt lat="45.43451" lon="6.35513">
        <ele>1991</ele>
        <time>2022-12-18T14:01:11Z</time>
      </trkpt>
      <trkpt lat="45.43451" lon="6.35509">
        <ele>1990</ele>
        <time>2022-12-18T14:01:18Z</time>
      </trkpt>
      <trkpt lat="45.43454" lon="6.35507">
        <ele>1990</ele>
        <time>2022-12-18T14:01:27Z</time>
      </trkpt>
      <trkpt lat="45.43453" lon="6.35508">
        <ele>1989</ele>
        <time>2022-12-18T14:02:38Z</time>
      </trkpt>
      <trkpt lat="45.43451" lon="6.3551">
        <ele>1989</ele>
        <time>2022-12-18T14:02:44Z</time>
      </trkpt>
      <trkpt lat="45.4345" lon="6.35514">
        <ele>1989</ele>
        <time>2022-12-18T14:02:47Z</time>
      </trkpt>
      <trkpt lat="45.43449" lon="6.35516">
        <ele>1988</ele>
        <time>2022-12-18T14:03:01Z</time>
      </trkpt>
      <trkpt lat="45.43448" lon="6.35516">
        <ele>1991</ele>
        <time>2022-12-18T14:06:21Z</time>
      </trkpt>
      <trkpt lat="45.43447" lon="6.35513">
        <ele>1990</ele>
        <time>2022-12-18T14:06:52Z</time>
      </trkpt>
      <trkpt lat="45.43449" lon="6.3551">
        <ele>1990</ele>
        <time>2022-12-18T14:06:57Z</time>
      </trkpt>
      <trkpt lat="45.43451" lon="6.35511">
        <ele>1990</ele>
        <time>2022-12-18T14:07:37Z</time>
      </trkpt>
      <trkpt lat="45.4345" lon="6.35513">
        <ele>1991</ele>
        <time>2022-12-18T14:07:58Z</time>
      </trkpt>
      <trkpt lat="45.4345" lon="6.35516">
        <ele>1990</ele>
        <time>2022-12-18T14:08:18Z</time>
      </trkpt>
      <trkpt lat="45.43448" lon="6.35517">
        <ele>1990</ele>
        <time>2022-12-18T14:09:35Z</time>
      </trkpt>
      <trkpt lat="45.43447" lon="6.35515">
        <ele>1989</ele>
        <time>2022-12-18T14:12:04Z</time>
      </trkpt>
      <trkpt lat="45.43447" lon="6.35517">
        <ele>1985</ele>
        <time>2022-12-18T14:13:50Z</time>
      </trkpt>
      <trkpt lat="45.43447" lon="6.35516">
        <ele>1988</ele>
        <time>2022-12-18T14:18:51Z</time>
      </trkpt>
      <trkpt lat="45.43448" lon="6.35514">
        <ele>1990</ele>
        <time>2022-12-18T14:23:17Z</time>
      </trkpt>
      <trkpt lat="45.43451" lon="6.35508">
        <ele>1991</ele>
        <time>2022-12-18T14:23:26Z</time>
      </trkpt>
      <trkpt lat="45.43453" lon="6.35505">
        <ele>1991</ele>
        <time>2022-12-18T14:23:31Z</time>
      </trkpt>
      <trkpt lat="45.43457" lon="6.35499">
        <ele>1991</ele>
        <time>2022-12-18T14:23:41Z</time>
      </trkpt>
      <trkpt lat="45.43456" lon="6.35496">
        <ele>1993</ele>
        <time>2022-12-18T14:25:04Z</time>
      </trkpt>
      <trkpt lat="45.43454" lon="6.35499">
        <ele>1992</ele>
        <time>2022-12-18T14:25:26Z</time>
      </trkpt>
      <trkpt lat="45.43453" lon="6.35501">
        <ele>1992</ele>
        <time>2022-12-18T14:27:28Z</time>
      </trkpt>
      <trkpt lat="45.43452" lon="6.35501">
        <ele>1993</ele>
        <time>2022-12-18T14:29:40Z</time>
      </trkpt>
      <trkpt lat="45.43451" lon="6.35505">
        <ele>1993</ele>
        <time>2022-12-18T14:30:33Z</time>
      </trkpt>
      <trkpt lat="45.4345" lon="6.35512">
        <ele>1991</ele>
        <time>2022-12-18T14:31:10Z</time>
      </trkpt>
      <trkpt lat="45.43449" lon="6.35513">
        <ele>1989</ele>
        <time>2022-12-18T14:32:18Z</time>
      </trkpt>
      <trkpt lat="45.43449" lon="6.35514">
        <ele>1991</ele>
        <time>2022-12-18T14:41:02Z</time>
      </trkpt>
    </trkseg>
  </trk>
</gpx>